<?xml version="1.0" encoding="UTF-8" standalone="no" ?>
<gpx xmlns="http://www.topografix.com/GPX/1/1" xmlns:xsi="http://www.w3.org/2001/XMLSchema-instance" xsi:schemaLocation="http://www.topografix.com/GPX/1/1 http://www.topografix.com/GPX/1/1/gpx.xsd" version="1.1" creator="VisuGPX - https://www.visugpx.com">
  <metadata>
    <name>2019-05-27 11:23:29</name>
    <desc><![CDATA[

]]></desc>
  </metadata>
  <trk>
    <name><![CDATA[2019-05-27 11:23:29]]></name>
    <trkseg>
      <trkpt lat="41.02594" lon="-8.58091">
        <ele>122.71</ele>
        <time>2019-05-27T06:13:21Z</time>
      </trkpt>
      <trkpt lat="41.02613" lon="-8.58083">
        <ele>122.71</ele>
        <time>2019-05-27T06:13:41Z</time>
      </trkpt>
      <trkpt lat="41.02616" lon="-8.58084">
        <ele>122.71</ele>
        <time>2019-05-27T06:14:05Z</time>
      </trkpt>
      <trkpt lat="41.02618" lon="-8.58085">
        <ele>123.19</ele>
        <time>2019-05-27T06:14:23Z</time>
      </trkpt>
      <trkpt lat="41.02623" lon="-8.58081">
        <ele>123.19</ele>
        <time>2019-05-27T06:14:42Z</time>
      </trkpt>
      <trkpt lat="41.02626" lon="-8.58084">
        <ele>123.67</ele>
        <time>2019-05-27T06:14:47Z</time>
      </trkpt>
      <trkpt lat="41.02632" lon="-8.58102">
        <ele>123.19</ele>
        <time>2019-05-27T06:15:00Z</time>
      </trkpt>
      <trkpt lat="41.02637" lon="-8.58108">
        <ele>123.67</ele>
        <time>2019-05-27T06:15:13Z</time>
      </trkpt>
      <trkpt lat="41.02642" lon="-8.58116">
        <ele>123.19</ele>
        <time>2019-05-27T06:15:21Z</time>
      </trkpt>
      <trkpt lat="41.02654" lon="-8.58126">
        <ele>124.15</ele>
        <time>2019-05-27T06:15:34Z</time>
      </trkpt>
      <trkpt lat="41.02665" lon="-8.58132">
        <ele>124.15</ele>
        <time>2019-05-27T06:15:45Z</time>
      </trkpt>
      <trkpt lat="41.02673" lon="-8.58135">
        <ele>124.15</ele>
        <time>2019-05-27T06:15:52Z</time>
      </trkpt>
      <trkpt lat="41.0268" lon="-8.58137">
        <ele>125.11</ele>
        <time>2019-05-27T06:16:04Z</time>
      </trkpt>
      <trkpt lat="41.02692" lon="-8.58139">
        <ele>125.11</ele>
        <time>2019-05-27T06:16:17Z</time>
      </trkpt>
      <trkpt lat="41.02706" lon="-8.58146">
        <ele>126.07</ele>
        <time>2019-05-27T06:16:32Z</time>
      </trkpt>
      <trkpt lat="41.02716" lon="-8.5815">
        <ele>126.07</ele>
        <time>2019-05-27T06:16:45Z</time>
      </trkpt>
      <trkpt lat="41.02729" lon="-8.58154">
        <ele>126.55</ele>
        <time>2019-05-27T06:17:00Z</time>
      </trkpt>
      <trkpt lat="41.02747" lon="-8.58153">
        <ele>127.51</ele>
        <time>2019-05-27T06:17:14Z</time>
      </trkpt>
      <trkpt lat="41.02763" lon="-8.58155">
        <ele>127.99</ele>
        <time>2019-05-27T06:17:29Z</time>
      </trkpt>
      <trkpt lat="41.02767" lon="-8.58157">
        <ele>127.99</ele>
        <time>2019-05-27T06:17:34Z</time>
      </trkpt>
      <trkpt lat="41.02775" lon="-8.58157">
        <ele>128.47</ele>
        <time>2019-05-27T06:17:40Z</time>
      </trkpt>
      <trkpt lat="41.02781" lon="-8.58157">
        <ele>127.99</ele>
        <time>2019-05-27T06:17:44Z</time>
      </trkpt>
      <trkpt lat="41.02799" lon="-8.58158">
        <ele>127.51</ele>
        <time>2019-05-27T06:17:59Z</time>
      </trkpt>
      <trkpt lat="41.02809" lon="-8.58161">
        <ele>127.99</ele>
        <time>2019-05-27T06:18:11Z</time>
      </trkpt>
      <trkpt lat="41.02823" lon="-8.58162">
        <ele>128.47</ele>
        <time>2019-05-27T06:18:24Z</time>
      </trkpt>
      <trkpt lat="41.02841" lon="-8.58163">
        <ele>127.51</ele>
        <time>2019-05-27T06:18:37Z</time>
      </trkpt>
      <trkpt lat="41.02852" lon="-8.58164">
        <ele>127.99</ele>
        <time>2019-05-27T06:18:52Z</time>
      </trkpt>
      <trkpt lat="41.02859" lon="-8.58168">
        <ele>127.51</ele>
        <time>2019-05-27T06:19:07Z</time>
      </trkpt>
      <trkpt lat="41.02862" lon="-8.58172">
        <ele>127.51</ele>
        <time>2019-05-27T06:19:10Z</time>
      </trkpt>
      <trkpt lat="41.02865" lon="-8.58184">
        <ele>127.51</ele>
        <time>2019-05-27T06:19:19Z</time>
      </trkpt>
      <trkpt lat="41.02865" lon="-8.58209">
        <ele>127.03</ele>
        <time>2019-05-27T06:19:35Z</time>
      </trkpt>
      <trkpt lat="41.02866" lon="-8.58228">
        <ele>127.03</ele>
        <time>2019-05-27T06:19:49Z</time>
      </trkpt>
      <trkpt lat="41.02865" lon="-8.58251">
        <ele>127.03</ele>
        <time>2019-05-27T06:20:04Z</time>
      </trkpt>
      <trkpt lat="41.02865" lon="-8.58275">
        <ele>127.51</ele>
        <time>2019-05-27T06:20:20Z</time>
      </trkpt>
      <trkpt lat="41.02865" lon="-8.5829">
        <ele>127.51</ele>
        <time>2019-05-27T06:20:34Z</time>
      </trkpt>
      <trkpt lat="41.02866" lon="-8.58313">
        <ele>127.51</ele>
        <time>2019-05-27T06:20:49Z</time>
      </trkpt>
      <trkpt lat="41.02865" lon="-8.58335">
        <ele>127.51</ele>
        <time>2019-05-27T06:21:03Z</time>
      </trkpt>
      <trkpt lat="41.02865" lon="-8.58359">
        <ele>127.99</ele>
        <time>2019-05-27T06:21:19Z</time>
      </trkpt>
      <trkpt lat="41.02865" lon="-8.5838">
        <ele>127.99</ele>
        <time>2019-05-27T06:21:34Z</time>
      </trkpt>
      <trkpt lat="41.02867" lon="-8.58399">
        <ele>127.99</ele>
        <time>2019-05-27T06:21:48Z</time>
      </trkpt>
      <trkpt lat="41.02867" lon="-8.58417">
        <ele>127.99</ele>
        <time>2019-05-27T06:22:02Z</time>
      </trkpt>
      <trkpt lat="41.02865" lon="-8.58436">
        <ele>128.47</ele>
        <time>2019-05-27T06:22:15Z</time>
      </trkpt>
      <trkpt lat="41.02865" lon="-8.58458">
        <ele>128.47</ele>
        <time>2019-05-27T06:22:30Z</time>
      </trkpt>
      <trkpt lat="41.02865" lon="-8.58479">
        <ele>128.47</ele>
        <time>2019-05-27T06:22:44Z</time>
      </trkpt>
      <trkpt lat="41.02864" lon="-8.58499">
        <ele>128.47</ele>
        <time>2019-05-27T06:22:58Z</time>
      </trkpt>
      <trkpt lat="41.02864" lon="-8.58521">
        <ele>128.95</ele>
        <time>2019-05-27T06:23:12Z</time>
      </trkpt>
      <trkpt lat="41.02864" lon="-8.58543">
        <ele>129.43</ele>
        <time>2019-05-27T06:23:27Z</time>
      </trkpt>
      <trkpt lat="41.02864" lon="-8.58568">
        <ele>129.43</ele>
        <time>2019-05-27T06:23:43Z</time>
      </trkpt>
      <trkpt lat="41.02863" lon="-8.58586">
        <ele>129.43</ele>
        <time>2019-05-27T06:23:58Z</time>
      </trkpt>
      <trkpt lat="41.02863" lon="-8.58597">
        <ele>128.47</ele>
        <time>2019-05-27T06:24:10Z</time>
      </trkpt>
      <trkpt lat="41.02864" lon="-8.58616">
        <ele>128.47</ele>
        <time>2019-05-27T06:24:24Z</time>
      </trkpt>
      <trkpt lat="41.02863" lon="-8.58638">
        <ele>128.47</ele>
        <time>2019-05-27T06:24:37Z</time>
      </trkpt>
      <trkpt lat="41.02864" lon="-8.58657">
        <ele>127.99</ele>
        <time>2019-05-27T06:24:50Z</time>
      </trkpt>
      <trkpt lat="41.02865" lon="-8.58678">
        <ele>127.99</ele>
        <time>2019-05-27T06:25:05Z</time>
      </trkpt>
      <trkpt lat="41.02864" lon="-8.58684">
        <ele>127.51</ele>
        <time>2019-05-27T06:25:09Z</time>
      </trkpt>
      <trkpt lat="41.02863" lon="-8.58702">
        <ele>127.03</ele>
        <time>2019-05-27T06:25:21Z</time>
      </trkpt>
      <trkpt lat="41.02863" lon="-8.58702">
        <ele>127.03</ele>
        <time>2019-05-27T06:25:22Z</time>
      </trkpt>
      <trkpt lat="41.02864" lon="-8.58714">
        <ele>127.03</ele>
        <time>2019-05-27T06:25:29Z</time>
      </trkpt>
      <trkpt lat="41.02862" lon="-8.58736">
        <ele>127.03</ele>
        <time>2019-05-27T06:25:42Z</time>
      </trkpt>
      <trkpt lat="41.02862" lon="-8.58739">
        <ele>127.51</ele>
        <time>2019-05-27T06:25:44Z</time>
      </trkpt>
      <trkpt lat="41.02863" lon="-8.58762">
        <ele>127.03</ele>
        <time>2019-05-27T06:25:58Z</time>
      </trkpt>
      <trkpt lat="41.02863" lon="-8.58779">
        <ele>126.55</ele>
        <time>2019-05-27T06:26:09Z</time>
      </trkpt>
      <trkpt lat="41.02864" lon="-8.58803">
        <ele>126.55</ele>
        <time>2019-05-27T06:26:23Z</time>
      </trkpt>
      <trkpt lat="41.02864" lon="-8.58804">
        <ele>126.07</ele>
        <time>2019-05-27T06:26:25Z</time>
      </trkpt>
      <trkpt lat="41.02864" lon="-8.58815">
        <ele>126.55</ele>
        <time>2019-05-27T06:26:35Z</time>
      </trkpt>
      <trkpt lat="41.02863" lon="-8.58828">
        <ele>126.07</ele>
        <time>2019-05-27T06:26:45Z</time>
      </trkpt>
      <trkpt lat="41.02863" lon="-8.5883">
        <ele>126.55</ele>
        <time>2019-05-27T06:26:46Z</time>
      </trkpt>
      <trkpt lat="41.02863" lon="-8.58854">
        <ele>125.59</ele>
        <time>2019-05-27T06:27:00Z</time>
      </trkpt>
      <trkpt lat="41.02862" lon="-8.58876">
        <ele>126.07</ele>
        <time>2019-05-27T06:27:12Z</time>
      </trkpt>
      <trkpt lat="41.0286" lon="-8.58884">
        <ele>126.07</ele>
        <time>2019-05-27T06:27:18Z</time>
      </trkpt>
      <trkpt lat="41.02862" lon="-8.589">
        <ele>125.59</ele>
        <time>2019-05-27T06:27:27Z</time>
      </trkpt>
      <trkpt lat="41.0286" lon="-8.58902">
        <ele>124.63</ele>
        <time>2019-05-27T06:27:29Z</time>
      </trkpt>
      <trkpt lat="41.02858" lon="-8.58903">
        <ele>125.59</ele>
        <time>2019-05-27T06:27:31Z</time>
      </trkpt>
      <trkpt lat="41.02851" lon="-8.58914">
        <ele>125.11</ele>
        <time>2019-05-27T06:27:42Z</time>
      </trkpt>
      <trkpt lat="41.02865" lon="-8.58927">
        <ele>125.59</ele>
        <time>2019-05-27T06:27:55Z</time>
      </trkpt>
      <trkpt lat="41.02868" lon="-8.58929">
        <ele>125.59</ele>
        <time>2019-05-27T06:27:58Z</time>
      </trkpt>
      <trkpt lat="41.02871" lon="-8.58932">
        <ele>125.59</ele>
        <time>2019-05-27T06:28:02Z</time>
      </trkpt>
      <trkpt lat="41.02881" lon="-8.58923">
        <ele>124.63</ele>
        <time>2019-05-27T06:28:15Z</time>
      </trkpt>
      <trkpt lat="41.02883" lon="-8.58923">
        <ele>125.11</ele>
        <time>2019-05-27T06:28:18Z</time>
      </trkpt>
      <trkpt lat="41.02884" lon="-8.58923">
        <ele>125.11</ele>
        <time>2019-05-27T06:28:19Z</time>
      </trkpt>
      <trkpt lat="41.02887" lon="-8.58922">
        <ele>125.59</ele>
        <time>2019-05-27T06:28:21Z</time>
      </trkpt>
      <trkpt lat="41.02888" lon="-8.58923">
        <ele>125.11</ele>
        <time>2019-05-27T06:28:22Z</time>
      </trkpt>
      <trkpt lat="41.02891" lon="-8.58925">
        <ele>125.59</ele>
        <time>2019-05-27T06:28:25Z</time>
      </trkpt>
      <trkpt lat="41.02894" lon="-8.58925">
        <ele>125.11</ele>
        <time>2019-05-27T06:28:27Z</time>
      </trkpt>
      <trkpt lat="41.02895" lon="-8.58924">
        <ele>125.59</ele>
        <time>2019-05-27T06:28:28Z</time>
      </trkpt>
      <trkpt lat="41.02907" lon="-8.58928">
        <ele>125.11</ele>
        <time>2019-05-27T06:28:42Z</time>
      </trkpt>
      <trkpt lat="41.02911" lon="-8.58932">
        <ele>124.63</ele>
        <time>2019-05-27T06:28:47Z</time>
      </trkpt>
      <trkpt lat="41.02917" lon="-8.58938">
        <ele>124.15</ele>
        <time>2019-05-27T06:28:56Z</time>
      </trkpt>
      <trkpt lat="41.02923" lon="-8.58937">
        <ele>124.63</ele>
        <time>2019-05-27T06:29:03Z</time>
      </trkpt>
      <trkpt lat="41.02936" lon="-8.58936">
        <ele>123.67</ele>
        <time>2019-05-27T06:29:13Z</time>
      </trkpt>
      <trkpt lat="41.02952" lon="-8.58933">
        <ele>122.22</ele>
        <time>2019-05-27T06:29:27Z</time>
      </trkpt>
      <trkpt lat="41.02965" lon="-8.58928">
        <ele>121.74</ele>
        <time>2019-05-27T06:29:42Z</time>
      </trkpt>
      <trkpt lat="41.02977" lon="-8.58931">
        <ele>121.26</ele>
        <time>2019-05-27T06:29:53Z</time>
      </trkpt>
      <trkpt lat="41.02989" lon="-8.58928">
        <ele>119.82</ele>
        <time>2019-05-27T06:30:05Z</time>
      </trkpt>
      <trkpt lat="41.02996" lon="-8.58925">
        <ele>119.82</ele>
        <time>2019-05-27T06:30:09Z</time>
      </trkpt>
      <trkpt lat="41.03008" lon="-8.58919">
        <ele>119.34</ele>
        <time>2019-05-27T06:30:17Z</time>
      </trkpt>
      <trkpt lat="41.03016" lon="-8.58915">
        <ele>119.34</ele>
        <time>2019-05-27T06:30:22Z</time>
      </trkpt>
      <trkpt lat="41.03032" lon="-8.5891">
        <ele>118.38</ele>
        <time>2019-05-27T06:30:34Z</time>
      </trkpt>
      <trkpt lat="41.0305" lon="-8.58912">
        <ele>117.42</ele>
        <time>2019-05-27T06:30:49Z</time>
      </trkpt>
      <trkpt lat="41.03069" lon="-8.5891">
        <ele>116.94</ele>
        <time>2019-05-27T06:31:04Z</time>
      </trkpt>
      <trkpt lat="41.03084" lon="-8.58909">
        <ele>116.46</ele>
        <time>2019-05-27T06:31:18Z</time>
      </trkpt>
      <trkpt lat="41.03094" lon="-8.58908">
        <ele>115.01</ele>
        <time>2019-05-27T06:31:25Z</time>
      </trkpt>
      <trkpt lat="41.03108" lon="-8.58906">
        <ele>115.01</ele>
        <time>2019-05-27T06:31:37Z</time>
      </trkpt>
      <trkpt lat="41.03123" lon="-8.58907">
        <ele>114.53</ele>
        <time>2019-05-27T06:31:49Z</time>
      </trkpt>
      <trkpt lat="41.03135" lon="-8.58908">
        <ele>114.05</ele>
        <time>2019-05-27T06:32:00Z</time>
      </trkpt>
      <trkpt lat="41.03144" lon="-8.58903">
        <ele>114.05</ele>
        <time>2019-05-27T06:32:07Z</time>
      </trkpt>
      <trkpt lat="41.03154" lon="-8.58901">
        <ele>113.57</ele>
        <time>2019-05-27T06:32:14Z</time>
      </trkpt>
      <trkpt lat="41.03163" lon="-8.58897">
        <ele>113.09</ele>
        <time>2019-05-27T06:32:26Z</time>
      </trkpt>
      <trkpt lat="41.03172" lon="-8.58893">
        <ele>112.61</ele>
        <time>2019-05-27T06:32:34Z</time>
      </trkpt>
      <trkpt lat="41.03191" lon="-8.5889">
        <ele>111.65</ele>
        <time>2019-05-27T06:32:47Z</time>
      </trkpt>
      <trkpt lat="41.03196" lon="-8.58888">
        <ele>111.65</ele>
        <time>2019-05-27T06:32:52Z</time>
      </trkpt>
      <trkpt lat="41.03216" lon="-8.58878">
        <ele>110.69</ele>
        <time>2019-05-27T06:33:07Z</time>
      </trkpt>
      <trkpt lat="41.0323" lon="-8.58875">
        <ele>110.21</ele>
        <time>2019-05-27T06:33:19Z</time>
      </trkpt>
      <trkpt lat="41.03246" lon="-8.58868">
        <ele>108.77</ele>
        <time>2019-05-27T06:33:35Z</time>
      </trkpt>
      <trkpt lat="41.03263" lon="-8.58858">
        <ele>107.81</ele>
        <time>2019-05-27T06:33:49Z</time>
      </trkpt>
      <trkpt lat="41.03273" lon="-8.58849">
        <ele>107.32</ele>
        <time>2019-05-27T06:34:01Z</time>
      </trkpt>
      <trkpt lat="41.03278" lon="-8.58845">
        <ele>106.84</ele>
        <time>2019-05-27T06:34:06Z</time>
      </trkpt>
      <trkpt lat="41.03291" lon="-8.58833">
        <ele>106.36</ele>
        <time>2019-05-27T06:34:19Z</time>
      </trkpt>
      <trkpt lat="41.03305" lon="-8.5882">
        <ele>105.4</ele>
        <time>2019-05-27T06:34:32Z</time>
      </trkpt>
      <trkpt lat="41.03317" lon="-8.58806">
        <ele>104.44</ele>
        <time>2019-05-27T06:34:46Z</time>
      </trkpt>
      <trkpt lat="41.03338" lon="-8.58798">
        <ele>103.48</ele>
        <time>2019-05-27T06:35:01Z</time>
      </trkpt>
      <trkpt lat="41.0336" lon="-8.58795">
        <ele>102.52</ele>
        <time>2019-05-27T06:35:16Z</time>
      </trkpt>
      <trkpt lat="41.03373" lon="-8.58797">
        <ele>103.48</ele>
        <time>2019-05-27T06:35:29Z</time>
      </trkpt>
      <trkpt lat="41.03376" lon="-8.58797">
        <ele>103.48</ele>
        <time>2019-05-27T06:35:33Z</time>
      </trkpt>
      <trkpt lat="41.03386" lon="-8.588">
        <ele>103.96</ele>
        <time>2019-05-27T06:35:45Z</time>
      </trkpt>
      <trkpt lat="41.03396" lon="-8.58801">
        <ele>103.96</ele>
        <time>2019-05-27T06:35:55Z</time>
      </trkpt>
      <trkpt lat="41.03409" lon="-8.58802">
        <ele>104.92</ele>
        <time>2019-05-27T06:36:06Z</time>
      </trkpt>
      <trkpt lat="41.03422" lon="-8.58803">
        <ele>105.4</ele>
        <time>2019-05-27T06:36:19Z</time>
      </trkpt>
      <trkpt lat="41.03439" lon="-8.58807">
        <ele>105.4</ele>
        <time>2019-05-27T06:36:30Z</time>
      </trkpt>
      <trkpt lat="41.03448" lon="-8.5881">
        <ele>105.88</ele>
        <time>2019-05-27T06:36:36Z</time>
      </trkpt>
      <trkpt lat="41.03464" lon="-8.58799">
        <ele>105.88</ele>
        <time>2019-05-27T06:36:51Z</time>
      </trkpt>
      <trkpt lat="41.03465" lon="-8.58796">
        <ele>106.84</ele>
        <time>2019-05-27T06:36:53Z</time>
      </trkpt>
      <trkpt lat="41.03465" lon="-8.58792">
        <ele>106.36</ele>
        <time>2019-05-27T06:37:06Z</time>
      </trkpt>
      <trkpt lat="41.03468" lon="-8.58787">
        <ele>106.84</ele>
        <time>2019-05-27T06:37:19Z</time>
      </trkpt>
      <trkpt lat="41.0348" lon="-8.58774">
        <ele>107.81</ele>
        <time>2019-05-27T06:37:34Z</time>
      </trkpt>
      <trkpt lat="41.03494" lon="-8.58758">
        <ele>108.77</ele>
        <time>2019-05-27T06:37:49Z</time>
      </trkpt>
      <trkpt lat="41.03505" lon="-8.58743">
        <ele>109.73</ele>
        <time>2019-05-27T06:38:04Z</time>
      </trkpt>
      <trkpt lat="41.03517" lon="-8.58729">
        <ele>111.17</ele>
        <time>2019-05-27T06:38:18Z</time>
      </trkpt>
      <trkpt lat="41.03521" lon="-8.58723">
        <ele>111.65</ele>
        <time>2019-05-27T06:38:23Z</time>
      </trkpt>
      <trkpt lat="41.03534" lon="-8.58705">
        <ele>112.61</ele>
        <time>2019-05-27T06:38:40Z</time>
      </trkpt>
      <trkpt lat="41.03544" lon="-8.58694">
        <ele>113.57</ele>
        <time>2019-05-27T06:38:54Z</time>
      </trkpt>
      <trkpt lat="41.03553" lon="-8.58682">
        <ele>115.01</ele>
        <time>2019-05-27T06:39:06Z</time>
      </trkpt>
      <trkpt lat="41.03565" lon="-8.58668">
        <ele>115.98</ele>
        <time>2019-05-27T06:39:17Z</time>
      </trkpt>
      <trkpt lat="41.03577" lon="-8.58655">
        <ele>116.46</ele>
        <time>2019-05-27T06:39:30Z</time>
      </trkpt>
      <trkpt lat="41.03578" lon="-8.58654">
        <ele>116.94</ele>
        <time>2019-05-27T06:39:31Z</time>
      </trkpt>
      <trkpt lat="41.03595" lon="-8.58653">
        <ele>117.42</ele>
        <time>2019-05-27T06:39:46Z</time>
      </trkpt>
      <trkpt lat="41.03598" lon="-8.58655">
        <ele>117.42</ele>
        <time>2019-05-27T06:39:49Z</time>
      </trkpt>
      <trkpt lat="41.03612" lon="-8.58656">
        <ele>117.42</ele>
        <time>2019-05-27T06:40:01Z</time>
      </trkpt>
      <trkpt lat="41.03617" lon="-8.58657">
        <ele>117.42</ele>
        <time>2019-05-27T06:40:06Z</time>
      </trkpt>
      <trkpt lat="41.03631" lon="-8.5866">
        <ele>117.42</ele>
        <time>2019-05-27T06:40:18Z</time>
      </trkpt>
      <trkpt lat="41.03636" lon="-8.5866">
        <ele>117.42</ele>
        <time>2019-05-27T06:40:22Z</time>
      </trkpt>
      <trkpt lat="41.03656" lon="-8.58662">
        <ele>117.9</ele>
        <time>2019-05-27T06:40:39Z</time>
      </trkpt>
      <trkpt lat="41.03672" lon="-8.58663">
        <ele>117.9</ele>
        <time>2019-05-27T06:40:52Z</time>
      </trkpt>
      <trkpt lat="41.0369" lon="-8.58665">
        <ele>118.38</ele>
        <time>2019-05-27T06:41:07Z</time>
      </trkpt>
      <trkpt lat="41.03708" lon="-8.58663">
        <ele>118.38</ele>
        <time>2019-05-27T06:41:22Z</time>
      </trkpt>
      <trkpt lat="41.03722" lon="-8.58661">
        <ele>118.86</ele>
        <time>2019-05-27T06:41:35Z</time>
      </trkpt>
      <trkpt lat="41.03739" lon="-8.58658">
        <ele>118.38</ele>
        <time>2019-05-27T06:41:48Z</time>
      </trkpt>
      <trkpt lat="41.03746" lon="-8.58658">
        <ele>118.86</ele>
        <time>2019-05-27T06:41:54Z</time>
      </trkpt>
      <trkpt lat="41.03755" lon="-8.58655">
        <ele>118.38</ele>
        <time>2019-05-27T06:42:01Z</time>
      </trkpt>
      <trkpt lat="41.03767" lon="-8.58649">
        <ele>118.86</ele>
        <time>2019-05-27T06:42:14Z</time>
      </trkpt>
      <trkpt lat="41.03766" lon="-8.58645">
        <ele>118.86</ele>
        <time>2019-05-27T06:42:30Z</time>
      </trkpt>
      <trkpt lat="41.03777" lon="-8.58642">
        <ele>118.86</ele>
        <time>2019-05-27T06:42:43Z</time>
      </trkpt>
      <trkpt lat="41.03791" lon="-8.58638">
        <ele>118.86</ele>
        <time>2019-05-27T06:42:56Z</time>
      </trkpt>
      <trkpt lat="41.03806" lon="-8.5863">
        <ele>119.34</ele>
        <time>2019-05-27T06:43:11Z</time>
      </trkpt>
      <trkpt lat="41.03827" lon="-8.5863">
        <ele>118.86</ele>
        <time>2019-05-27T06:43:24Z</time>
      </trkpt>
      <trkpt lat="41.03836" lon="-8.58628">
        <ele>118.86</ele>
        <time>2019-05-27T06:43:30Z</time>
      </trkpt>
      <trkpt lat="41.03857" lon="-8.58634">
        <ele>119.82</ele>
        <time>2019-05-27T06:43:47Z</time>
      </trkpt>
      <trkpt lat="41.03874" lon="-8.58639">
        <ele>118.86</ele>
        <time>2019-05-27T06:44:01Z</time>
      </trkpt>
      <trkpt lat="41.03886" lon="-8.58642">
        <ele>118.86</ele>
        <time>2019-05-27T06:44:12Z</time>
      </trkpt>
      <trkpt lat="41.03903" lon="-8.58647">
        <ele>118.86</ele>
        <time>2019-05-27T06:44:28Z</time>
      </trkpt>
      <trkpt lat="41.03908" lon="-8.58648">
        <ele>118.86</ele>
        <time>2019-05-27T06:44:33Z</time>
      </trkpt>
      <trkpt lat="41.03925" lon="-8.58653">
        <ele>117.9</ele>
        <time>2019-05-27T06:44:49Z</time>
      </trkpt>
      <trkpt lat="41.03928" lon="-8.58653">
        <ele>117.42</ele>
        <time>2019-05-27T06:44:51Z</time>
      </trkpt>
      <trkpt lat="41.03947" lon="-8.58656">
        <ele>115.98</ele>
        <time>2019-05-27T06:45:06Z</time>
      </trkpt>
      <trkpt lat="41.03966" lon="-8.5866">
        <ele>114.53</ele>
        <time>2019-05-27T06:45:21Z</time>
      </trkpt>
      <trkpt lat="41.03987" lon="-8.58664">
        <ele>113.57</ele>
        <time>2019-05-27T06:45:37Z</time>
      </trkpt>
      <trkpt lat="41.04005" lon="-8.58666">
        <ele>112.13</ele>
        <time>2019-05-27T06:45:52Z</time>
      </trkpt>
      <trkpt lat="41.04021" lon="-8.58669">
        <ele>110.69</ele>
        <time>2019-05-27T06:46:06Z</time>
      </trkpt>
      <trkpt lat="41.04029" lon="-8.58668">
        <ele>109.73</ele>
        <time>2019-05-27T06:46:12Z</time>
      </trkpt>
      <trkpt lat="41.04044" lon="-8.58676">
        <ele>108.77</ele>
        <time>2019-05-27T06:46:26Z</time>
      </trkpt>
      <trkpt lat="41.04051" lon="-8.58678">
        <ele>107.32</ele>
        <time>2019-05-27T06:46:33Z</time>
      </trkpt>
      <trkpt lat="41.04056" lon="-8.58677">
        <ele>106.36</ele>
        <time>2019-05-27T06:46:41Z</time>
      </trkpt>
      <trkpt lat="41.0406" lon="-8.58671">
        <ele>105.88</ele>
        <time>2019-05-27T06:46:46Z</time>
      </trkpt>
      <trkpt lat="41.04066" lon="-8.58655">
        <ele>105.4</ele>
        <time>2019-05-27T06:46:58Z</time>
      </trkpt>
      <trkpt lat="41.04068" lon="-8.58649">
        <ele>105.4</ele>
        <time>2019-05-27T06:47:02Z</time>
      </trkpt>
      <trkpt lat="41.0407" lon="-8.58641">
        <ele>104.92</ele>
        <time>2019-05-27T06:47:09Z</time>
      </trkpt>
      <trkpt lat="41.04073" lon="-8.58629">
        <ele>105.88</ele>
        <time>2019-05-27T06:47:17Z</time>
      </trkpt>
      <trkpt lat="41.04085" lon="-8.58613">
        <ele>107.32</ele>
        <time>2019-05-27T06:47:31Z</time>
      </trkpt>
      <trkpt lat="41.04093" lon="-8.58604">
        <ele>107.32</ele>
        <time>2019-05-27T06:47:41Z</time>
      </trkpt>
      <trkpt lat="41.04104" lon="-8.58621">
        <ele>105.4</ele>
        <time>2019-05-27T06:47:57Z</time>
      </trkpt>
      <trkpt lat="41.04105" lon="-8.58622">
        <ele>105.4</ele>
        <time>2019-05-27T06:47:58Z</time>
      </trkpt>
      <trkpt lat="41.04107" lon="-8.58624">
        <ele>105.4</ele>
        <time>2019-05-27T06:48:00Z</time>
      </trkpt>
      <trkpt lat="41.04113" lon="-8.58633">
        <ele>103.96</ele>
        <time>2019-05-27T06:48:08Z</time>
      </trkpt>
      <trkpt lat="41.04129" lon="-8.58648">
        <ele>102.04</ele>
        <time>2019-05-27T06:48:24Z</time>
      </trkpt>
      <trkpt lat="41.0413" lon="-8.5865">
        <ele>101.56</ele>
        <time>2019-05-27T06:48:25Z</time>
      </trkpt>
      <trkpt lat="41.04145" lon="-8.58664">
        <ele>101.08</ele>
        <time>2019-05-27T06:48:40Z</time>
      </trkpt>
      <trkpt lat="41.04144" lon="-8.58664">
        <ele>101.56</ele>
        <time>2019-05-27T06:48:56Z</time>
      </trkpt>
      <trkpt lat="41.04148" lon="-8.58668">
        <ele>101.56</ele>
        <time>2019-05-27T06:49:11Z</time>
      </trkpt>
      <trkpt lat="41.04149" lon="-8.58672">
        <ele>101.56</ele>
        <time>2019-05-27T06:49:20Z</time>
      </trkpt>
      <trkpt lat="41.04157" lon="-8.58688">
        <ele>101.56</ele>
        <time>2019-05-27T06:49:33Z</time>
      </trkpt>
      <trkpt lat="41.0416" lon="-8.58693">
        <ele>102.52</ele>
        <time>2019-05-27T06:49:37Z</time>
      </trkpt>
      <trkpt lat="41.04167" lon="-8.58711">
        <ele>102.04</ele>
        <time>2019-05-27T06:49:50Z</time>
      </trkpt>
      <trkpt lat="41.04173" lon="-8.5873">
        <ele>103</ele>
        <time>2019-05-27T06:50:04Z</time>
      </trkpt>
      <trkpt lat="41.04173" lon="-8.58736">
        <ele>103</ele>
        <time>2019-05-27T06:50:07Z</time>
      </trkpt>
      <trkpt lat="41.04174" lon="-8.58744">
        <ele>102.52</ele>
        <time>2019-05-27T06:50:12Z</time>
      </trkpt>
      <trkpt lat="41.04183" lon="-8.58766">
        <ele>103.48</ele>
        <time>2019-05-27T06:50:28Z</time>
      </trkpt>
      <trkpt lat="41.04191" lon="-8.58785">
        <ele>103.48</ele>
        <time>2019-05-27T06:50:42Z</time>
      </trkpt>
      <trkpt lat="41.04197" lon="-8.58802">
        <ele>103.48</ele>
        <time>2019-05-27T06:50:54Z</time>
      </trkpt>
      <trkpt lat="41.04199" lon="-8.58806">
        <ele>104.44</ele>
        <time>2019-05-27T06:50:57Z</time>
      </trkpt>
      <trkpt lat="41.04202" lon="-8.58808">
        <ele>104.44</ele>
        <time>2019-05-27T06:51:00Z</time>
      </trkpt>
      <trkpt lat="41.04215" lon="-8.58808">
        <ele>105.4</ele>
        <time>2019-05-27T06:51:13Z</time>
      </trkpt>
      <trkpt lat="41.04233" lon="-8.58796">
        <ele>106.36</ele>
        <time>2019-05-27T06:51:31Z</time>
      </trkpt>
      <trkpt lat="41.04252" lon="-8.58784">
        <ele>107.81</ele>
        <time>2019-05-27T06:51:48Z</time>
      </trkpt>
      <trkpt lat="41.04257" lon="-8.58781">
        <ele>107.81</ele>
        <time>2019-05-27T06:51:52Z</time>
      </trkpt>
      <trkpt lat="41.04271" lon="-8.58776">
        <ele>108.77</ele>
        <time>2019-05-27T06:52:06Z</time>
      </trkpt>
      <trkpt lat="41.04272" lon="-8.58778">
        <ele>108.77</ele>
        <time>2019-05-27T06:52:09Z</time>
      </trkpt>
      <trkpt lat="41.04273" lon="-8.5878">
        <ele>108.29</ele>
        <time>2019-05-27T06:52:11Z</time>
      </trkpt>
      <trkpt lat="41.04277" lon="-8.58782">
        <ele>108.77</ele>
        <time>2019-05-27T06:52:15Z</time>
      </trkpt>
      <trkpt lat="41.0429" lon="-8.58778">
        <ele>109.25</ele>
        <time>2019-05-27T06:52:27Z</time>
      </trkpt>
      <trkpt lat="41.043" lon="-8.58776">
        <ele>109.73</ele>
        <time>2019-05-27T06:52:37Z</time>
      </trkpt>
      <trkpt lat="41.04305" lon="-8.58777">
        <ele>109.73</ele>
        <time>2019-05-27T06:52:41Z</time>
      </trkpt>
      <trkpt lat="41.0432" lon="-8.58786">
        <ele>110.21</ele>
        <time>2019-05-27T06:52:55Z</time>
      </trkpt>
      <trkpt lat="41.04336" lon="-8.58795">
        <ele>110.69</ele>
        <time>2019-05-27T06:53:10Z</time>
      </trkpt>
      <trkpt lat="41.04341" lon="-8.58797">
        <ele>110.21</ele>
        <time>2019-05-27T06:53:14Z</time>
      </trkpt>
      <trkpt lat="41.04359" lon="-8.58811">
        <ele>110.21</ele>
        <time>2019-05-27T06:53:31Z</time>
      </trkpt>
      <trkpt lat="41.04377" lon="-8.58822">
        <ele>111.17</ele>
        <time>2019-05-27T06:53:47Z</time>
      </trkpt>
      <trkpt lat="41.04392" lon="-8.5883">
        <ele>110.69</ele>
        <time>2019-05-27T06:54:02Z</time>
      </trkpt>
      <trkpt lat="41.044" lon="-8.58836">
        <ele>112.13</ele>
        <time>2019-05-27T06:54:16Z</time>
      </trkpt>
      <trkpt lat="41.04399" lon="-8.58831">
        <ele>111.65</ele>
        <time>2019-05-27T06:54:29Z</time>
      </trkpt>
      <trkpt lat="41.04407" lon="-8.58832">
        <ele>111.65</ele>
        <time>2019-05-27T06:54:42Z</time>
      </trkpt>
      <trkpt lat="41.0442" lon="-8.5884">
        <ele>112.61</ele>
        <time>2019-05-27T06:54:57Z</time>
      </trkpt>
      <trkpt lat="41.04435" lon="-8.58849">
        <ele>112.61</ele>
        <time>2019-05-27T06:55:11Z</time>
      </trkpt>
      <trkpt lat="41.04451" lon="-8.58858">
        <ele>113.57</ele>
        <time>2019-05-27T06:55:25Z</time>
      </trkpt>
      <trkpt lat="41.04464" lon="-8.58868">
        <ele>114.53</ele>
        <time>2019-05-27T06:55:38Z</time>
      </trkpt>
      <trkpt lat="41.04468" lon="-8.5887">
        <ele>115.01</ele>
        <time>2019-05-27T06:55:44Z</time>
      </trkpt>
      <trkpt lat="41.04478" lon="-8.58875">
        <ele>115.01</ele>
        <time>2019-05-27T06:56:00Z</time>
      </trkpt>
      <trkpt lat="41.04495" lon="-8.58883">
        <ele>115.5</ele>
        <time>2019-05-27T06:56:15Z</time>
      </trkpt>
      <trkpt lat="41.04499" lon="-8.58887">
        <ele>115.5</ele>
        <time>2019-05-27T06:56:21Z</time>
      </trkpt>
      <trkpt lat="41.04516" lon="-8.5889">
        <ele>116.94</ele>
        <time>2019-05-27T06:56:36Z</time>
      </trkpt>
      <trkpt lat="41.0453" lon="-8.58896">
        <ele>116.46</ele>
        <time>2019-05-27T06:56:49Z</time>
      </trkpt>
      <trkpt lat="41.04535" lon="-8.58898">
        <ele>116.94</ele>
        <time>2019-05-27T06:56:53Z</time>
      </trkpt>
      <trkpt lat="41.04538" lon="-8.58902">
        <ele>117.42</ele>
        <time>2019-05-27T06:56:56Z</time>
      </trkpt>
      <trkpt lat="41.04539" lon="-8.58903">
        <ele>116.46</ele>
        <time>2019-05-27T06:56:57Z</time>
      </trkpt>
      <trkpt lat="41.04553" lon="-8.58913">
        <ele>117.9</ele>
        <time>2019-05-27T06:57:11Z</time>
      </trkpt>
      <trkpt lat="41.04565" lon="-8.58921">
        <ele>117.42</ele>
        <time>2019-05-27T06:57:23Z</time>
      </trkpt>
      <trkpt lat="41.04574" lon="-8.5893">
        <ele>117.9</ele>
        <time>2019-05-27T06:57:38Z</time>
      </trkpt>
      <trkpt lat="41.04584" lon="-8.58938">
        <ele>118.38</ele>
        <time>2019-05-27T06:57:52Z</time>
      </trkpt>
      <trkpt lat="41.04603" lon="-8.58949">
        <ele>117.9</ele>
        <time>2019-05-27T06:58:09Z</time>
      </trkpt>
      <trkpt lat="41.04612" lon="-8.58955">
        <ele>117.9</ele>
        <time>2019-05-27T06:58:22Z</time>
      </trkpt>
      <trkpt lat="41.04622" lon="-8.58963">
        <ele>117.9</ele>
        <time>2019-05-27T06:58:34Z</time>
      </trkpt>
      <trkpt lat="41.04635" lon="-8.58972">
        <ele>117.9</ele>
        <time>2019-05-27T06:58:48Z</time>
      </trkpt>
      <trkpt lat="41.04636" lon="-8.58973">
        <ele>118.38</ele>
        <time>2019-05-27T06:58:49Z</time>
      </trkpt>
      <trkpt lat="41.04651" lon="-8.58979">
        <ele>118.38</ele>
        <time>2019-05-27T06:59:04Z</time>
      </trkpt>
      <trkpt lat="41.04659" lon="-8.58982">
        <ele>117.9</ele>
        <time>2019-05-27T06:59:11Z</time>
      </trkpt>
      <trkpt lat="41.04666" lon="-8.58982">
        <ele>118.38</ele>
        <time>2019-05-27T06:59:16Z</time>
      </trkpt>
      <trkpt lat="41.04684" lon="-8.58991">
        <ele>118.86</ele>
        <time>2019-05-27T06:59:33Z</time>
      </trkpt>
      <trkpt lat="41.04701" lon="-8.58993">
        <ele>118.86</ele>
        <time>2019-05-27T06:59:44Z</time>
      </trkpt>
      <trkpt lat="41.04722" lon="-8.58991">
        <ele>118.38</ele>
        <time>2019-05-27T06:59:58Z</time>
      </trkpt>
      <trkpt lat="41.04735" lon="-8.59008">
        <ele>118.86</ele>
        <time>2019-05-27T07:00:12Z</time>
      </trkpt>
      <trkpt lat="41.04754" lon="-8.59011">
        <ele>118.38</ele>
        <time>2019-05-27T07:00:26Z</time>
      </trkpt>
      <trkpt lat="41.0477" lon="-8.59012">
        <ele>118.86</ele>
        <time>2019-05-27T07:00:39Z</time>
      </trkpt>
      <trkpt lat="41.04784" lon="-8.59013">
        <ele>118.86</ele>
        <time>2019-05-27T07:00:50Z</time>
      </trkpt>
      <trkpt lat="41.04794" lon="-8.59015">
        <ele>119.82</ele>
        <time>2019-05-27T07:00:57Z</time>
      </trkpt>
      <trkpt lat="41.04809" lon="-8.59019">
        <ele>119.82</ele>
        <time>2019-05-27T07:01:10Z</time>
      </trkpt>
      <trkpt lat="41.04826" lon="-8.59021">
        <ele>121.26</ele>
        <time>2019-05-27T07:01:25Z</time>
      </trkpt>
      <trkpt lat="41.04827" lon="-8.59021">
        <ele>121.26</ele>
        <time>2019-05-27T07:01:26Z</time>
      </trkpt>
      <trkpt lat="41.04838" lon="-8.59025">
        <ele>121.74</ele>
        <time>2019-05-27T07:01:37Z</time>
      </trkpt>
      <trkpt lat="41.0484" lon="-8.59025">
        <ele>121.74</ele>
        <time>2019-05-27T07:01:39Z</time>
      </trkpt>
      <trkpt lat="41.0486" lon="-8.59028">
        <ele>123.19</ele>
        <time>2019-05-27T07:01:57Z</time>
      </trkpt>
      <trkpt lat="41.04871" lon="-8.59032">
        <ele>123.67</ele>
        <time>2019-05-27T07:02:09Z</time>
      </trkpt>
      <trkpt lat="41.04872" lon="-8.59033">
        <ele>123.67</ele>
        <time>2019-05-27T07:02:10Z</time>
      </trkpt>
      <trkpt lat="41.04888" lon="-8.59033">
        <ele>125.59</ele>
        <time>2019-05-27T07:02:25Z</time>
      </trkpt>
      <trkpt lat="41.04893" lon="-8.59031">
        <ele>125.59</ele>
        <time>2019-05-27T07:02:30Z</time>
      </trkpt>
      <trkpt lat="41.04907" lon="-8.59032">
        <ele>126.07</ele>
        <time>2019-05-27T07:02:45Z</time>
      </trkpt>
      <trkpt lat="41.04924" lon="-8.59031">
        <ele>127.03</ele>
        <time>2019-05-27T07:03:02Z</time>
      </trkpt>
      <trkpt lat="41.04944" lon="-8.59029">
        <ele>128.95</ele>
        <time>2019-05-27T07:03:19Z</time>
      </trkpt>
      <trkpt lat="41.04959" lon="-8.5903">
        <ele>129.43</ele>
        <time>2019-05-27T07:03:33Z</time>
      </trkpt>
      <trkpt lat="41.04975" lon="-8.59032">
        <ele>130.4</ele>
        <time>2019-05-27T07:03:47Z</time>
      </trkpt>
      <trkpt lat="41.04994" lon="-8.5903">
        <ele>131.84</ele>
        <time>2019-05-27T07:04:04Z</time>
      </trkpt>
      <trkpt lat="41.05015" lon="-8.59033">
        <ele>132.8</ele>
        <time>2019-05-27T07:04:21Z</time>
      </trkpt>
      <trkpt lat="41.05018" lon="-8.59033">
        <ele>133.28</ele>
        <time>2019-05-27T07:04:24Z</time>
      </trkpt>
      <trkpt lat="41.05022" lon="-8.5903">
        <ele>133.28</ele>
        <time>2019-05-27T07:04:28Z</time>
      </trkpt>
      <trkpt lat="41.05034" lon="-8.59021">
        <ele>134.24</ele>
        <time>2019-05-27T07:04:41Z</time>
      </trkpt>
      <trkpt lat="41.05047" lon="-8.59015">
        <ele>134.72</ele>
        <time>2019-05-27T07:04:54Z</time>
      </trkpt>
      <trkpt lat="41.05061" lon="-8.59007">
        <ele>135.2</ele>
        <time>2019-05-27T07:05:07Z</time>
      </trkpt>
      <trkpt lat="41.05076" lon="-8.58993">
        <ele>135.68</ele>
        <time>2019-05-27T07:05:21Z</time>
      </trkpt>
      <trkpt lat="41.0509" lon="-8.58983">
        <ele>135.2</ele>
        <time>2019-05-27T07:05:35Z</time>
      </trkpt>
      <trkpt lat="41.05104" lon="-8.58981">
        <ele>134.24</ele>
        <time>2019-05-27T07:05:50Z</time>
      </trkpt>
      <trkpt lat="41.05118" lon="-8.58979">
        <ele>134.72</ele>
        <time>2019-05-27T07:06:03Z</time>
      </trkpt>
      <trkpt lat="41.05138" lon="-8.58979">
        <ele>133.76</ele>
        <time>2019-05-27T07:06:19Z</time>
      </trkpt>
      <trkpt lat="41.05152" lon="-8.58981">
        <ele>133.28</ele>
        <time>2019-05-27T07:06:31Z</time>
      </trkpt>
      <trkpt lat="41.05165" lon="-8.58982">
        <ele>133.28</ele>
        <time>2019-05-27T07:06:43Z</time>
      </trkpt>
      <trkpt lat="41.05183" lon="-8.58982">
        <ele>132.8</ele>
        <time>2019-05-27T07:06:58Z</time>
      </trkpt>
      <trkpt lat="41.052" lon="-8.58984">
        <ele>131.84</ele>
        <time>2019-05-27T07:07:12Z</time>
      </trkpt>
      <trkpt lat="41.05209" lon="-8.58984">
        <ele>131.84</ele>
        <time>2019-05-27T07:07:21Z</time>
      </trkpt>
      <trkpt lat="41.05213" lon="-8.58983">
        <ele>131.84</ele>
        <time>2019-05-27T07:07:25Z</time>
      </trkpt>
      <trkpt lat="41.05231" lon="-8.58984">
        <ele>131.36</ele>
        <time>2019-05-27T07:07:39Z</time>
      </trkpt>
      <trkpt lat="41.05253" lon="-8.58983">
        <ele>131.84</ele>
        <time>2019-05-27T07:07:56Z</time>
      </trkpt>
      <trkpt lat="41.05272" lon="-8.58983">
        <ele>130.88</ele>
        <time>2019-05-27T07:08:12Z</time>
      </trkpt>
      <trkpt lat="41.05289" lon="-8.58986">
        <ele>130.4</ele>
        <time>2019-05-27T07:08:26Z</time>
      </trkpt>
      <trkpt lat="41.05308" lon="-8.58991">
        <ele>129.43</ele>
        <time>2019-05-27T07:08:41Z</time>
      </trkpt>
      <trkpt lat="41.05311" lon="-8.58991">
        <ele>128.95</ele>
        <time>2019-05-27T07:08:44Z</time>
      </trkpt>
      <trkpt lat="41.05332" lon="-8.58985">
        <ele>128.47</ele>
        <time>2019-05-27T07:09:00Z</time>
      </trkpt>
      <trkpt lat="41.05343" lon="-8.58979">
        <ele>127.99</ele>
        <time>2019-05-27T07:09:11Z</time>
      </trkpt>
      <trkpt lat="41.05348" lon="-8.58978">
        <ele>127.03</ele>
        <time>2019-05-27T07:09:15Z</time>
      </trkpt>
      <trkpt lat="41.05366" lon="-8.58972">
        <ele>126.55</ele>
        <time>2019-05-27T07:09:31Z</time>
      </trkpt>
      <trkpt lat="41.05382" lon="-8.58965">
        <ele>126.07</ele>
        <time>2019-05-27T07:09:44Z</time>
      </trkpt>
      <trkpt lat="41.05399" lon="-8.58959">
        <ele>125.11</ele>
        <time>2019-05-27T07:09:59Z</time>
      </trkpt>
      <trkpt lat="41.054" lon="-8.58959">
        <ele>125.11</ele>
        <time>2019-05-27T07:10:00Z</time>
      </trkpt>
      <trkpt lat="41.05403" lon="-8.58958">
        <ele>124.63</ele>
        <time>2019-05-27T07:10:02Z</time>
      </trkpt>
      <trkpt lat="41.0542" lon="-8.58947">
        <ele>124.63</ele>
        <time>2019-05-27T07:10:17Z</time>
      </trkpt>
      <trkpt lat="41.05428" lon="-8.58938">
        <ele>124.63</ele>
        <time>2019-05-27T07:10:27Z</time>
      </trkpt>
      <trkpt lat="41.0544" lon="-8.58917">
        <ele>125.59</ele>
        <time>2019-05-27T07:10:45Z</time>
      </trkpt>
      <trkpt lat="41.05444" lon="-8.58912">
        <ele>126.55</ele>
        <time>2019-05-27T07:10:49Z</time>
      </trkpt>
      <trkpt lat="41.05461" lon="-8.58889">
        <ele>126.55</ele>
        <time>2019-05-27T07:11:10Z</time>
      </trkpt>
      <trkpt lat="41.05472" lon="-8.58875">
        <ele>127.03</ele>
        <time>2019-05-27T07:11:22Z</time>
      </trkpt>
      <trkpt lat="41.05473" lon="-8.58871">
        <ele>126.55</ele>
        <time>2019-05-27T07:11:25Z</time>
      </trkpt>
      <trkpt lat="41.05479" lon="-8.58862">
        <ele>126.55</ele>
        <time>2019-05-27T07:11:39Z</time>
      </trkpt>
      <trkpt lat="41.0548" lon="-8.58861">
        <ele>126.55</ele>
        <time>2019-05-27T07:11:50Z</time>
      </trkpt>
      <trkpt lat="41.05476" lon="-8.58864">
        <ele>127.03</ele>
        <time>2019-05-27T07:12:02Z</time>
      </trkpt>
      <trkpt lat="41.05473" lon="-8.58869">
        <ele>127.03</ele>
        <time>2019-05-27T07:12:18Z</time>
      </trkpt>
      <trkpt lat="41.05471" lon="-8.58868">
        <ele>127.03</ele>
        <time>2019-05-27T07:12:44Z</time>
      </trkpt>
      <trkpt lat="41.05472" lon="-8.58866">
        <ele>127.03</ele>
        <time>2019-05-27T07:12:58Z</time>
      </trkpt>
      <trkpt lat="41.05481" lon="-8.58857">
        <ele>126.55</ele>
        <time>2019-05-27T07:13:08Z</time>
      </trkpt>
      <trkpt lat="41.05496" lon="-8.58855">
        <ele>125.11</ele>
        <time>2019-05-27T07:13:21Z</time>
      </trkpt>
      <trkpt lat="41.05499" lon="-8.58856">
        <ele>125.11</ele>
        <time>2019-05-27T07:13:23Z</time>
      </trkpt>
      <trkpt lat="41.05513" lon="-8.58854">
        <ele>124.15</ele>
        <time>2019-05-27T07:13:38Z</time>
      </trkpt>
      <trkpt lat="41.05521" lon="-8.58852">
        <ele>124.15</ele>
        <time>2019-05-27T07:13:55Z</time>
      </trkpt>
      <trkpt lat="41.05537" lon="-8.58846">
        <ele>123.19</ele>
        <time>2019-05-27T07:14:10Z</time>
      </trkpt>
      <trkpt lat="41.05553" lon="-8.58842">
        <ele>121.26</ele>
        <time>2019-05-27T07:14:23Z</time>
      </trkpt>
      <trkpt lat="41.05568" lon="-8.58835">
        <ele>120.3</ele>
        <time>2019-05-27T07:14:36Z</time>
      </trkpt>
      <trkpt lat="41.05587" lon="-8.58839">
        <ele>117.9</ele>
        <time>2019-05-27T07:14:51Z</time>
      </trkpt>
      <trkpt lat="41.05603" lon="-8.58852">
        <ele>116.46</ele>
        <time>2019-05-27T07:15:05Z</time>
      </trkpt>
      <trkpt lat="41.05614" lon="-8.58863">
        <ele>115.5</ele>
        <time>2019-05-27T07:15:18Z</time>
      </trkpt>
      <trkpt lat="41.05625" lon="-8.58883">
        <ele>114.53</ele>
        <time>2019-05-27T07:15:32Z</time>
      </trkpt>
      <trkpt lat="41.05647" lon="-8.58893">
        <ele>112.13</ele>
        <time>2019-05-27T07:15:48Z</time>
      </trkpt>
      <trkpt lat="41.05667" lon="-8.58897">
        <ele>111.65</ele>
        <time>2019-05-27T07:16:02Z</time>
      </trkpt>
      <trkpt lat="41.05688" lon="-8.58904">
        <ele>109.25</ele>
        <time>2019-05-27T07:16:19Z</time>
      </trkpt>
      <trkpt lat="41.05703" lon="-8.58907">
        <ele>109.73</ele>
        <time>2019-05-27T07:16:32Z</time>
      </trkpt>
      <trkpt lat="41.05721" lon="-8.5891">
        <ele>109.73</ele>
        <time>2019-05-27T07:16:47Z</time>
      </trkpt>
      <trkpt lat="41.05734" lon="-8.5891">
        <ele>110.21</ele>
        <time>2019-05-27T07:17:01Z</time>
      </trkpt>
      <trkpt lat="41.05735" lon="-8.58908">
        <ele>109.73</ele>
        <time>2019-05-27T07:17:17Z</time>
      </trkpt>
      <trkpt lat="41.0575" lon="-8.58906">
        <ele>110.21</ele>
        <time>2019-05-27T07:17:31Z</time>
      </trkpt>
      <trkpt lat="41.05769" lon="-8.58902">
        <ele>111.17</ele>
        <time>2019-05-27T07:17:48Z</time>
      </trkpt>
      <trkpt lat="41.05776" lon="-8.589">
        <ele>111.65</ele>
        <time>2019-05-27T07:17:55Z</time>
      </trkpt>
      <trkpt lat="41.05779" lon="-8.589">
        <ele>112.13</ele>
        <time>2019-05-27T07:17:57Z</time>
      </trkpt>
      <trkpt lat="41.05794" lon="-8.58894">
        <ele>112.61</ele>
        <time>2019-05-27T07:18:10Z</time>
      </trkpt>
      <trkpt lat="41.05811" lon="-8.58887">
        <ele>113.57</ele>
        <time>2019-05-27T07:18:25Z</time>
      </trkpt>
      <trkpt lat="41.05813" lon="-8.58886">
        <ele>113.57</ele>
        <time>2019-05-27T07:18:27Z</time>
      </trkpt>
      <trkpt lat="41.05819" lon="-8.58884">
        <ele>113.57</ele>
        <time>2019-05-27T07:18:32Z</time>
      </trkpt>
      <trkpt lat="41.05827" lon="-8.58882">
        <ele>114.53</ele>
        <time>2019-05-27T07:18:39Z</time>
      </trkpt>
      <trkpt lat="41.05837" lon="-8.58878">
        <ele>115.01</ele>
        <time>2019-05-27T07:18:48Z</time>
      </trkpt>
      <trkpt lat="41.05849" lon="-8.58873">
        <ele>115.5</ele>
        <time>2019-05-27T07:18:58Z</time>
      </trkpt>
      <trkpt lat="41.05863" lon="-8.58867">
        <ele>115.5</ele>
        <time>2019-05-27T07:19:10Z</time>
      </trkpt>
      <trkpt lat="41.0588" lon="-8.58857">
        <ele>115.98</ele>
        <time>2019-05-27T07:19:26Z</time>
      </trkpt>
      <trkpt lat="41.05893" lon="-8.5885">
        <ele>115.98</ele>
        <time>2019-05-27T07:19:37Z</time>
      </trkpt>
      <trkpt lat="41.05907" lon="-8.58838">
        <ele>116.46</ele>
        <time>2019-05-27T07:19:51Z</time>
      </trkpt>
      <trkpt lat="41.0591" lon="-8.58837">
        <ele>116.46</ele>
        <time>2019-05-27T07:19:53Z</time>
      </trkpt>
      <trkpt lat="41.05914" lon="-8.58834">
        <ele>116.46</ele>
        <time>2019-05-27T07:19:57Z</time>
      </trkpt>
      <trkpt lat="41.05925" lon="-8.58825">
        <ele>116.94</ele>
        <time>2019-05-27T07:20:08Z</time>
      </trkpt>
      <trkpt lat="41.0594" lon="-8.58813">
        <ele>117.42</ele>
        <time>2019-05-27T07:20:22Z</time>
      </trkpt>
      <trkpt lat="41.05951" lon="-8.58803">
        <ele>118.38</ele>
        <time>2019-05-27T07:20:34Z</time>
      </trkpt>
      <trkpt lat="41.05969" lon="-8.5879">
        <ele>118.38</ele>
        <time>2019-05-27T07:20:51Z</time>
      </trkpt>
      <trkpt lat="41.05975" lon="-8.58785">
        <ele>118.86</ele>
        <time>2019-05-27T07:20:57Z</time>
      </trkpt>
      <trkpt lat="41.05991" lon="-8.58772">
        <ele>119.82</ele>
        <time>2019-05-27T07:21:13Z</time>
      </trkpt>
      <trkpt lat="41.05993" lon="-8.58769">
        <ele>119.34</ele>
        <time>2019-05-27T07:21:15Z</time>
      </trkpt>
      <trkpt lat="41.05996" lon="-8.58764">
        <ele>120.3</ele>
        <time>2019-05-27T07:21:31Z</time>
      </trkpt>
      <trkpt lat="41.05994" lon="-8.58763">
        <ele>120.3</ele>
        <time>2019-05-27T07:21:55Z</time>
      </trkpt>
      <trkpt lat="41.05995" lon="-8.58763">
        <ele>120.78</ele>
        <time>2019-05-27T07:22:14Z</time>
      </trkpt>
      <trkpt lat="41.05996" lon="-8.58764">
        <ele>119.34</ele>
        <time>2019-05-27T07:22:38Z</time>
      </trkpt>
      <trkpt lat="41.05995" lon="-8.58766">
        <ele>119.82</ele>
        <time>2019-05-27T07:22:57Z</time>
      </trkpt>
      <trkpt lat="41.06002" lon="-8.5876">
        <ele>120.3</ele>
        <time>2019-05-27T07:23:14Z</time>
      </trkpt>
      <trkpt lat="41.06004" lon="-8.58759">
        <ele>119.82</ele>
        <time>2019-05-27T07:23:16Z</time>
      </trkpt>
      <trkpt lat="41.06009" lon="-8.58757">
        <ele>120.3</ele>
        <time>2019-05-27T07:23:21Z</time>
      </trkpt>
      <trkpt lat="41.06026" lon="-8.58748">
        <ele>121.26</ele>
        <time>2019-05-27T07:23:37Z</time>
      </trkpt>
      <trkpt lat="41.06037" lon="-8.58741">
        <ele>121.26</ele>
        <time>2019-05-27T07:23:49Z</time>
      </trkpt>
      <trkpt lat="41.06045" lon="-8.58739">
        <ele>121.74</ele>
        <time>2019-05-27T07:23:58Z</time>
      </trkpt>
      <trkpt lat="41.06065" lon="-8.5873">
        <ele>122.22</ele>
        <time>2019-05-27T07:24:16Z</time>
      </trkpt>
      <trkpt lat="41.06069" lon="-8.5873">
        <ele>122.71</ele>
        <time>2019-05-27T07:24:19Z</time>
      </trkpt>
      <trkpt lat="41.06082" lon="-8.58729">
        <ele>123.19</ele>
        <time>2019-05-27T07:24:31Z</time>
      </trkpt>
      <trkpt lat="41.06098" lon="-8.58731">
        <ele>124.15</ele>
        <time>2019-05-27T07:24:47Z</time>
      </trkpt>
      <trkpt lat="41.06111" lon="-8.58733">
        <ele>124.15</ele>
        <time>2019-05-27T07:24:58Z</time>
      </trkpt>
      <trkpt lat="41.06113" lon="-8.58733">
        <ele>124.15</ele>
        <time>2019-05-27T07:25:00Z</time>
      </trkpt>
      <trkpt lat="41.06127" lon="-8.58731">
        <ele>124.63</ele>
        <time>2019-05-27T07:25:12Z</time>
      </trkpt>
      <trkpt lat="41.0613" lon="-8.58732">
        <ele>125.11</ele>
        <time>2019-05-27T07:25:15Z</time>
      </trkpt>
      <trkpt lat="41.06141" lon="-8.58732">
        <ele>125.59</ele>
        <time>2019-05-27T07:25:24Z</time>
      </trkpt>
      <trkpt lat="41.06144" lon="-8.58731">
        <ele>125.11</ele>
        <time>2019-05-27T07:25:26Z</time>
      </trkpt>
      <trkpt lat="41.06156" lon="-8.5873">
        <ele>126.07</ele>
        <time>2019-05-27T07:25:39Z</time>
      </trkpt>
      <trkpt lat="41.06168" lon="-8.58725">
        <ele>126.55</ele>
        <time>2019-05-27T07:25:50Z</time>
      </trkpt>
      <trkpt lat="41.06183" lon="-8.58722">
        <ele>127.99</ele>
        <time>2019-05-27T07:26:06Z</time>
      </trkpt>
      <trkpt lat="41.06198" lon="-8.5873">
        <ele>129.43</ele>
        <time>2019-05-27T07:26:21Z</time>
      </trkpt>
      <trkpt lat="41.06209" lon="-8.58734">
        <ele>129.92</ele>
        <time>2019-05-27T07:26:35Z</time>
      </trkpt>
      <trkpt lat="41.06222" lon="-8.5874">
        <ele>131.36</ele>
        <time>2019-05-27T07:26:49Z</time>
      </trkpt>
      <trkpt lat="41.06237" lon="-8.58745">
        <ele>131.84</ele>
        <time>2019-05-27T07:27:01Z</time>
      </trkpt>
      <trkpt lat="41.06245" lon="-8.58746">
        <ele>131.84</ele>
        <time>2019-05-27T07:27:08Z</time>
      </trkpt>
      <trkpt lat="41.06254" lon="-8.58749">
        <ele>132.32</ele>
        <time>2019-05-27T07:27:21Z</time>
      </trkpt>
      <trkpt lat="41.06263" lon="-8.58749">
        <ele>131.84</ele>
        <time>2019-05-27T07:27:30Z</time>
      </trkpt>
      <trkpt lat="41.06274" lon="-8.5875">
        <ele>132.8</ele>
        <time>2019-05-27T07:27:44Z</time>
      </trkpt>
      <trkpt lat="41.06281" lon="-8.58746">
        <ele>131.84</ele>
        <time>2019-05-27T07:28:04Z</time>
      </trkpt>
      <trkpt lat="41.0629" lon="-8.58736">
        <ele>132.32</ele>
        <time>2019-05-27T07:28:16Z</time>
      </trkpt>
      <trkpt lat="41.06304" lon="-8.58729">
        <ele>134.72</ele>
        <time>2019-05-27T07:28:30Z</time>
      </trkpt>
      <trkpt lat="41.06317" lon="-8.58723">
        <ele>135.2</ele>
        <time>2019-05-27T07:28:43Z</time>
      </trkpt>
      <trkpt lat="41.0632" lon="-8.58723">
        <ele>135.2</ele>
        <time>2019-05-27T07:28:45Z</time>
      </trkpt>
      <trkpt lat="41.06323" lon="-8.58722">
        <ele>135.68</ele>
        <time>2019-05-27T07:28:48Z</time>
      </trkpt>
      <trkpt lat="41.06338" lon="-8.58718">
        <ele>136.16</ele>
        <time>2019-05-27T07:29:03Z</time>
      </trkpt>
      <trkpt lat="41.06349" lon="-8.58717">
        <ele>136.64</ele>
        <time>2019-05-27T07:29:14Z</time>
      </trkpt>
      <trkpt lat="41.06355" lon="-8.58716">
        <ele>136.64</ele>
        <time>2019-05-27T07:29:25Z</time>
      </trkpt>
      <trkpt lat="41.06363" lon="-8.58715">
        <ele>137.13</ele>
        <time>2019-05-27T07:29:36Z</time>
      </trkpt>
      <trkpt lat="41.06375" lon="-8.58709">
        <ele>137.61</ele>
        <time>2019-05-27T07:29:48Z</time>
      </trkpt>
      <trkpt lat="41.06388" lon="-8.58707">
        <ele>138.09</ele>
        <time>2019-05-27T07:29:59Z</time>
      </trkpt>
      <trkpt lat="41.06397" lon="-8.58708">
        <ele>138.57</ele>
        <time>2019-05-27T07:30:05Z</time>
      </trkpt>
      <trkpt lat="41.06418" lon="-8.58706">
        <ele>139.05</ele>
        <time>2019-05-27T07:30:21Z</time>
      </trkpt>
      <trkpt lat="41.06436" lon="-8.58704">
        <ele>140.01</ele>
        <time>2019-05-27T07:30:36Z</time>
      </trkpt>
      <trkpt lat="41.0644" lon="-8.58701">
        <ele>140.01</ele>
        <time>2019-05-27T07:30:40Z</time>
      </trkpt>
      <trkpt lat="41.06441" lon="-8.58699">
        <ele>140.01</ele>
        <time>2019-05-27T07:30:42Z</time>
      </trkpt>
      <trkpt lat="41.06451" lon="-8.58684">
        <ele>140.97</ele>
        <time>2019-05-27T07:30:53Z</time>
      </trkpt>
      <trkpt lat="41.06456" lon="-8.5868">
        <ele>140.97</ele>
        <time>2019-05-27T07:30:57Z</time>
      </trkpt>
      <trkpt lat="41.06462" lon="-8.58666">
        <ele>141.45</ele>
        <time>2019-05-27T07:31:08Z</time>
      </trkpt>
      <trkpt lat="41.06464" lon="-8.58662">
        <ele>141.93</ele>
        <time>2019-05-27T07:31:11Z</time>
      </trkpt>
      <trkpt lat="41.06465" lon="-8.58659">
        <ele>141.93</ele>
        <time>2019-05-27T07:31:13Z</time>
      </trkpt>
      <trkpt lat="41.06467" lon="-8.58652">
        <ele>142.41</ele>
        <time>2019-05-27T07:31:18Z</time>
      </trkpt>
      <trkpt lat="41.0647" lon="-8.58642">
        <ele>142.89</ele>
        <time>2019-05-27T07:31:25Z</time>
      </trkpt>
      <trkpt lat="41.06473" lon="-8.58621">
        <ele>143.85</ele>
        <time>2019-05-27T07:31:38Z</time>
      </trkpt>
      <trkpt lat="41.06474" lon="-8.58618">
        <ele>143.37</ele>
        <time>2019-05-27T07:31:40Z</time>
      </trkpt>
      <trkpt lat="41.06477" lon="-8.58613">
        <ele>143.85</ele>
        <time>2019-05-27T07:31:44Z</time>
      </trkpt>
      <trkpt lat="41.06485" lon="-8.58597">
        <ele>144.34</ele>
        <time>2019-05-27T07:31:59Z</time>
      </trkpt>
      <trkpt lat="41.06492" lon="-8.58587">
        <ele>144.82</ele>
        <time>2019-05-27T07:32:08Z</time>
      </trkpt>
      <trkpt lat="41.06511" lon="-8.58581">
        <ele>146.74</ele>
        <time>2019-05-27T07:32:24Z</time>
      </trkpt>
      <trkpt lat="41.06525" lon="-8.58585">
        <ele>147.22</ele>
        <time>2019-05-27T07:32:38Z</time>
      </trkpt>
      <trkpt lat="41.06531" lon="-8.58589">
        <ele>147.7</ele>
        <time>2019-05-27T07:32:49Z</time>
      </trkpt>
      <trkpt lat="41.06543" lon="-8.58601">
        <ele>148.66</ele>
        <time>2019-05-27T07:33:04Z</time>
      </trkpt>
      <trkpt lat="41.06555" lon="-8.58603">
        <ele>149.14</ele>
        <time>2019-05-27T07:33:17Z</time>
      </trkpt>
      <trkpt lat="41.06571" lon="-8.586">
        <ele>150.1</ele>
        <time>2019-05-27T07:33:31Z</time>
      </trkpt>
      <trkpt lat="41.06587" lon="-8.58599">
        <ele>151.54</ele>
        <time>2019-05-27T07:33:45Z</time>
      </trkpt>
      <trkpt lat="41.0659" lon="-8.58599">
        <ele>151.54</ele>
        <time>2019-05-27T07:33:49Z</time>
      </trkpt>
      <trkpt lat="41.06606" lon="-8.58597">
        <ele>153.47</ele>
        <time>2019-05-27T07:34:05Z</time>
      </trkpt>
      <trkpt lat="41.0662" lon="-8.58595">
        <ele>152.99</ele>
        <time>2019-05-27T07:34:19Z</time>
      </trkpt>
      <trkpt lat="41.06636" lon="-8.58597">
        <ele>154.43</ele>
        <time>2019-05-27T07:34:33Z</time>
      </trkpt>
      <trkpt lat="41.06653" lon="-8.58598">
        <ele>155.39</ele>
        <time>2019-05-27T07:34:46Z</time>
      </trkpt>
      <trkpt lat="41.0667" lon="-8.58599">
        <ele>156.83</ele>
        <time>2019-05-27T07:35:00Z</time>
      </trkpt>
      <trkpt lat="41.06686" lon="-8.586">
        <ele>158.27</ele>
        <time>2019-05-27T07:35:14Z</time>
      </trkpt>
      <trkpt lat="41.06704" lon="-8.58604">
        <ele>159.24</ele>
        <time>2019-05-27T07:35:29Z</time>
      </trkpt>
      <trkpt lat="41.0672" lon="-8.58604">
        <ele>159.72</ele>
        <time>2019-05-27T07:35:44Z</time>
      </trkpt>
      <trkpt lat="41.06737" lon="-8.58597">
        <ele>162.12</ele>
        <time>2019-05-27T07:36:03Z</time>
      </trkpt>
      <trkpt lat="41.06751" lon="-8.5859">
        <ele>164.04</ele>
        <time>2019-05-27T07:36:16Z</time>
      </trkpt>
      <trkpt lat="41.06755" lon="-8.58588">
        <ele>163.56</ele>
        <time>2019-05-27T07:36:19Z</time>
      </trkpt>
      <trkpt lat="41.06759" lon="-8.58587">
        <ele>164.52</ele>
        <time>2019-05-27T07:36:31Z</time>
      </trkpt>
      <trkpt lat="41.06761" lon="-8.58588">
        <ele>164.04</ele>
        <time>2019-05-27T07:36:44Z</time>
      </trkpt>
      <trkpt lat="41.06773" lon="-8.58576">
        <ele>165.48</ele>
        <time>2019-05-27T07:37:00Z</time>
      </trkpt>
      <trkpt lat="41.06781" lon="-8.58569">
        <ele>165.48</ele>
        <time>2019-05-27T07:37:12Z</time>
      </trkpt>
      <trkpt lat="41.06792" lon="-8.58568">
        <ele>165.96</ele>
        <time>2019-05-27T07:37:26Z</time>
      </trkpt>
      <trkpt lat="41.06802" lon="-8.58572">
        <ele>165.96</ele>
        <time>2019-05-27T07:37:43Z</time>
      </trkpt>
      <trkpt lat="41.06813" lon="-8.58573">
        <ele>167.41</ele>
        <time>2019-05-27T07:37:53Z</time>
      </trkpt>
      <trkpt lat="41.06824" lon="-8.58574">
        <ele>168.37</ele>
        <time>2019-05-27T07:38:01Z</time>
      </trkpt>
      <trkpt lat="41.06836" lon="-8.58571">
        <ele>169.81</ele>
        <time>2019-05-27T07:38:16Z</time>
      </trkpt>
      <trkpt lat="41.06848" lon="-8.58561">
        <ele>171.73</ele>
        <time>2019-05-27T07:38:34Z</time>
      </trkpt>
      <trkpt lat="41.06855" lon="-8.58549">
        <ele>173.66</ele>
        <time>2019-05-27T07:38:46Z</time>
      </trkpt>
      <trkpt lat="41.06868" lon="-8.58543">
        <ele>175.1</ele>
        <time>2019-05-27T07:39:01Z</time>
      </trkpt>
      <trkpt lat="41.0688" lon="-8.58534">
        <ele>175.58</ele>
        <time>2019-05-27T07:39:15Z</time>
      </trkpt>
      <trkpt lat="41.06898" lon="-8.5852">
        <ele>176.54</ele>
        <time>2019-05-27T07:39:33Z</time>
      </trkpt>
      <trkpt lat="41.06911" lon="-8.58515">
        <ele>177.98</ele>
        <time>2019-05-27T07:39:46Z</time>
      </trkpt>
      <trkpt lat="41.0692" lon="-8.58509">
        <ele>178.94</ele>
        <time>2019-05-27T07:40:00Z</time>
      </trkpt>
      <trkpt lat="41.06922" lon="-8.58508">
        <ele>178.46</ele>
        <time>2019-05-27T07:40:22Z</time>
      </trkpt>
      <trkpt lat="41.06925" lon="-8.58506">
        <ele>178.94</ele>
        <time>2019-05-27T07:40:35Z</time>
      </trkpt>
      <trkpt lat="41.06929" lon="-8.58502">
        <ele>179.9</ele>
        <time>2019-05-27T07:40:49Z</time>
      </trkpt>
      <trkpt lat="41.06931" lon="-8.58502">
        <ele>179.9</ele>
        <time>2019-05-27T07:41:08Z</time>
      </trkpt>
      <trkpt lat="41.06932" lon="-8.58502">
        <ele>180.38</ele>
        <time>2019-05-27T07:41:31Z</time>
      </trkpt>
      <trkpt lat="41.06948" lon="-8.585">
        <ele>182.31</ele>
        <time>2019-05-27T07:41:50Z</time>
      </trkpt>
      <trkpt lat="41.06961" lon="-8.58498">
        <ele>183.27</ele>
        <time>2019-05-27T07:42:05Z</time>
      </trkpt>
      <trkpt lat="41.06962" lon="-8.58498">
        <ele>183.75</ele>
        <time>2019-05-27T07:42:06Z</time>
      </trkpt>
      <trkpt lat="41.06974" lon="-8.58495">
        <ele>185.19</ele>
        <time>2019-05-27T07:42:20Z</time>
      </trkpt>
      <trkpt lat="41.06982" lon="-8.58492">
        <ele>186.63</ele>
        <time>2019-05-27T07:42:33Z</time>
      </trkpt>
      <trkpt lat="41.06993" lon="-8.5849">
        <ele>188.08</ele>
        <time>2019-05-27T07:42:47Z</time>
      </trkpt>
      <trkpt lat="41.07005" lon="-8.58488">
        <ele>190</ele>
        <time>2019-05-27T07:43:02Z</time>
      </trkpt>
      <trkpt lat="41.07023" lon="-8.58491">
        <ele>191.44</ele>
        <time>2019-05-27T07:43:17Z</time>
      </trkpt>
      <trkpt lat="41.07035" lon="-8.58489">
        <ele>192.88</ele>
        <time>2019-05-27T07:43:31Z</time>
      </trkpt>
      <trkpt lat="41.07048" lon="-8.58486">
        <ele>194.32</ele>
        <time>2019-05-27T07:43:44Z</time>
      </trkpt>
      <trkpt lat="41.07057" lon="-8.58483">
        <ele>196.25</ele>
        <time>2019-05-27T07:43:55Z</time>
      </trkpt>
      <trkpt lat="41.07065" lon="-8.58481">
        <ele>197.21</ele>
        <time>2019-05-27T07:44:08Z</time>
      </trkpt>
      <trkpt lat="41.07068" lon="-8.58479">
        <ele>197.21</ele>
        <time>2019-05-27T07:44:32Z</time>
      </trkpt>
      <trkpt lat="41.07074" lon="-8.58478">
        <ele>198.17</ele>
        <time>2019-05-27T07:44:50Z</time>
      </trkpt>
      <trkpt lat="41.07084" lon="-8.58478">
        <ele>200.09</ele>
        <time>2019-05-27T07:45:02Z</time>
      </trkpt>
      <trkpt lat="41.07096" lon="-8.58475">
        <ele>199.61</ele>
        <time>2019-05-27T07:45:15Z</time>
      </trkpt>
      <trkpt lat="41.07107" lon="-8.58473">
        <ele>200.57</ele>
        <time>2019-05-27T07:45:27Z</time>
      </trkpt>
      <trkpt lat="41.07117" lon="-8.58468">
        <ele>202.01</ele>
        <time>2019-05-27T07:45:39Z</time>
      </trkpt>
      <trkpt lat="41.07136" lon="-8.58463">
        <ele>202.98</ele>
        <time>2019-05-27T07:45:56Z</time>
      </trkpt>
      <trkpt lat="41.07147" lon="-8.58461">
        <ele>204.9</ele>
        <time>2019-05-27T07:46:12Z</time>
      </trkpt>
      <trkpt lat="41.07161" lon="-8.58461">
        <ele>205.86</ele>
        <time>2019-05-27T07:46:26Z</time>
      </trkpt>
      <trkpt lat="41.07173" lon="-8.58459">
        <ele>207.78</ele>
        <time>2019-05-27T07:46:37Z</time>
      </trkpt>
      <trkpt lat="41.07182" lon="-8.58456">
        <ele>209.22</ele>
        <time>2019-05-27T07:46:51Z</time>
      </trkpt>
      <trkpt lat="41.07198" lon="-8.58456">
        <ele>209.7</ele>
        <time>2019-05-27T07:47:05Z</time>
      </trkpt>
      <trkpt lat="41.07208" lon="-8.5845">
        <ele>210.67</ele>
        <time>2019-05-27T07:47:18Z</time>
      </trkpt>
      <trkpt lat="41.07225" lon="-8.58456">
        <ele>211.63</ele>
        <time>2019-05-27T07:47:32Z</time>
      </trkpt>
      <trkpt lat="41.07227" lon="-8.58457">
        <ele>211.63</ele>
        <time>2019-05-27T07:47:34Z</time>
      </trkpt>
      <trkpt lat="41.07239" lon="-8.58459">
        <ele>212.59</ele>
        <time>2019-05-27T07:47:46Z</time>
      </trkpt>
      <trkpt lat="41.07253" lon="-8.58466">
        <ele>214.51</ele>
        <time>2019-05-27T07:48:00Z</time>
      </trkpt>
      <trkpt lat="41.07261" lon="-8.58467">
        <ele>215.47</ele>
        <time>2019-05-27T07:48:11Z</time>
      </trkpt>
      <trkpt lat="41.07275" lon="-8.58466">
        <ele>218.36</ele>
        <time>2019-05-27T07:48:28Z</time>
      </trkpt>
      <trkpt lat="41.07287" lon="-8.58467">
        <ele>219.32</ele>
        <time>2019-05-27T07:48:43Z</time>
      </trkpt>
      <trkpt lat="41.073" lon="-8.58472">
        <ele>219.8</ele>
        <time>2019-05-27T07:48:56Z</time>
      </trkpt>
      <trkpt lat="41.07312" lon="-8.58472">
        <ele>220.76</ele>
        <time>2019-05-27T07:49:09Z</time>
      </trkpt>
      <trkpt lat="41.07323" lon="-8.58467">
        <ele>221.72</ele>
        <time>2019-05-27T07:49:21Z</time>
      </trkpt>
      <trkpt lat="41.07343" lon="-8.58465">
        <ele>223.16</ele>
        <time>2019-05-27T07:49:39Z</time>
      </trkpt>
      <trkpt lat="41.07355" lon="-8.58467">
        <ele>224.61</ele>
        <time>2019-05-27T07:49:49Z</time>
      </trkpt>
      <trkpt lat="41.07362" lon="-8.58469">
        <ele>225.09</ele>
        <time>2019-05-27T07:49:56Z</time>
      </trkpt>
      <trkpt lat="41.07377" lon="-8.5847">
        <ele>227.01</ele>
        <time>2019-05-27T07:50:11Z</time>
      </trkpt>
      <trkpt lat="41.07386" lon="-8.58468">
        <ele>227.49</ele>
        <time>2019-05-27T07:50:22Z</time>
      </trkpt>
      <trkpt lat="41.07389" lon="-8.5847">
        <ele>227.97</ele>
        <time>2019-05-27T07:50:49Z</time>
      </trkpt>
      <trkpt lat="41.0739" lon="-8.58469">
        <ele>227.97</ele>
        <time>2019-05-27T07:51:22Z</time>
      </trkpt>
      <trkpt lat="41.0739" lon="-8.58475">
        <ele>227.97</ele>
        <time>2019-05-27T07:51:58Z</time>
      </trkpt>
      <trkpt lat="41.07386" lon="-8.58475">
        <ele>228.45</ele>
        <time>2019-05-27T07:52:25Z</time>
      </trkpt>
      <trkpt lat="41.07391" lon="-8.58474">
        <ele>227.97</ele>
        <time>2019-05-27T07:52:53Z</time>
      </trkpt>
      <trkpt lat="41.07404" lon="-8.58478">
        <ele>228.45</ele>
        <time>2019-05-27T07:53:09Z</time>
      </trkpt>
      <trkpt lat="41.07406" lon="-8.5848">
        <ele>228.45</ele>
        <time>2019-05-27T07:53:12Z</time>
      </trkpt>
      <trkpt lat="41.07413" lon="-8.58495">
        <ele>228.93</ele>
        <time>2019-05-27T07:53:24Z</time>
      </trkpt>
      <trkpt lat="41.07413" lon="-8.58498">
        <ele>228.45</ele>
        <time>2019-05-27T07:53:26Z</time>
      </trkpt>
      <trkpt lat="41.07414" lon="-8.585">
        <ele>228.93</ele>
        <time>2019-05-27T07:53:28Z</time>
      </trkpt>
      <trkpt lat="41.07417" lon="-8.58507">
        <ele>228.45</ele>
        <time>2019-05-27T07:53:33Z</time>
      </trkpt>
      <trkpt lat="41.07433" lon="-8.58512">
        <ele>229.41</ele>
        <time>2019-05-27T07:53:50Z</time>
      </trkpt>
      <trkpt lat="41.07449" lon="-8.58515">
        <ele>229.41</ele>
        <time>2019-05-27T07:54:05Z</time>
      </trkpt>
      <trkpt lat="41.07451" lon="-8.58515">
        <ele>229.89</ele>
        <time>2019-05-27T07:54:07Z</time>
      </trkpt>
      <trkpt lat="41.07468" lon="-8.58519">
        <ele>230.85</ele>
        <time>2019-05-27T07:54:22Z</time>
      </trkpt>
      <trkpt lat="41.07479" lon="-8.58521">
        <ele>230.85</ele>
        <time>2019-05-27T07:54:30Z</time>
      </trkpt>
      <trkpt lat="41.07492" lon="-8.58522">
        <ele>231.81</ele>
        <time>2019-05-27T07:54:43Z</time>
      </trkpt>
      <trkpt lat="41.07512" lon="-8.58526">
        <ele>232.3</ele>
        <time>2019-05-27T07:54:59Z</time>
      </trkpt>
      <trkpt lat="41.0752" lon="-8.58526">
        <ele>232.3</ele>
        <time>2019-05-27T07:55:05Z</time>
      </trkpt>
      <trkpt lat="41.07539" lon="-8.58533">
        <ele>232.3</ele>
        <time>2019-05-27T07:55:22Z</time>
      </trkpt>
      <trkpt lat="41.07554" lon="-8.58538">
        <ele>231.81</ele>
        <time>2019-05-27T07:55:35Z</time>
      </trkpt>
      <trkpt lat="41.07562" lon="-8.58542">
        <ele>231.81</ele>
        <time>2019-05-27T07:55:42Z</time>
      </trkpt>
      <trkpt lat="41.07575" lon="-8.58544">
        <ele>231.33</ele>
        <time>2019-05-27T07:55:55Z</time>
      </trkpt>
      <trkpt lat="41.07588" lon="-8.58547">
        <ele>230.37</ele>
        <time>2019-05-27T07:56:08Z</time>
      </trkpt>
      <trkpt lat="41.07601" lon="-8.58546">
        <ele>229.89</ele>
        <time>2019-05-27T07:56:23Z</time>
      </trkpt>
      <trkpt lat="41.07622" lon="-8.58552">
        <ele>229.41</ele>
        <time>2019-05-27T07:56:35Z</time>
      </trkpt>
      <trkpt lat="41.07637" lon="-8.58548">
        <ele>229.89</ele>
        <time>2019-05-27T07:56:48Z</time>
      </trkpt>
      <trkpt lat="41.07652" lon="-8.5855">
        <ele>230.37</ele>
        <time>2019-05-27T07:57:03Z</time>
      </trkpt>
      <trkpt lat="41.07662" lon="-8.58547">
        <ele>231.33</ele>
        <time>2019-05-27T07:57:15Z</time>
      </trkpt>
      <trkpt lat="41.0768" lon="-8.58548">
        <ele>231.81</ele>
        <time>2019-05-27T07:57:30Z</time>
      </trkpt>
      <trkpt lat="41.07692" lon="-8.5855">
        <ele>231.81</ele>
        <time>2019-05-27T07:57:44Z</time>
      </trkpt>
      <trkpt lat="41.07702" lon="-8.58551">
        <ele>231.81</ele>
        <time>2019-05-27T07:57:58Z</time>
      </trkpt>
      <trkpt lat="41.07711" lon="-8.58557">
        <ele>231.81</ele>
        <time>2019-05-27T07:58:12Z</time>
      </trkpt>
      <trkpt lat="41.07716" lon="-8.58551">
        <ele>232.78</ele>
        <time>2019-05-27T07:58:39Z</time>
      </trkpt>
      <trkpt lat="41.07729" lon="-8.58557">
        <ele>232.3</ele>
        <time>2019-05-27T07:58:53Z</time>
      </trkpt>
      <trkpt lat="41.07749" lon="-8.58563">
        <ele>232.78</ele>
        <time>2019-05-27T07:59:11Z</time>
      </trkpt>
      <trkpt lat="41.07761" lon="-8.58565">
        <ele>233.74</ele>
        <time>2019-05-27T07:59:23Z</time>
      </trkpt>
      <trkpt lat="41.07776" lon="-8.58565">
        <ele>232.78</ele>
        <time>2019-05-27T07:59:37Z</time>
      </trkpt>
      <trkpt lat="41.07792" lon="-8.58566">
        <ele>233.26</ele>
        <time>2019-05-27T07:59:51Z</time>
      </trkpt>
      <trkpt lat="41.07812" lon="-8.5857">
        <ele>232.78</ele>
        <time>2019-05-27T08:00:08Z</time>
      </trkpt>
      <trkpt lat="41.07829" lon="-8.58568">
        <ele>232.3</ele>
        <time>2019-05-27T08:00:22Z</time>
      </trkpt>
      <trkpt lat="41.07848" lon="-8.58572">
        <ele>231.33</ele>
        <time>2019-05-27T08:00:37Z</time>
      </trkpt>
      <trkpt lat="41.07871" lon="-8.58577">
        <ele>229.41</ele>
        <time>2019-05-27T08:00:54Z</time>
      </trkpt>
      <trkpt lat="41.07889" lon="-8.58583">
        <ele>227.97</ele>
        <time>2019-05-27T08:01:09Z</time>
      </trkpt>
      <trkpt lat="41.07891" lon="-8.58584">
        <ele>227.49</ele>
        <time>2019-05-27T08:01:11Z</time>
      </trkpt>
      <trkpt lat="41.0791" lon="-8.58588">
        <ele>224.61</ele>
        <time>2019-05-27T08:01:28Z</time>
      </trkpt>
      <trkpt lat="41.07927" lon="-8.58593">
        <ele>221.72</ele>
        <time>2019-05-27T08:01:42Z</time>
      </trkpt>
      <trkpt lat="41.07947" lon="-8.58597">
        <ele>218.84</ele>
        <time>2019-05-27T08:01:59Z</time>
      </trkpt>
      <trkpt lat="41.07966" lon="-8.58604">
        <ele>216.91</ele>
        <time>2019-05-27T08:02:16Z</time>
      </trkpt>
      <trkpt lat="41.07982" lon="-8.58607">
        <ele>214.51</ele>
        <time>2019-05-27T08:02:30Z</time>
      </trkpt>
      <trkpt lat="41.08001" lon="-8.5861">
        <ele>212.59</ele>
        <time>2019-05-27T08:02:46Z</time>
      </trkpt>
      <trkpt lat="41.08023" lon="-8.58614">
        <ele>211.63</ele>
        <time>2019-05-27T08:03:03Z</time>
      </trkpt>
      <trkpt lat="41.08037" lon="-8.58618">
        <ele>211.63</ele>
        <time>2019-05-27T08:03:15Z</time>
      </trkpt>
      <trkpt lat="41.08054" lon="-8.58626">
        <ele>211.63</ele>
        <time>2019-05-27T08:03:31Z</time>
      </trkpt>
      <trkpt lat="41.08073" lon="-8.58635">
        <ele>211.15</ele>
        <time>2019-05-27T08:03:47Z</time>
      </trkpt>
      <trkpt lat="41.08092" lon="-8.58644">
        <ele>211.63</ele>
        <time>2019-05-27T08:04:04Z</time>
      </trkpt>
      <trkpt lat="41.0811" lon="-8.58655">
        <ele>211.15</ele>
        <time>2019-05-27T08:04:20Z</time>
      </trkpt>
      <trkpt lat="41.08127" lon="-8.58663">
        <ele>211.15</ele>
        <time>2019-05-27T08:04:34Z</time>
      </trkpt>
      <trkpt lat="41.08142" lon="-8.58673">
        <ele>211.63</ele>
        <time>2019-05-27T08:04:50Z</time>
      </trkpt>
      <trkpt lat="41.08155" lon="-8.58677">
        <ele>211.63</ele>
        <time>2019-05-27T08:05:03Z</time>
      </trkpt>
      <trkpt lat="41.08171" lon="-8.5868">
        <ele>212.59</ele>
        <time>2019-05-27T08:05:18Z</time>
      </trkpt>
      <trkpt lat="41.08183" lon="-8.58686">
        <ele>214.03</ele>
        <time>2019-05-27T08:05:33Z</time>
      </trkpt>
      <trkpt lat="41.08199" lon="-8.58694">
        <ele>214.51</ele>
        <time>2019-05-27T08:05:48Z</time>
      </trkpt>
      <trkpt lat="41.08202" lon="-8.58695">
        <ele>214.99</ele>
        <time>2019-05-27T08:05:50Z</time>
      </trkpt>
      <trkpt lat="41.08216" lon="-8.58703">
        <ele>215.95</ele>
        <time>2019-05-27T08:06:06Z</time>
      </trkpt>
      <trkpt lat="41.08218" lon="-8.58704">
        <ele>216.43</ele>
        <time>2019-05-27T08:06:08Z</time>
      </trkpt>
      <trkpt lat="41.0823" lon="-8.58715">
        <ele>215.95</ele>
        <time>2019-05-27T08:06:26Z</time>
      </trkpt>
      <trkpt lat="41.08233" lon="-8.58718">
        <ele>216.43</ele>
        <time>2019-05-27T08:06:36Z</time>
      </trkpt>
      <trkpt lat="41.08241" lon="-8.58722">
        <ele>219.32</ele>
        <time>2019-05-27T08:06:48Z</time>
      </trkpt>
      <trkpt lat="41.08252" lon="-8.58733">
        <ele>222.2</ele>
        <time>2019-05-27T08:07:06Z</time>
      </trkpt>
      <trkpt lat="41.08265" lon="-8.58737">
        <ele>224.12</ele>
        <time>2019-05-27T08:07:25Z</time>
      </trkpt>
      <trkpt lat="41.0827" lon="-8.5874">
        <ele>225.09</ele>
        <time>2019-05-27T08:07:42Z</time>
      </trkpt>
      <trkpt lat="41.08277" lon="-8.58747">
        <ele>224.61</ele>
        <time>2019-05-27T08:08:02Z</time>
      </trkpt>
      <trkpt lat="41.08275" lon="-8.58747">
        <ele>225.09</ele>
        <time>2019-05-27T08:08:13Z</time>
      </trkpt>
      <trkpt lat="41.08289" lon="-8.58759">
        <ele>224.12</ele>
        <time>2019-05-27T08:08:29Z</time>
      </trkpt>
      <trkpt lat="41.083" lon="-8.58769">
        <ele>224.12</ele>
        <time>2019-05-27T08:08:42Z</time>
      </trkpt>
      <trkpt lat="41.08301" lon="-8.58771">
        <ele>224.12</ele>
        <time>2019-05-27T08:08:44Z</time>
      </trkpt>
      <trkpt lat="41.08313" lon="-8.58782">
        <ele>224.61</ele>
        <time>2019-05-27T08:08:57Z</time>
      </trkpt>
      <trkpt lat="41.08329" lon="-8.58796">
        <ele>226.05</ele>
        <time>2019-05-27T08:09:12Z</time>
      </trkpt>
      <trkpt lat="41.0834" lon="-8.58808">
        <ele>227.49</ele>
        <time>2019-05-27T08:09:27Z</time>
      </trkpt>
      <trkpt lat="41.08348" lon="-8.58816">
        <ele>228.93</ele>
        <time>2019-05-27T08:09:40Z</time>
      </trkpt>
      <trkpt lat="41.08359" lon="-8.58829">
        <ele>230.85</ele>
        <time>2019-05-27T08:09:56Z</time>
      </trkpt>
      <trkpt lat="41.08372" lon="-8.5884">
        <ele>230.85</ele>
        <time>2019-05-27T08:10:11Z</time>
      </trkpt>
      <trkpt lat="41.08385" lon="-8.58859">
        <ele>232.3</ele>
        <time>2019-05-27T08:10:27Z</time>
      </trkpt>
      <trkpt lat="41.08389" lon="-8.58865">
        <ele>231.33</ele>
        <time>2019-05-27T08:10:32Z</time>
      </trkpt>
      <trkpt lat="41.08394" lon="-8.5888">
        <ele>229.89</ele>
        <time>2019-05-27T08:10:45Z</time>
      </trkpt>
      <trkpt lat="41.084" lon="-8.58897">
        <ele>227.49</ele>
        <time>2019-05-27T08:11:00Z</time>
      </trkpt>
      <trkpt lat="41.08403" lon="-8.58911">
        <ele>226.53</ele>
        <time>2019-05-27T08:11:09Z</time>
      </trkpt>
      <trkpt lat="41.08408" lon="-8.58929">
        <ele>225.57</ele>
        <time>2019-05-27T08:11:21Z</time>
      </trkpt>
      <trkpt lat="41.08413" lon="-8.58948">
        <ele>224.61</ele>
        <time>2019-05-27T08:11:33Z</time>
      </trkpt>
      <trkpt lat="41.08415" lon="-8.58958">
        <ele>223.64</ele>
        <time>2019-05-27T08:11:39Z</time>
      </trkpt>
      <trkpt lat="41.08418" lon="-8.58971">
        <ele>222.68</ele>
        <time>2019-05-27T08:11:45Z</time>
      </trkpt>
      <trkpt lat="41.08424" lon="-8.59">
        <ele>220.76</ele>
        <time>2019-05-27T08:12:00Z</time>
      </trkpt>
      <trkpt lat="41.08429" lon="-8.59022">
        <ele>220.28</ele>
        <time>2019-05-27T08:12:13Z</time>
      </trkpt>
      <trkpt lat="41.08434" lon="-8.59043">
        <ele>219.8</ele>
        <time>2019-05-27T08:12:27Z</time>
      </trkpt>
      <trkpt lat="41.08435" lon="-8.59059">
        <ele>219.8</ele>
        <time>2019-05-27T08:12:43Z</time>
      </trkpt>
      <trkpt lat="41.08443" lon="-8.59071">
        <ele>219.8</ele>
        <time>2019-05-27T08:12:56Z</time>
      </trkpt>
      <trkpt lat="41.08453" lon="-8.59083">
        <ele>220.28</ele>
        <time>2019-05-27T08:13:08Z</time>
      </trkpt>
      <trkpt lat="41.08459" lon="-8.59092">
        <ele>220.28</ele>
        <time>2019-05-27T08:13:17Z</time>
      </trkpt>
      <trkpt lat="41.08468" lon="-8.59103">
        <ele>221.24</ele>
        <time>2019-05-27T08:13:29Z</time>
      </trkpt>
      <trkpt lat="41.0847" lon="-8.59106">
        <ele>221.24</ele>
        <time>2019-05-27T08:13:31Z</time>
      </trkpt>
      <trkpt lat="41.08473" lon="-8.59108">
        <ele>221.72</ele>
        <time>2019-05-27T08:13:33Z</time>
      </trkpt>
      <trkpt lat="41.08475" lon="-8.59111">
        <ele>221.72</ele>
        <time>2019-05-27T08:13:36Z</time>
      </trkpt>
      <trkpt lat="41.08487" lon="-8.5913">
        <ele>221.72</ele>
        <time>2019-05-27T08:13:52Z</time>
      </trkpt>
      <trkpt lat="41.0849" lon="-8.59129">
        <ele>221.72</ele>
        <time>2019-05-27T08:14:09Z</time>
      </trkpt>
      <trkpt lat="41.08495" lon="-8.59138">
        <ele>221.24</ele>
        <time>2019-05-27T08:14:34Z</time>
      </trkpt>
      <trkpt lat="41.08497" lon="-8.5914">
        <ele>221.72</ele>
        <time>2019-05-27T08:14:44Z</time>
      </trkpt>
      <trkpt lat="41.08502" lon="-8.59144">
        <ele>221.72</ele>
        <time>2019-05-27T08:14:50Z</time>
      </trkpt>
      <trkpt lat="41.08515" lon="-8.5916">
        <ele>221.24</ele>
        <time>2019-05-27T08:15:06Z</time>
      </trkpt>
      <trkpt lat="41.0852" lon="-8.59167">
        <ele>220.76</ele>
        <time>2019-05-27T08:15:12Z</time>
      </trkpt>
      <trkpt lat="41.08536" lon="-8.59183">
        <ele>219.8</ele>
        <time>2019-05-27T08:15:27Z</time>
      </trkpt>
      <trkpt lat="41.08544" lon="-8.59186">
        <ele>219.8</ele>
        <time>2019-05-27T08:15:42Z</time>
      </trkpt>
      <trkpt lat="41.08545" lon="-8.59188">
        <ele>219.32</ele>
        <time>2019-05-27T08:15:54Z</time>
      </trkpt>
      <trkpt lat="41.08544" lon="-8.59188">
        <ele>219.32</ele>
        <time>2019-05-27T08:16:08Z</time>
      </trkpt>
      <trkpt lat="41.08549" lon="-8.59192">
        <ele>217.88</ele>
        <time>2019-05-27T08:16:15Z</time>
      </trkpt>
      <trkpt lat="41.08555" lon="-8.59201">
        <ele>216.43</ele>
        <time>2019-05-27T08:16:28Z</time>
      </trkpt>
      <trkpt lat="41.08559" lon="-8.59208">
        <ele>214.51</ele>
        <time>2019-05-27T08:16:42Z</time>
      </trkpt>
      <trkpt lat="41.08561" lon="-8.5921">
        <ele>212.59</ele>
        <time>2019-05-27T08:16:57Z</time>
      </trkpt>
      <trkpt lat="41.08567" lon="-8.59215">
        <ele>210.67</ele>
        <time>2019-05-27T08:17:11Z</time>
      </trkpt>
      <trkpt lat="41.08575" lon="-8.59223">
        <ele>209.22</ele>
        <time>2019-05-27T08:17:25Z</time>
      </trkpt>
      <trkpt lat="41.08584" lon="-8.59234">
        <ele>206.82</ele>
        <time>2019-05-27T08:17:42Z</time>
      </trkpt>
      <trkpt lat="41.08591" lon="-8.59242">
        <ele>204.9</ele>
        <time>2019-05-27T08:17:55Z</time>
      </trkpt>
      <trkpt lat="41.08599" lon="-8.59255">
        <ele>204.42</ele>
        <time>2019-05-27T08:18:07Z</time>
      </trkpt>
      <trkpt lat="41.08607" lon="-8.59264">
        <ele>202.98</ele>
        <time>2019-05-27T08:18:19Z</time>
      </trkpt>
      <trkpt lat="41.08612" lon="-8.59265">
        <ele>203.46</ele>
        <time>2019-05-27T08:18:42Z</time>
      </trkpt>
      <trkpt lat="41.08612" lon="-8.59265">
        <ele>203.46</ele>
        <time>2019-05-27T08:18:58Z</time>
      </trkpt>
      <trkpt lat="41.0861" lon="-8.59268">
        <ele>202.98</ele>
        <time>2019-05-27T08:19:05Z</time>
      </trkpt>
      <trkpt lat="41.08606" lon="-8.59277">
        <ele>202.01</ele>
        <time>2019-05-27T08:19:13Z</time>
      </trkpt>
      <trkpt lat="41.08606" lon="-8.59284">
        <ele>201.05</ele>
        <time>2019-05-27T08:19:17Z</time>
      </trkpt>
      <trkpt lat="41.08604" lon="-8.59297">
        <ele>199.61</ele>
        <time>2019-05-27T08:19:34Z</time>
      </trkpt>
      <trkpt lat="41.08604" lon="-8.59312">
        <ele>198.17</ele>
        <time>2019-05-27T08:19:48Z</time>
      </trkpt>
      <trkpt lat="41.08604" lon="-8.59316">
        <ele>197.69</ele>
        <time>2019-05-27T08:19:51Z</time>
      </trkpt>
      <trkpt lat="41.08607" lon="-8.59326">
        <ele>196.25</ele>
        <time>2019-05-27T08:19:57Z</time>
      </trkpt>
      <trkpt lat="41.08619" lon="-8.59331">
        <ele>197.69</ele>
        <time>2019-05-27T08:20:10Z</time>
      </trkpt>
      <trkpt lat="41.08625" lon="-8.5933">
        <ele>197.69</ele>
        <time>2019-05-27T08:20:17Z</time>
      </trkpt>
      <trkpt lat="41.08639" lon="-8.59327">
        <ele>197.21</ele>
        <time>2019-05-27T08:20:31Z</time>
      </trkpt>
      <trkpt lat="41.08644" lon="-8.59324">
        <ele>197.21</ele>
        <time>2019-05-27T08:20:47Z</time>
      </trkpt>
      <trkpt lat="41.08657" lon="-8.59323">
        <ele>195.77</ele>
        <time>2019-05-27T08:20:59Z</time>
      </trkpt>
      <trkpt lat="41.08677" lon="-8.59323">
        <ele>194.32</ele>
        <time>2019-05-27T08:21:17Z</time>
      </trkpt>
      <trkpt lat="41.08695" lon="-8.59325">
        <ele>192.4</ele>
        <time>2019-05-27T08:21:32Z</time>
      </trkpt>
      <trkpt lat="41.08706" lon="-8.59328">
        <ele>191.92</ele>
        <time>2019-05-27T08:21:42Z</time>
      </trkpt>
      <trkpt lat="41.08709" lon="-8.59328">
        <ele>191.92</ele>
        <time>2019-05-27T08:21:44Z</time>
      </trkpt>
      <trkpt lat="41.0872" lon="-8.59328">
        <ele>192.4</ele>
        <time>2019-05-27T08:21:56Z</time>
      </trkpt>
      <trkpt lat="41.08722" lon="-8.59328">
        <ele>191.92</ele>
        <time>2019-05-27T08:21:58Z</time>
      </trkpt>
      <trkpt lat="41.08742" lon="-8.59327">
        <ele>190.48</ele>
        <time>2019-05-27T08:22:14Z</time>
      </trkpt>
      <trkpt lat="41.0875" lon="-8.59323">
        <ele>190</ele>
        <time>2019-05-27T08:22:27Z</time>
      </trkpt>
      <trkpt lat="41.08769" lon="-8.59322">
        <ele>187.59</ele>
        <time>2019-05-27T08:22:43Z</time>
      </trkpt>
      <trkpt lat="41.08785" lon="-8.5932">
        <ele>186.63</ele>
        <time>2019-05-27T08:22:57Z</time>
      </trkpt>
      <trkpt lat="41.08803" lon="-8.59316">
        <ele>183.75</ele>
        <time>2019-05-27T08:23:12Z</time>
      </trkpt>
      <trkpt lat="41.08814" lon="-8.59316">
        <ele>183.27</ele>
        <time>2019-05-27T08:23:21Z</time>
      </trkpt>
      <trkpt lat="41.08816" lon="-8.59316">
        <ele>182.79</ele>
        <time>2019-05-27T08:23:23Z</time>
      </trkpt>
      <trkpt lat="41.0883" lon="-8.59316">
        <ele>181.35</ele>
        <time>2019-05-27T08:23:40Z</time>
      </trkpt>
      <trkpt lat="41.08848" lon="-8.59317">
        <ele>177.98</ele>
        <time>2019-05-27T08:23:56Z</time>
      </trkpt>
      <trkpt lat="41.08854" lon="-8.59316">
        <ele>177.98</ele>
        <time>2019-05-27T08:24:03Z</time>
      </trkpt>
      <trkpt lat="41.08864" lon="-8.59317">
        <ele>176.06</ele>
        <time>2019-05-27T08:24:12Z</time>
      </trkpt>
      <trkpt lat="41.08874" lon="-8.59322">
        <ele>175.1</ele>
        <time>2019-05-27T08:24:24Z</time>
      </trkpt>
      <trkpt lat="41.0889" lon="-8.59323">
        <ele>174.14</ele>
        <time>2019-05-27T08:24:36Z</time>
      </trkpt>
      <trkpt lat="41.08902" lon="-8.59324">
        <ele>172.21</ele>
        <time>2019-05-27T08:24:49Z</time>
      </trkpt>
      <trkpt lat="41.08913" lon="-8.59325">
        <ele>171.25</ele>
        <time>2019-05-27T08:25:03Z</time>
      </trkpt>
      <trkpt lat="41.08924" lon="-8.59325">
        <ele>169.81</ele>
        <time>2019-05-27T08:25:15Z</time>
      </trkpt>
      <trkpt lat="41.08946" lon="-8.59331">
        <ele>167.41</ele>
        <time>2019-05-27T08:25:30Z</time>
      </trkpt>
      <trkpt lat="41.08963" lon="-8.59336">
        <ele>165.48</ele>
        <time>2019-05-27T08:25:45Z</time>
      </trkpt>
      <trkpt lat="41.08981" lon="-8.59343">
        <ele>163.56</ele>
        <time>2019-05-27T08:26:01Z</time>
      </trkpt>
      <trkpt lat="41.08982" lon="-8.59343">
        <ele>163.56</ele>
        <time>2019-05-27T08:26:02Z</time>
      </trkpt>
      <trkpt lat="41.08993" lon="-8.59347">
        <ele>162.6</ele>
        <time>2019-05-27T08:26:10Z</time>
      </trkpt>
      <trkpt lat="41.08998" lon="-8.59349">
        <ele>162.12</ele>
        <time>2019-05-27T08:26:14Z</time>
      </trkpt>
      <trkpt lat="41.09004" lon="-8.59352">
        <ele>162.12</ele>
        <time>2019-05-27T08:26:19Z</time>
      </trkpt>
      <trkpt lat="41.09009" lon="-8.59356">
        <ele>161.64</ele>
        <time>2019-05-27T08:26:23Z</time>
      </trkpt>
      <trkpt lat="41.09014" lon="-8.59361">
        <ele>160.2</ele>
        <time>2019-05-27T08:26:28Z</time>
      </trkpt>
      <trkpt lat="41.09027" lon="-8.59379">
        <ele>159.24</ele>
        <time>2019-05-27T08:26:43Z</time>
      </trkpt>
      <trkpt lat="41.09031" lon="-8.59384">
        <ele>159.24</ele>
        <time>2019-05-27T08:26:48Z</time>
      </trkpt>
      <trkpt lat="41.09035" lon="-8.59385">
        <ele>158.75</ele>
        <time>2019-05-27T08:26:51Z</time>
      </trkpt>
      <trkpt lat="41.09047" lon="-8.594">
        <ele>156.83</ele>
        <time>2019-05-27T08:27:05Z</time>
      </trkpt>
      <trkpt lat="41.09056" lon="-8.59414">
        <ele>155.39</ele>
        <time>2019-05-27T08:27:17Z</time>
      </trkpt>
      <trkpt lat="41.09066" lon="-8.59429">
        <ele>155.87</ele>
        <time>2019-05-27T08:27:31Z</time>
      </trkpt>
      <trkpt lat="41.09076" lon="-8.5943">
        <ele>154.43</ele>
        <time>2019-05-27T08:27:44Z</time>
      </trkpt>
      <trkpt lat="41.09083" lon="-8.59428">
        <ele>154.91</ele>
        <time>2019-05-27T08:27:55Z</time>
      </trkpt>
      <trkpt lat="41.09086" lon="-8.59429">
        <ele>154.43</ele>
        <time>2019-05-27T08:27:58Z</time>
      </trkpt>
      <trkpt lat="41.09103" lon="-8.59427">
        <ele>154.43</ele>
        <time>2019-05-27T08:28:14Z</time>
      </trkpt>
      <trkpt lat="41.09108" lon="-8.59421">
        <ele>156.35</ele>
        <time>2019-05-27T08:28:21Z</time>
      </trkpt>
      <trkpt lat="41.09116" lon="-8.59404">
        <ele>157.31</ele>
        <time>2019-05-27T08:28:37Z</time>
      </trkpt>
      <trkpt lat="41.09125" lon="-8.59403">
        <ele>156.83</ele>
        <time>2019-05-27T08:28:50Z</time>
      </trkpt>
      <trkpt lat="41.09126" lon="-8.59402">
        <ele>157.79</ele>
        <time>2019-05-27T08:28:53Z</time>
      </trkpt>
      <trkpt lat="41.0913" lon="-8.59399">
        <ele>157.79</ele>
        <time>2019-05-27T08:28:57Z</time>
      </trkpt>
      <trkpt lat="41.09142" lon="-8.59394">
        <ele>157.31</ele>
        <time>2019-05-27T08:29:13Z</time>
      </trkpt>
      <trkpt lat="41.09144" lon="-8.59393">
        <ele>157.79</ele>
        <time>2019-05-27T08:29:35Z</time>
      </trkpt>
      <trkpt lat="41.09145" lon="-8.59395">
        <ele>157.79</ele>
        <time>2019-05-27T08:29:40Z</time>
      </trkpt>
      <trkpt lat="41.09157" lon="-8.59409">
        <ele>156.83</ele>
        <time>2019-05-27T08:29:55Z</time>
      </trkpt>
      <trkpt lat="41.09171" lon="-8.59428">
        <ele>154.91</ele>
        <time>2019-05-27T08:30:11Z</time>
      </trkpt>
      <trkpt lat="41.09182" lon="-8.59443">
        <ele>154.91</ele>
        <time>2019-05-27T08:30:24Z</time>
      </trkpt>
      <trkpt lat="41.09193" lon="-8.59464">
        <ele>153.95</ele>
        <time>2019-05-27T08:30:39Z</time>
      </trkpt>
      <trkpt lat="41.09207" lon="-8.59482">
        <ele>152.51</ele>
        <time>2019-05-27T08:30:54Z</time>
      </trkpt>
      <trkpt lat="41.09219" lon="-8.59496">
        <ele>153.47</ele>
        <time>2019-05-27T08:31:07Z</time>
      </trkpt>
      <trkpt lat="41.09229" lon="-8.59503">
        <ele>152.99</ele>
        <time>2019-05-27T08:31:19Z</time>
      </trkpt>
      <trkpt lat="41.09238" lon="-8.59512">
        <ele>152.99</ele>
        <time>2019-05-27T08:31:37Z</time>
      </trkpt>
      <trkpt lat="41.09249" lon="-8.59524">
        <ele>152.99</ele>
        <time>2019-05-27T08:31:50Z</time>
      </trkpt>
      <trkpt lat="41.09262" lon="-8.59542">
        <ele>152.99</ele>
        <time>2019-05-27T08:32:07Z</time>
      </trkpt>
      <trkpt lat="41.09263" lon="-8.59544">
        <ele>152.51</ele>
        <time>2019-05-27T08:32:09Z</time>
      </trkpt>
      <trkpt lat="41.09276" lon="-8.59558">
        <ele>152.51</ele>
        <time>2019-05-27T08:32:24Z</time>
      </trkpt>
      <trkpt lat="41.09288" lon="-8.59572">
        <ele>152.51</ele>
        <time>2019-05-27T08:32:38Z</time>
      </trkpt>
      <trkpt lat="41.09299" lon="-8.59589">
        <ele>152.99</ele>
        <time>2019-05-27T08:32:53Z</time>
      </trkpt>
      <trkpt lat="41.09308" lon="-8.59599">
        <ele>152.99</ele>
        <time>2019-05-27T08:33:05Z</time>
      </trkpt>
      <trkpt lat="41.09308" lon="-8.59601">
        <ele>153.47</ele>
        <time>2019-05-27T08:33:06Z</time>
      </trkpt>
      <trkpt lat="41.09318" lon="-8.59616">
        <ele>152.99</ele>
        <time>2019-05-27T08:33:20Z</time>
      </trkpt>
      <trkpt lat="41.09324" lon="-8.59625">
        <ele>153.47</ele>
        <time>2019-05-27T08:33:35Z</time>
      </trkpt>
      <trkpt lat="41.09328" lon="-8.59626">
        <ele>153.95</ele>
        <time>2019-05-27T08:33:58Z</time>
      </trkpt>
      <trkpt lat="41.09332" lon="-8.59633">
        <ele>153.47</ele>
        <time>2019-05-27T08:34:13Z</time>
      </trkpt>
      <trkpt lat="41.09336" lon="-8.59641">
        <ele>153.47</ele>
        <time>2019-05-27T08:34:20Z</time>
      </trkpt>
      <trkpt lat="41.09346" lon="-8.59657">
        <ele>153.95</ele>
        <time>2019-05-27T08:34:34Z</time>
      </trkpt>
      <trkpt lat="41.09356" lon="-8.59672">
        <ele>153.95</ele>
        <time>2019-05-27T08:34:47Z</time>
      </trkpt>
      <trkpt lat="41.09362" lon="-8.59683">
        <ele>153.47</ele>
        <time>2019-05-27T08:34:56Z</time>
      </trkpt>
      <trkpt lat="41.09369" lon="-8.59689">
        <ele>153.47</ele>
        <time>2019-05-27T08:35:10Z</time>
      </trkpt>
      <trkpt lat="41.09376" lon="-8.59704">
        <ele>153.47</ele>
        <time>2019-05-27T08:35:24Z</time>
      </trkpt>
      <trkpt lat="41.09383" lon="-8.59723">
        <ele>153.95</ele>
        <time>2019-05-27T08:35:38Z</time>
      </trkpt>
      <trkpt lat="41.09388" lon="-8.59734">
        <ele>153.47</ele>
        <time>2019-05-27T08:35:46Z</time>
      </trkpt>
      <trkpt lat="41.09393" lon="-8.59747">
        <ele>153.95</ele>
        <time>2019-05-27T08:35:55Z</time>
      </trkpt>
      <trkpt lat="41.09396" lon="-8.59762">
        <ele>153.47</ele>
        <time>2019-05-27T08:36:04Z</time>
      </trkpt>
      <trkpt lat="41.09408" lon="-8.59777">
        <ele>152.99</ele>
        <time>2019-05-27T08:36:17Z</time>
      </trkpt>
      <trkpt lat="41.09414" lon="-8.59793">
        <ele>152.99</ele>
        <time>2019-05-27T08:36:30Z</time>
      </trkpt>
      <trkpt lat="41.0942" lon="-8.59793">
        <ele>152.99</ele>
        <time>2019-05-27T08:36:37Z</time>
      </trkpt>
      <trkpt lat="41.09425" lon="-8.59795">
        <ele>152.51</ele>
        <time>2019-05-27T08:36:43Z</time>
      </trkpt>
      <trkpt lat="41.09436" lon="-8.59804">
        <ele>152.03</ele>
        <time>2019-05-27T08:36:56Z</time>
      </trkpt>
      <trkpt lat="41.09448" lon="-8.59818">
        <ele>152.03</ele>
        <time>2019-05-27T08:37:07Z</time>
      </trkpt>
      <trkpt lat="41.09464" lon="-8.5983">
        <ele>151.54</ele>
        <time>2019-05-27T08:37:19Z</time>
      </trkpt>
      <trkpt lat="41.09472" lon="-8.59836">
        <ele>152.03</ele>
        <time>2019-05-27T08:37:26Z</time>
      </trkpt>
      <trkpt lat="41.09484" lon="-8.59849">
        <ele>151.06</ele>
        <time>2019-05-27T08:37:39Z</time>
      </trkpt>
      <trkpt lat="41.09498" lon="-8.59859">
        <ele>151.06</ele>
        <time>2019-05-27T08:37:53Z</time>
      </trkpt>
      <trkpt lat="41.09515" lon="-8.59865">
        <ele>150.58</ele>
        <time>2019-05-27T08:38:08Z</time>
      </trkpt>
      <trkpt lat="41.09532" lon="-8.5987">
        <ele>150.1</ele>
        <time>2019-05-27T08:38:22Z</time>
      </trkpt>
      <trkpt lat="41.09545" lon="-8.59873">
        <ele>149.62</ele>
        <time>2019-05-27T08:38:35Z</time>
      </trkpt>
      <trkpt lat="41.09558" lon="-8.59873">
        <ele>149.14</ele>
        <time>2019-05-27T08:38:48Z</time>
      </trkpt>
      <trkpt lat="41.09564" lon="-8.59874">
        <ele>149.14</ele>
        <time>2019-05-27T08:38:54Z</time>
      </trkpt>
      <trkpt lat="41.09571" lon="-8.5988">
        <ele>149.14</ele>
        <time>2019-05-27T08:39:00Z</time>
      </trkpt>
      <trkpt lat="41.09584" lon="-8.59883">
        <ele>149.14</ele>
        <time>2019-05-27T08:39:13Z</time>
      </trkpt>
      <trkpt lat="41.09587" lon="-8.59883">
        <ele>149.62</ele>
        <time>2019-05-27T08:39:16Z</time>
      </trkpt>
      <trkpt lat="41.09605" lon="-8.59892">
        <ele>148.66</ele>
        <time>2019-05-27T08:39:31Z</time>
      </trkpt>
      <trkpt lat="41.09623" lon="-8.59898">
        <ele>150.58</ele>
        <time>2019-05-27T08:39:45Z</time>
      </trkpt>
      <trkpt lat="41.09638" lon="-8.59901">
        <ele>150.58</ele>
        <time>2019-05-27T08:39:59Z</time>
      </trkpt>
      <trkpt lat="41.0965" lon="-8.59903">
        <ele>150.58</ele>
        <time>2019-05-27T08:40:11Z</time>
      </trkpt>
      <trkpt lat="41.09656" lon="-8.59902">
        <ele>150.58</ele>
        <time>2019-05-27T08:40:16Z</time>
      </trkpt>
      <trkpt lat="41.09661" lon="-8.59909">
        <ele>151.06</ele>
        <time>2019-05-27T08:40:21Z</time>
      </trkpt>
      <trkpt lat="41.09669" lon="-8.59914">
        <ele>150.58</ele>
        <time>2019-05-27T08:40:36Z</time>
      </trkpt>
      <trkpt lat="41.09677" lon="-8.59919">
        <ele>152.03</ele>
        <time>2019-05-27T08:40:55Z</time>
      </trkpt>
      <trkpt lat="41.09677" lon="-8.59919">
        <ele>152.03</ele>
        <time>2019-05-27T08:41:12Z</time>
      </trkpt>
      <trkpt lat="41.09695" lon="-8.59926">
        <ele>152.51</ele>
        <time>2019-05-27T08:41:30Z</time>
      </trkpt>
      <trkpt lat="41.0971" lon="-8.59931">
        <ele>153.95</ele>
        <time>2019-05-27T08:41:45Z</time>
      </trkpt>
      <trkpt lat="41.09721" lon="-8.59938">
        <ele>154.43</ele>
        <time>2019-05-27T08:41:58Z</time>
      </trkpt>
      <trkpt lat="41.09737" lon="-8.59942">
        <ele>155.39</ele>
        <time>2019-05-27T08:42:13Z</time>
      </trkpt>
      <trkpt lat="41.09745" lon="-8.59944">
        <ele>155.87</ele>
        <time>2019-05-27T08:42:19Z</time>
      </trkpt>
      <trkpt lat="41.09761" lon="-8.59947">
        <ele>157.31</ele>
        <time>2019-05-27T08:42:34Z</time>
      </trkpt>
      <trkpt lat="41.09774" lon="-8.5995">
        <ele>157.79</ele>
        <time>2019-05-27T08:42:47Z</time>
      </trkpt>
      <trkpt lat="41.0979" lon="-8.5995">
        <ele>158.27</ele>
        <time>2019-05-27T08:43:02Z</time>
      </trkpt>
      <trkpt lat="41.09795" lon="-8.59955">
        <ele>157.79</ele>
        <time>2019-05-27T08:43:07Z</time>
      </trkpt>
      <trkpt lat="41.09798" lon="-8.59956">
        <ele>157.31</ele>
        <time>2019-05-27T08:43:09Z</time>
      </trkpt>
      <trkpt lat="41.09805" lon="-8.59956">
        <ele>158.27</ele>
        <time>2019-05-27T08:43:16Z</time>
      </trkpt>
      <trkpt lat="41.09808" lon="-8.59956">
        <ele>158.75</ele>
        <time>2019-05-27T08:43:19Z</time>
      </trkpt>
      <trkpt lat="41.09818" lon="-8.59958">
        <ele>158.27</ele>
        <time>2019-05-27T08:43:28Z</time>
      </trkpt>
      <trkpt lat="41.09835" lon="-8.59972">
        <ele>158.27</ele>
        <time>2019-05-27T08:43:44Z</time>
      </trkpt>
      <trkpt lat="41.09842" lon="-8.59978">
        <ele>157.31</ele>
        <time>2019-05-27T08:44:02Z</time>
      </trkpt>
      <trkpt lat="41.09856" lon="-8.59985">
        <ele>156.83</ele>
        <time>2019-05-27T08:44:16Z</time>
      </trkpt>
      <trkpt lat="41.09873" lon="-8.59992">
        <ele>155.39</ele>
        <time>2019-05-27T08:44:30Z</time>
      </trkpt>
      <trkpt lat="41.09879" lon="-8.59992">
        <ele>155.39</ele>
        <time>2019-05-27T08:44:42Z</time>
      </trkpt>
      <trkpt lat="41.09882" lon="-8.59994">
        <ele>154.91</ele>
        <time>2019-05-27T08:44:45Z</time>
      </trkpt>
      <trkpt lat="41.09885" lon="-8.59995">
        <ele>154.91</ele>
        <time>2019-05-27T08:44:48Z</time>
      </trkpt>
      <trkpt lat="41.099" lon="-8.60001">
        <ele>153.47</ele>
        <time>2019-05-27T08:45:05Z</time>
      </trkpt>
      <trkpt lat="41.09902" lon="-8.60003">
        <ele>153.47</ele>
        <time>2019-05-27T08:45:07Z</time>
      </trkpt>
      <trkpt lat="41.09903" lon="-8.60005">
        <ele>152.99</ele>
        <time>2019-05-27T08:45:09Z</time>
      </trkpt>
      <trkpt lat="41.09905" lon="-8.60009">
        <ele>152.99</ele>
        <time>2019-05-27T08:45:12Z</time>
      </trkpt>
      <trkpt lat="41.09907" lon="-8.60012">
        <ele>152.99</ele>
        <time>2019-05-27T08:45:15Z</time>
      </trkpt>
      <trkpt lat="41.09925" lon="-8.60011">
        <ele>152.51</ele>
        <time>2019-05-27T08:45:31Z</time>
      </trkpt>
      <trkpt lat="41.09928" lon="-8.60011">
        <ele>152.03</ele>
        <time>2019-05-27T08:45:33Z</time>
      </trkpt>
      <trkpt lat="41.09947" lon="-8.60017">
        <ele>151.06</ele>
        <time>2019-05-27T08:45:50Z</time>
      </trkpt>
      <trkpt lat="41.09955" lon="-8.60021">
        <ele>150.58</ele>
        <time>2019-05-27T08:45:58Z</time>
      </trkpt>
      <trkpt lat="41.09963" lon="-8.60023">
        <ele>150.1</ele>
        <time>2019-05-27T08:46:06Z</time>
      </trkpt>
      <trkpt lat="41.09982" lon="-8.60031">
        <ele>148.66</ele>
        <time>2019-05-27T08:46:23Z</time>
      </trkpt>
      <trkpt lat="41.09985" lon="-8.60032">
        <ele>148.66</ele>
        <time>2019-05-27T08:46:25Z</time>
      </trkpt>
      <trkpt lat="41.09994" lon="-8.60034">
        <ele>148.18</ele>
        <time>2019-05-27T08:46:34Z</time>
      </trkpt>
      <trkpt lat="41.09996" lon="-8.60034">
        <ele>147.7</ele>
        <time>2019-05-27T08:46:36Z</time>
      </trkpt>
      <trkpt lat="41.10013" lon="-8.60041">
        <ele>145.3</ele>
        <time>2019-05-27T08:46:52Z</time>
      </trkpt>
      <trkpt lat="41.10016" lon="-8.60042">
        <ele>144.82</ele>
        <time>2019-05-27T08:46:55Z</time>
      </trkpt>
      <trkpt lat="41.10027" lon="-8.60047">
        <ele>143.85</ele>
        <time>2019-05-27T08:47:06Z</time>
      </trkpt>
      <trkpt lat="41.10029" lon="-8.60048">
        <ele>143.85</ele>
        <time>2019-05-27T08:47:08Z</time>
      </trkpt>
      <trkpt lat="41.10046" lon="-8.60055">
        <ele>142.41</ele>
        <time>2019-05-27T08:47:24Z</time>
      </trkpt>
      <trkpt lat="41.1006" lon="-8.6006">
        <ele>140.49</ele>
        <time>2019-05-27T08:47:38Z</time>
      </trkpt>
      <trkpt lat="41.10074" lon="-8.60067">
        <ele>139.53</ele>
        <time>2019-05-27T08:47:48Z</time>
      </trkpt>
      <trkpt lat="41.1008" lon="-8.60069">
        <ele>140.01</ele>
        <time>2019-05-27T08:47:52Z</time>
      </trkpt>
      <trkpt lat="41.10098" lon="-8.60077">
        <ele>138.09</ele>
        <time>2019-05-27T08:48:06Z</time>
      </trkpt>
      <trkpt lat="41.10114" lon="-8.60085">
        <ele>137.13</ele>
        <time>2019-05-27T08:48:20Z</time>
      </trkpt>
      <trkpt lat="41.10126" lon="-8.60096">
        <ele>136.64</ele>
        <time>2019-05-27T08:48:33Z</time>
      </trkpt>
      <trkpt lat="41.10134" lon="-8.60105">
        <ele>135.68</ele>
        <time>2019-05-27T08:48:46Z</time>
      </trkpt>
      <trkpt lat="41.10142" lon="-8.60114">
        <ele>135.2</ele>
        <time>2019-05-27T08:49:05Z</time>
      </trkpt>
      <trkpt lat="41.10153" lon="-8.60128">
        <ele>134.24</ele>
        <time>2019-05-27T08:49:18Z</time>
      </trkpt>
      <trkpt lat="41.10164" lon="-8.60147">
        <ele>134.24</ele>
        <time>2019-05-27T08:49:33Z</time>
      </trkpt>
      <trkpt lat="41.10173" lon="-8.60164">
        <ele>133.76</ele>
        <time>2019-05-27T08:49:49Z</time>
      </trkpt>
      <trkpt lat="41.10185" lon="-8.60182">
        <ele>133.28</ele>
        <time>2019-05-27T08:50:04Z</time>
      </trkpt>
      <trkpt lat="41.10188" lon="-8.60187">
        <ele>132.8</ele>
        <time>2019-05-27T08:50:08Z</time>
      </trkpt>
      <trkpt lat="41.10192" lon="-8.60193">
        <ele>132.32</ele>
        <time>2019-05-27T08:50:12Z</time>
      </trkpt>
      <trkpt lat="41.10201" lon="-8.60199">
        <ele>132.8</ele>
        <time>2019-05-27T08:50:26Z</time>
      </trkpt>
      <trkpt lat="41.10206" lon="-8.60207">
        <ele>132.32</ele>
        <time>2019-05-27T08:50:37Z</time>
      </trkpt>
      <trkpt lat="41.10215" lon="-8.60223">
        <ele>131.84</ele>
        <time>2019-05-27T08:50:50Z</time>
      </trkpt>
      <trkpt lat="41.10224" lon="-8.60239">
        <ele>131.36</ele>
        <time>2019-05-27T08:51:05Z</time>
      </trkpt>
      <trkpt lat="41.10233" lon="-8.60253">
        <ele>130.4</ele>
        <time>2019-05-27T08:51:19Z</time>
      </trkpt>
      <trkpt lat="41.10249" lon="-8.60269">
        <ele>129.92</ele>
        <time>2019-05-27T08:51:33Z</time>
      </trkpt>
      <trkpt lat="41.10252" lon="-8.60272">
        <ele>129.43</ele>
        <time>2019-05-27T08:51:36Z</time>
      </trkpt>
      <trkpt lat="41.10265" lon="-8.60279">
        <ele>129.43</ele>
        <time>2019-05-27T08:51:47Z</time>
      </trkpt>
      <trkpt lat="41.10284" lon="-8.60293">
        <ele>128.47</ele>
        <time>2019-05-27T08:52:04Z</time>
      </trkpt>
      <trkpt lat="41.10297" lon="-8.60301">
        <ele>127.51</ele>
        <time>2019-05-27T08:52:15Z</time>
      </trkpt>
      <trkpt lat="41.10319" lon="-8.60309">
        <ele>127.03</ele>
        <time>2019-05-27T08:52:31Z</time>
      </trkpt>
      <trkpt lat="41.10339" lon="-8.60311">
        <ele>126.55</ele>
        <time>2019-05-27T08:52:46Z</time>
      </trkpt>
      <trkpt lat="41.10346" lon="-8.60303">
        <ele>126.07</ele>
        <time>2019-05-27T08:52:56Z</time>
      </trkpt>
      <trkpt lat="41.10365" lon="-8.60304">
        <ele>125.11</ele>
        <time>2019-05-27T08:53:12Z</time>
      </trkpt>
      <trkpt lat="41.10377" lon="-8.603">
        <ele>125.11</ele>
        <time>2019-05-27T08:53:23Z</time>
      </trkpt>
      <trkpt lat="41.10379" lon="-8.60299">
        <ele>125.59</ele>
        <time>2019-05-27T08:53:25Z</time>
      </trkpt>
      <trkpt lat="41.10396" lon="-8.60293">
        <ele>126.07</ele>
        <time>2019-05-27T08:53:38Z</time>
      </trkpt>
      <trkpt lat="41.10411" lon="-8.60285">
        <ele>125.59</ele>
        <time>2019-05-27T08:53:50Z</time>
      </trkpt>
      <trkpt lat="41.10423" lon="-8.60279">
        <ele>125.59</ele>
        <time>2019-05-27T08:54:02Z</time>
      </trkpt>
      <trkpt lat="41.10439" lon="-8.60269">
        <ele>125.59</ele>
        <time>2019-05-27T08:54:18Z</time>
      </trkpt>
      <trkpt lat="41.10456" lon="-8.60262">
        <ele>125.11</ele>
        <time>2019-05-27T08:54:39Z</time>
      </trkpt>
      <trkpt lat="41.10472" lon="-8.60248">
        <ele>126.55</ele>
        <time>2019-05-27T08:54:52Z</time>
      </trkpt>
      <trkpt lat="41.10487" lon="-8.6024">
        <ele>127.03</ele>
        <time>2019-05-27T08:55:04Z</time>
      </trkpt>
      <trkpt lat="41.10502" lon="-8.60233">
        <ele>128.47</ele>
        <time>2019-05-27T08:55:17Z</time>
      </trkpt>
      <trkpt lat="41.10513" lon="-8.60231">
        <ele>130.4</ele>
        <time>2019-05-27T08:55:27Z</time>
      </trkpt>
      <trkpt lat="41.10534" lon="-8.60238">
        <ele>131.36</ele>
        <time>2019-05-27T08:55:41Z</time>
      </trkpt>
      <trkpt lat="41.10546" lon="-8.60238">
        <ele>132.32</ele>
        <time>2019-05-27T08:55:50Z</time>
      </trkpt>
      <trkpt lat="41.1056" lon="-8.60239">
        <ele>133.28</ele>
        <time>2019-05-27T08:56:05Z</time>
      </trkpt>
      <trkpt lat="41.10567" lon="-8.60241">
        <ele>134.24</ele>
        <time>2019-05-27T08:56:18Z</time>
      </trkpt>
      <trkpt lat="41.10579" lon="-8.60237">
        <ele>135.2</ele>
        <time>2019-05-27T08:56:31Z</time>
      </trkpt>
      <trkpt lat="41.10593" lon="-8.60236">
        <ele>135.2</ele>
        <time>2019-05-27T08:56:42Z</time>
      </trkpt>
      <trkpt lat="41.10602" lon="-8.60236">
        <ele>136.16</ele>
        <time>2019-05-27T08:56:50Z</time>
      </trkpt>
      <trkpt lat="41.10614" lon="-8.60231">
        <ele>137.13</ele>
        <time>2019-05-27T08:57:03Z</time>
      </trkpt>
      <trkpt lat="41.10615" lon="-8.60232">
        <ele>137.13</ele>
        <time>2019-05-27T08:57:26Z</time>
      </trkpt>
      <trkpt lat="41.10619" lon="-8.60235">
        <ele>136.16</ele>
        <time>2019-05-27T08:57:41Z</time>
      </trkpt>
      <trkpt lat="41.10632" lon="-8.60244">
        <ele>137.13</ele>
        <time>2019-05-27T08:57:54Z</time>
      </trkpt>
      <trkpt lat="41.10641" lon="-8.60252">
        <ele>137.13</ele>
        <time>2019-05-27T08:58:04Z</time>
      </trkpt>
      <trkpt lat="41.10642" lon="-8.60253">
        <ele>137.61</ele>
        <time>2019-05-27T08:58:05Z</time>
      </trkpt>
      <trkpt lat="41.10646" lon="-8.60256">
        <ele>137.13</ele>
        <time>2019-05-27T08:58:09Z</time>
      </trkpt>
      <trkpt lat="41.10648" lon="-8.60259">
        <ele>137.61</ele>
        <time>2019-05-27T08:58:12Z</time>
      </trkpt>
      <trkpt lat="41.10649" lon="-8.6026">
        <ele>137.61</ele>
        <time>2019-05-27T08:58:13Z</time>
      </trkpt>
      <trkpt lat="41.10656" lon="-8.60261">
        <ele>137.61</ele>
        <time>2019-05-27T08:58:23Z</time>
      </trkpt>
      <trkpt lat="41.10657" lon="-8.60265">
        <ele>138.09</ele>
        <time>2019-05-27T08:58:29Z</time>
      </trkpt>
      <trkpt lat="41.10659" lon="-8.60272">
        <ele>138.09</ele>
        <time>2019-05-27T08:58:43Z</time>
      </trkpt>
      <trkpt lat="41.10662" lon="-8.60274">
        <ele>137.13</ele>
        <time>2019-05-27T08:59:07Z</time>
      </trkpt>
      <trkpt lat="41.10661" lon="-8.60276">
        <ele>137.13</ele>
        <time>2019-05-27T08:59:25Z</time>
      </trkpt>
      <trkpt lat="41.10661" lon="-8.6028">
        <ele>136.64</ele>
        <time>2019-05-27T09:00:01Z</time>
      </trkpt>
      <trkpt lat="41.10659" lon="-8.6028">
        <ele>137.61</ele>
        <time>2019-05-27T09:00:34Z</time>
      </trkpt>
      <trkpt lat="41.10661" lon="-8.60279">
        <ele>138.09</ele>
        <time>2019-05-27T09:01:11Z</time>
      </trkpt>
      <trkpt lat="41.10661" lon="-8.6028">
        <ele>138.09</ele>
        <time>2019-05-27T09:01:42Z</time>
      </trkpt>
      <trkpt lat="41.1066" lon="-8.60279">
        <ele>138.57</ele>
        <time>2019-05-27T09:02:16Z</time>
      </trkpt>
      <trkpt lat="41.10659" lon="-8.60275">
        <ele>138.57</ele>
        <time>2019-05-27T09:02:53Z</time>
      </trkpt>
      <trkpt lat="41.1066" lon="-8.60276">
        <ele>139.05</ele>
        <time>2019-05-27T09:03:32Z</time>
      </trkpt>
      <trkpt lat="41.10661" lon="-8.60275">
        <ele>139.53</ele>
        <time>2019-05-27T09:04:20Z</time>
      </trkpt>
      <trkpt lat="41.10661" lon="-8.60278">
        <ele>139.53</ele>
        <time>2019-05-27T09:05:00Z</time>
      </trkpt>
      <trkpt lat="41.1066" lon="-8.60275">
        <ele>139.53</ele>
        <time>2019-05-27T09:05:26Z</time>
      </trkpt>
      <trkpt lat="41.10661" lon="-8.60273">
        <ele>139.53</ele>
        <time>2019-05-27T09:06:07Z</time>
      </trkpt>
      <trkpt lat="41.1066" lon="-8.60272">
        <ele>139.53</ele>
        <time>2019-05-27T09:06:44Z</time>
      </trkpt>
      <trkpt lat="41.1066" lon="-8.60275">
        <ele>139.53</ele>
        <time>2019-05-27T09:07:22Z</time>
      </trkpt>
      <trkpt lat="41.10658" lon="-8.60276">
        <ele>140.01</ele>
        <time>2019-05-27T09:08:11Z</time>
      </trkpt>
      <trkpt lat="41.10657" lon="-8.60277">
        <ele>140.01</ele>
        <time>2019-05-27T09:08:50Z</time>
      </trkpt>
      <trkpt lat="41.10656" lon="-8.60283">
        <ele>139.53</ele>
        <time>2019-05-27T09:09:28Z</time>
      </trkpt>
      <trkpt lat="41.10659" lon="-8.60279">
        <ele>140.01</ele>
        <time>2019-05-27T09:10:01Z</time>
      </trkpt>
      <trkpt lat="41.10657" lon="-8.60276">
        <ele>140.49</ele>
        <time>2019-05-27T09:10:36Z</time>
      </trkpt>
      <trkpt lat="41.10657" lon="-8.60274">
        <ele>140.49</ele>
        <time>2019-05-27T09:11:06Z</time>
      </trkpt>
      <trkpt lat="41.10659" lon="-8.60274">
        <ele>140.49</ele>
        <time>2019-05-27T09:11:36Z</time>
      </trkpt>
      <trkpt lat="41.10658" lon="-8.60272">
        <ele>140.97</ele>
        <time>2019-05-27T09:12:09Z</time>
      </trkpt>
      <trkpt lat="41.10663" lon="-8.60273">
        <ele>141.45</ele>
        <time>2019-05-27T09:12:45Z</time>
      </trkpt>
      <trkpt lat="41.10661" lon="-8.60279">
        <ele>141.93</ele>
        <time>2019-05-27T09:13:20Z</time>
      </trkpt>
      <trkpt lat="41.1066" lon="-8.6028">
        <ele>142.41</ele>
        <time>2019-05-27T09:13:59Z</time>
      </trkpt>
      <trkpt lat="41.1066" lon="-8.60276">
        <ele>142.89</ele>
        <time>2019-05-27T09:14:42Z</time>
      </trkpt>
      <trkpt lat="41.1066" lon="-8.60275">
        <ele>142.89</ele>
        <time>2019-05-27T09:15:19Z</time>
      </trkpt>
      <trkpt lat="41.10661" lon="-8.60276">
        <ele>143.37</ele>
        <time>2019-05-27T09:16:09Z</time>
      </trkpt>
      <trkpt lat="41.1066" lon="-8.60277">
        <ele>144.34</ele>
        <time>2019-05-27T09:16:44Z</time>
      </trkpt>
      <trkpt lat="41.10659" lon="-8.60277">
        <ele>144.82</ele>
        <time>2019-05-27T09:17:06Z</time>
      </trkpt>
      <trkpt lat="41.1066" lon="-8.60276">
        <ele>144.82</ele>
        <time>2019-05-27T09:17:28Z</time>
      </trkpt>
      <trkpt lat="41.10665" lon="-8.60268">
        <ele>145.3</ele>
        <time>2019-05-27T09:17:47Z</time>
      </trkpt>
      <trkpt lat="41.10669" lon="-8.60272">
        <ele>144.82</ele>
        <time>2019-05-27T09:17:57Z</time>
      </trkpt>
      <trkpt lat="41.10675" lon="-8.60275">
        <ele>145.3</ele>
        <time>2019-05-27T09:18:04Z</time>
      </trkpt>
      <trkpt lat="41.1068" lon="-8.60277">
        <ele>145.3</ele>
        <time>2019-05-27T09:18:09Z</time>
      </trkpt>
      <trkpt lat="41.10692" lon="-8.60279">
        <ele>145.78</ele>
        <time>2019-05-27T09:18:21Z</time>
      </trkpt>
      <trkpt lat="41.10709" lon="-8.60278">
        <ele>146.74</ele>
        <time>2019-05-27T09:18:37Z</time>
      </trkpt>
      <trkpt lat="41.10725" lon="-8.60273">
        <ele>147.22</ele>
        <time>2019-05-27T09:18:52Z</time>
      </trkpt>
      <trkpt lat="41.10738" lon="-8.60269">
        <ele>147.7</ele>
        <time>2019-05-27T09:19:05Z</time>
      </trkpt>
      <trkpt lat="41.10753" lon="-8.60268">
        <ele>148.18</ele>
        <time>2019-05-27T09:19:17Z</time>
      </trkpt>
      <trkpt lat="41.10765" lon="-8.60264">
        <ele>148.66</ele>
        <time>2019-05-27T09:19:29Z</time>
      </trkpt>
      <trkpt lat="41.10778" lon="-8.6026">
        <ele>149.14</ele>
        <time>2019-05-27T09:19:40Z</time>
      </trkpt>
      <trkpt lat="41.10779" lon="-8.6026">
        <ele>148.66</ele>
        <time>2019-05-27T09:19:41Z</time>
      </trkpt>
      <trkpt lat="41.10786" lon="-8.60261">
        <ele>149.62</ele>
        <time>2019-05-27T09:19:49Z</time>
      </trkpt>
      <trkpt lat="41.10796" lon="-8.60262">
        <ele>150.1</ele>
        <time>2019-05-27T09:19:59Z</time>
      </trkpt>
      <trkpt lat="41.10797" lon="-8.60261">
        <ele>150.1</ele>
        <time>2019-05-27T09:20:00Z</time>
      </trkpt>
      <trkpt lat="41.1081" lon="-8.60259">
        <ele>151.06</ele>
        <time>2019-05-27T09:20:11Z</time>
      </trkpt>
      <trkpt lat="41.10814" lon="-8.60259">
        <ele>151.06</ele>
        <time>2019-05-27T09:20:13Z</time>
      </trkpt>
      <trkpt lat="41.10823" lon="-8.60259">
        <ele>150.58</ele>
        <time>2019-05-27T09:20:23Z</time>
      </trkpt>
      <trkpt lat="41.10828" lon="-8.6026">
        <ele>151.06</ele>
        <time>2019-05-27T09:20:27Z</time>
      </trkpt>
      <trkpt lat="41.1083" lon="-8.6026">
        <ele>152.03</ele>
        <time>2019-05-27T09:20:28Z</time>
      </trkpt>
      <trkpt lat="41.10834" lon="-8.60265">
        <ele>152.03</ele>
        <time>2019-05-27T09:20:35Z</time>
      </trkpt>
      <trkpt lat="41.10845" lon="-8.60272">
        <ele>152.99</ele>
        <time>2019-05-27T09:20:45Z</time>
      </trkpt>
      <trkpt lat="41.10852" lon="-8.60278">
        <ele>152.51</ele>
        <time>2019-05-27T09:20:56Z</time>
      </trkpt>
      <trkpt lat="41.10862" lon="-8.6029">
        <ele>153.47</ele>
        <time>2019-05-27T09:21:11Z</time>
      </trkpt>
      <trkpt lat="41.10876" lon="-8.60305">
        <ele>153.47</ele>
        <time>2019-05-27T09:21:26Z</time>
      </trkpt>
      <trkpt lat="41.1089" lon="-8.60315">
        <ele>153.47</ele>
        <time>2019-05-27T09:21:39Z</time>
      </trkpt>
      <trkpt lat="41.10903" lon="-8.60323">
        <ele>153.95</ele>
        <time>2019-05-27T09:21:53Z</time>
      </trkpt>
      <trkpt lat="41.10904" lon="-8.60323">
        <ele>153.95</ele>
        <time>2019-05-27T09:21:54Z</time>
      </trkpt>
      <trkpt lat="41.10914" lon="-8.60323">
        <ele>152.99</ele>
        <time>2019-05-27T09:22:05Z</time>
      </trkpt>
      <trkpt lat="41.10918" lon="-8.60325">
        <ele>153.47</ele>
        <time>2019-05-27T09:22:07Z</time>
      </trkpt>
      <trkpt lat="41.10936" lon="-8.60328">
        <ele>153.47</ele>
        <time>2019-05-27T09:22:20Z</time>
      </trkpt>
      <trkpt lat="41.10956" lon="-8.60326">
        <ele>152.03</ele>
        <time>2019-05-27T09:22:35Z</time>
      </trkpt>
      <trkpt lat="41.10969" lon="-8.60331">
        <ele>152.03</ele>
        <time>2019-05-27T09:22:49Z</time>
      </trkpt>
      <trkpt lat="41.10971" lon="-8.60331">
        <ele>152.03</ele>
        <time>2019-05-27T09:22:50Z</time>
      </trkpt>
      <trkpt lat="41.10973" lon="-8.60332">
        <ele>152.03</ele>
        <time>2019-05-27T09:22:52Z</time>
      </trkpt>
      <trkpt lat="41.10978" lon="-8.60333">
        <ele>152.03</ele>
        <time>2019-05-27T09:22:55Z</time>
      </trkpt>
      <trkpt lat="41.10984" lon="-8.60335">
        <ele>151.54</ele>
        <time>2019-05-27T09:23:00Z</time>
      </trkpt>
      <trkpt lat="41.10986" lon="-8.60335">
        <ele>151.54</ele>
        <time>2019-05-27T09:23:01Z</time>
      </trkpt>
      <trkpt lat="41.11" lon="-8.60338">
        <ele>151.54</ele>
        <time>2019-05-27T09:23:15Z</time>
      </trkpt>
      <trkpt lat="41.1102" lon="-8.60346">
        <ele>151.54</ele>
        <time>2019-05-27T09:23:32Z</time>
      </trkpt>
      <trkpt lat="41.1103" lon="-8.60355">
        <ele>151.54</ele>
        <time>2019-05-27T09:23:43Z</time>
      </trkpt>
      <trkpt lat="41.1104" lon="-8.60368">
        <ele>152.51</ele>
        <time>2019-05-27T09:23:54Z</time>
      </trkpt>
      <trkpt lat="41.11048" lon="-8.6038">
        <ele>153.47</ele>
        <time>2019-05-27T09:24:07Z</time>
      </trkpt>
      <trkpt lat="41.1106" lon="-8.60393">
        <ele>154.91</ele>
        <time>2019-05-27T09:24:21Z</time>
      </trkpt>
      <trkpt lat="41.11067" lon="-8.60392">
        <ele>154.91</ele>
        <time>2019-05-27T09:24:43Z</time>
      </trkpt>
      <trkpt lat="41.11072" lon="-8.60397">
        <ele>154.91</ele>
        <time>2019-05-27T09:24:55Z</time>
      </trkpt>
      <trkpt lat="41.11082" lon="-8.60405">
        <ele>155.87</ele>
        <time>2019-05-27T09:25:08Z</time>
      </trkpt>
      <trkpt lat="41.11089" lon="-8.60408">
        <ele>155.87</ele>
        <time>2019-05-27T09:25:16Z</time>
      </trkpt>
      <trkpt lat="41.11103" lon="-8.60417">
        <ele>155.87</ele>
        <time>2019-05-27T09:25:27Z</time>
      </trkpt>
      <trkpt lat="41.11114" lon="-8.60422">
        <ele>156.35</ele>
        <time>2019-05-27T09:25:39Z</time>
      </trkpt>
      <trkpt lat="41.11126" lon="-8.60425">
        <ele>156.35</ele>
        <time>2019-05-27T09:25:51Z</time>
      </trkpt>
      <trkpt lat="41.11134" lon="-8.60427">
        <ele>156.83</ele>
        <time>2019-05-27T09:25:56Z</time>
      </trkpt>
      <trkpt lat="41.11137" lon="-8.60428">
        <ele>157.31</ele>
        <time>2019-05-27T09:25:58Z</time>
      </trkpt>
      <trkpt lat="41.11152" lon="-8.60435">
        <ele>157.31</ele>
        <time>2019-05-27T09:26:11Z</time>
      </trkpt>
      <trkpt lat="41.11165" lon="-8.60451">
        <ele>157.31</ele>
        <time>2019-05-27T09:26:24Z</time>
      </trkpt>
      <trkpt lat="41.11166" lon="-8.60451">
        <ele>157.31</ele>
        <time>2019-05-27T09:26:25Z</time>
      </trkpt>
      <trkpt lat="41.11172" lon="-8.60455">
        <ele>157.79</ele>
        <time>2019-05-27T09:26:30Z</time>
      </trkpt>
      <trkpt lat="41.11187" lon="-8.60461">
        <ele>158.27</ele>
        <time>2019-05-27T09:26:42Z</time>
      </trkpt>
      <trkpt lat="41.11195" lon="-8.60462">
        <ele>158.27</ele>
        <time>2019-05-27T09:26:49Z</time>
      </trkpt>
      <trkpt lat="41.11196" lon="-8.60463">
        <ele>158.27</ele>
        <time>2019-05-27T09:26:50Z</time>
      </trkpt>
      <trkpt lat="41.11197" lon="-8.60463">
        <ele>158.27</ele>
        <time>2019-05-27T09:26:51Z</time>
      </trkpt>
      <trkpt lat="41.11199" lon="-8.60463">
        <ele>158.75</ele>
        <time>2019-05-27T09:26:52Z</time>
      </trkpt>
      <trkpt lat="41.112" lon="-8.60464">
        <ele>158.75</ele>
        <time>2019-05-27T09:26:53Z</time>
      </trkpt>
      <trkpt lat="41.11211" lon="-8.6047">
        <ele>159.72</ele>
        <time>2019-05-27T09:27:04Z</time>
      </trkpt>
      <trkpt lat="41.11215" lon="-8.60471">
        <ele>158.75</ele>
        <time>2019-05-27T09:27:08Z</time>
      </trkpt>
      <trkpt lat="41.11221" lon="-8.60476">
        <ele>160.2</ele>
        <time>2019-05-27T09:27:19Z</time>
      </trkpt>
      <trkpt lat="41.11235" lon="-8.60482">
        <ele>159.72</ele>
        <time>2019-05-27T09:27:33Z</time>
      </trkpt>
      <trkpt lat="41.11237" lon="-8.60483">
        <ele>160.2</ele>
        <time>2019-05-27T09:27:36Z</time>
      </trkpt>
      <trkpt lat="41.11247" lon="-8.60487">
        <ele>160.68</ele>
        <time>2019-05-27T09:27:45Z</time>
      </trkpt>
      <trkpt lat="41.11263" lon="-8.60491">
        <ele>161.16</ele>
        <time>2019-05-27T09:27:56Z</time>
      </trkpt>
      <trkpt lat="41.11271" lon="-8.60496">
        <ele>161.64</ele>
        <time>2019-05-27T09:28:14Z</time>
      </trkpt>
      <trkpt lat="41.11282" lon="-8.60503">
        <ele>161.64</ele>
        <time>2019-05-27T09:28:27Z</time>
      </trkpt>
      <trkpt lat="41.11288" lon="-8.60506">
        <ele>161.64</ele>
        <time>2019-05-27T09:28:36Z</time>
      </trkpt>
      <trkpt lat="41.11296" lon="-8.60513">
        <ele>162.12</ele>
        <time>2019-05-27T09:28:46Z</time>
      </trkpt>
      <trkpt lat="41.11311" lon="-8.60519">
        <ele>162.12</ele>
        <time>2019-05-27T09:28:59Z</time>
      </trkpt>
      <trkpt lat="41.11322" lon="-8.60521">
        <ele>162.6</ele>
        <time>2019-05-27T09:29:12Z</time>
      </trkpt>
      <trkpt lat="41.11336" lon="-8.60526">
        <ele>162.12</ele>
        <time>2019-05-27T09:29:24Z</time>
      </trkpt>
      <trkpt lat="41.11351" lon="-8.60536">
        <ele>163.56</ele>
        <time>2019-05-27T09:29:35Z</time>
      </trkpt>
      <trkpt lat="41.11355" lon="-8.60541">
        <ele>163.08</ele>
        <time>2019-05-27T09:29:40Z</time>
      </trkpt>
      <trkpt lat="41.11362" lon="-8.60546">
        <ele>163.56</ele>
        <time>2019-05-27T09:29:51Z</time>
      </trkpt>
      <trkpt lat="41.1137" lon="-8.60554">
        <ele>163.56</ele>
        <time>2019-05-27T09:30:03Z</time>
      </trkpt>
      <trkpt lat="41.11389" lon="-8.6055">
        <ele>163.56</ele>
        <time>2019-05-27T09:30:17Z</time>
      </trkpt>
      <trkpt lat="41.11397" lon="-8.60558">
        <ele>163.56</ele>
        <time>2019-05-27T09:30:24Z</time>
      </trkpt>
      <trkpt lat="41.11403" lon="-8.60559">
        <ele>163.08</ele>
        <time>2019-05-27T09:30:34Z</time>
      </trkpt>
      <trkpt lat="41.11416" lon="-8.60563">
        <ele>163.56</ele>
        <time>2019-05-27T09:30:45Z</time>
      </trkpt>
      <trkpt lat="41.11428" lon="-8.60566">
        <ele>164.04</ele>
        <time>2019-05-27T09:30:59Z</time>
      </trkpt>
      <trkpt lat="41.11438" lon="-8.60576">
        <ele>164.04</ele>
        <time>2019-05-27T09:31:10Z</time>
      </trkpt>
      <trkpt lat="41.1144" lon="-8.60579">
        <ele>164.04</ele>
        <time>2019-05-27T09:31:11Z</time>
      </trkpt>
      <trkpt lat="41.11442" lon="-8.60581">
        <ele>163.56</ele>
        <time>2019-05-27T09:31:12Z</time>
      </trkpt>
      <trkpt lat="41.11447" lon="-8.60582">
        <ele>164.04</ele>
        <time>2019-05-27T09:31:14Z</time>
      </trkpt>
      <trkpt lat="41.11448" lon="-8.60581">
        <ele>164.52</ele>
        <time>2019-05-27T09:31:15Z</time>
      </trkpt>
      <trkpt lat="41.11453" lon="-8.60583">
        <ele>164.52</ele>
        <time>2019-05-27T09:31:19Z</time>
      </trkpt>
      <trkpt lat="41.11464" lon="-8.60592">
        <ele>163.56</ele>
        <time>2019-05-27T09:31:30Z</time>
      </trkpt>
      <trkpt lat="41.11473" lon="-8.606">
        <ele>164.52</ele>
        <time>2019-05-27T09:31:42Z</time>
      </trkpt>
      <trkpt lat="41.11476" lon="-8.60601">
        <ele>164.52</ele>
        <time>2019-05-27T09:31:46Z</time>
      </trkpt>
      <trkpt lat="41.11478" lon="-8.60602">
        <ele>164.52</ele>
        <time>2019-05-27T09:31:47Z</time>
      </trkpt>
      <trkpt lat="41.11486" lon="-8.60607">
        <ele>165</ele>
        <time>2019-05-27T09:31:56Z</time>
      </trkpt>
      <trkpt lat="41.11501" lon="-8.60625">
        <ele>164.04</ele>
        <time>2019-05-27T09:32:06Z</time>
      </trkpt>
      <trkpt lat="41.11512" lon="-8.60631">
        <ele>164.52</ele>
        <time>2019-05-27T09:32:15Z</time>
      </trkpt>
      <trkpt lat="41.11519" lon="-8.6063">
        <ele>164.52</ele>
        <time>2019-05-27T09:32:20Z</time>
      </trkpt>
      <trkpt lat="41.11533" lon="-8.6064">
        <ele>164.04</ele>
        <time>2019-05-27T09:32:33Z</time>
      </trkpt>
      <trkpt lat="41.1154" lon="-8.60641">
        <ele>164.52</ele>
        <time>2019-05-27T09:32:40Z</time>
      </trkpt>
      <trkpt lat="41.11543" lon="-8.6064">
        <ele>164.52</ele>
        <time>2019-05-27T09:32:43Z</time>
      </trkpt>
      <trkpt lat="41.11554" lon="-8.60632">
        <ele>164.52</ele>
        <time>2019-05-27T09:32:54Z</time>
      </trkpt>
      <trkpt lat="41.11566" lon="-8.60634">
        <ele>164.52</ele>
        <time>2019-05-27T09:33:08Z</time>
      </trkpt>
      <trkpt lat="41.1157" lon="-8.60632">
        <ele>165</ele>
        <time>2019-05-27T09:33:22Z</time>
      </trkpt>
      <trkpt lat="41.11572" lon="-8.60629">
        <ele>165</ele>
        <time>2019-05-27T09:33:35Z</time>
      </trkpt>
      <trkpt lat="41.11574" lon="-8.60633">
        <ele>165</ele>
        <time>2019-05-27T09:33:51Z</time>
      </trkpt>
      <trkpt lat="41.11575" lon="-8.60633">
        <ele>164.04</ele>
        <time>2019-05-27T09:33:53Z</time>
      </trkpt>
      <trkpt lat="41.11582" lon="-8.60637">
        <ele>163.08</ele>
        <time>2019-05-27T09:34:05Z</time>
      </trkpt>
      <trkpt lat="41.1159" lon="-8.60636">
        <ele>163.08</ele>
        <time>2019-05-27T09:34:18Z</time>
      </trkpt>
      <trkpt lat="41.11592" lon="-8.60635">
        <ele>163.08</ele>
        <time>2019-05-27T09:34:20Z</time>
      </trkpt>
      <trkpt lat="41.11599" lon="-8.60637">
        <ele>162.12</ele>
        <time>2019-05-27T09:34:32Z</time>
      </trkpt>
      <trkpt lat="41.11612" lon="-8.60637">
        <ele>162.12</ele>
        <time>2019-05-27T09:34:43Z</time>
      </trkpt>
      <trkpt lat="41.11617" lon="-8.60637">
        <ele>161.16</ele>
        <time>2019-05-27T09:34:49Z</time>
      </trkpt>
      <trkpt lat="41.11636" lon="-8.60636">
        <ele>160.2</ele>
        <time>2019-05-27T09:35:03Z</time>
      </trkpt>
      <trkpt lat="41.11655" lon="-8.6063">
        <ele>159.72</ele>
        <time>2019-05-27T09:35:15Z</time>
      </trkpt>
      <trkpt lat="41.11666" lon="-8.60629">
        <ele>158.75</ele>
        <time>2019-05-27T09:35:24Z</time>
      </trkpt>
      <trkpt lat="41.11674" lon="-8.60625">
        <ele>158.27</ele>
        <time>2019-05-27T09:35:31Z</time>
      </trkpt>
      <trkpt lat="41.11677" lon="-8.60624">
        <ele>158.27</ele>
        <time>2019-05-27T09:35:33Z</time>
      </trkpt>
      <trkpt lat="41.11678" lon="-8.60625">
        <ele>158.27</ele>
        <time>2019-05-27T09:35:34Z</time>
      </trkpt>
      <trkpt lat="41.11679" lon="-8.60625">
        <ele>157.79</ele>
        <time>2019-05-27T09:35:35Z</time>
      </trkpt>
      <trkpt lat="41.11681" lon="-8.60625">
        <ele>157.79</ele>
        <time>2019-05-27T09:35:36Z</time>
      </trkpt>
      <trkpt lat="41.11689" lon="-8.60626">
        <ele>157.31</ele>
        <time>2019-05-27T09:35:43Z</time>
      </trkpt>
      <trkpt lat="41.11691" lon="-8.60626">
        <ele>157.79</ele>
        <time>2019-05-27T09:35:44Z</time>
      </trkpt>
      <trkpt lat="41.11695" lon="-8.60624">
        <ele>157.79</ele>
        <time>2019-05-27T09:35:55Z</time>
      </trkpt>
      <trkpt lat="41.11701" lon="-8.60624">
        <ele>157.79</ele>
        <time>2019-05-27T09:36:08Z</time>
      </trkpt>
      <trkpt lat="41.11704" lon="-8.60623">
        <ele>157.31</ele>
        <time>2019-05-27T09:36:11Z</time>
      </trkpt>
      <trkpt lat="41.11717" lon="-8.60619">
        <ele>156.35</ele>
        <time>2019-05-27T09:36:23Z</time>
      </trkpt>
      <trkpt lat="41.11723" lon="-8.6062">
        <ele>156.35</ele>
        <time>2019-05-27T09:36:31Z</time>
      </trkpt>
      <trkpt lat="41.11727" lon="-8.60621">
        <ele>155.87</ele>
        <time>2019-05-27T09:36:34Z</time>
      </trkpt>
      <trkpt lat="41.11729" lon="-8.60621">
        <ele>155.87</ele>
        <time>2019-05-27T09:36:36Z</time>
      </trkpt>
      <trkpt lat="41.1173" lon="-8.60621">
        <ele>155.87</ele>
        <time>2019-05-27T09:36:37Z</time>
      </trkpt>
      <trkpt lat="41.11738" lon="-8.60621">
        <ele>154.91</ele>
        <time>2019-05-27T09:36:47Z</time>
      </trkpt>
      <trkpt lat="41.1174" lon="-8.60621">
        <ele>154.91</ele>
        <time>2019-05-27T09:36:48Z</time>
      </trkpt>
      <trkpt lat="41.11756" lon="-8.60628">
        <ele>153.95</ele>
        <time>2019-05-27T09:37:02Z</time>
      </trkpt>
      <trkpt lat="41.11769" lon="-8.60628">
        <ele>152.99</ele>
        <time>2019-05-27T09:37:15Z</time>
      </trkpt>
      <trkpt lat="41.11774" lon="-8.60628">
        <ele>152.99</ele>
        <time>2019-05-27T09:37:19Z</time>
      </trkpt>
      <trkpt lat="41.11775" lon="-8.60629">
        <ele>152.99</ele>
        <time>2019-05-27T09:37:20Z</time>
      </trkpt>
      <trkpt lat="41.11783" lon="-8.60628">
        <ele>152.51</ele>
        <time>2019-05-27T09:37:27Z</time>
      </trkpt>
      <trkpt lat="41.11788" lon="-8.60627">
        <ele>152.03</ele>
        <time>2019-05-27T09:37:30Z</time>
      </trkpt>
      <trkpt lat="41.11793" lon="-8.60627">
        <ele>152.03</ele>
        <time>2019-05-27T09:37:33Z</time>
      </trkpt>
      <trkpt lat="41.11806" lon="-8.60625">
        <ele>151.06</ele>
        <time>2019-05-27T09:37:44Z</time>
      </trkpt>
      <trkpt lat="41.1181" lon="-8.60624">
        <ele>151.06</ele>
        <time>2019-05-27T09:37:47Z</time>
      </trkpt>
      <trkpt lat="41.11828" lon="-8.60624">
        <ele>150.58</ele>
        <time>2019-05-27T09:38:01Z</time>
      </trkpt>
      <trkpt lat="41.11839" lon="-8.60626">
        <ele>149.62</ele>
        <time>2019-05-27T09:38:12Z</time>
      </trkpt>
      <trkpt lat="41.11853" lon="-8.60622">
        <ele>148.66</ele>
        <time>2019-05-27T09:38:24Z</time>
      </trkpt>
      <trkpt lat="41.11868" lon="-8.60619">
        <ele>148.18</ele>
        <time>2019-05-27T09:38:35Z</time>
      </trkpt>
      <trkpt lat="41.11885" lon="-8.60615">
        <ele>147.22</ele>
        <time>2019-05-27T09:38:48Z</time>
      </trkpt>
      <trkpt lat="41.11887" lon="-8.60615">
        <ele>147.7</ele>
        <time>2019-05-27T09:38:49Z</time>
      </trkpt>
      <trkpt lat="41.11901" lon="-8.60606">
        <ele>147.22</ele>
        <time>2019-05-27T09:39:00Z</time>
      </trkpt>
      <trkpt lat="41.11902" lon="-8.60605">
        <ele>147.22</ele>
        <time>2019-05-27T09:39:01Z</time>
      </trkpt>
      <trkpt lat="41.11909" lon="-8.60594">
        <ele>145.78</ele>
        <time>2019-05-27T09:39:14Z</time>
      </trkpt>
      <trkpt lat="41.11912" lon="-8.60595">
        <ele>145.3</ele>
        <time>2019-05-27T09:39:29Z</time>
      </trkpt>
      <trkpt lat="41.11913" lon="-8.60594">
        <ele>145.78</ele>
        <time>2019-05-27T09:39:30Z</time>
      </trkpt>
      <trkpt lat="41.11915" lon="-8.60594">
        <ele>145.78</ele>
        <time>2019-05-27T09:39:31Z</time>
      </trkpt>
      <trkpt lat="41.11916" lon="-8.60595">
        <ele>145.3</ele>
        <time>2019-05-27T09:39:32Z</time>
      </trkpt>
      <trkpt lat="41.11917" lon="-8.60595">
        <ele>145.3</ele>
        <time>2019-05-27T09:39:33Z</time>
      </trkpt>
      <trkpt lat="41.11931" lon="-8.60601">
        <ele>144.82</ele>
        <time>2019-05-27T09:39:46Z</time>
      </trkpt>
      <trkpt lat="41.11952" lon="-8.606">
        <ele>143.85</ele>
        <time>2019-05-27T09:40:03Z</time>
      </trkpt>
      <trkpt lat="41.11967" lon="-8.60599">
        <ele>143.37</ele>
        <time>2019-05-27T09:40:16Z</time>
      </trkpt>
      <trkpt lat="41.11986" lon="-8.60597">
        <ele>142.41</ele>
        <time>2019-05-27T09:40:31Z</time>
      </trkpt>
      <trkpt lat="41.11988" lon="-8.60597">
        <ele>142.41</ele>
        <time>2019-05-27T09:40:33Z</time>
      </trkpt>
      <trkpt lat="41.1199" lon="-8.60597">
        <ele>142.41</ele>
        <time>2019-05-27T09:40:35Z</time>
      </trkpt>
      <trkpt lat="41.11995" lon="-8.60595">
        <ele>141.93</ele>
        <time>2019-05-27T09:40:39Z</time>
      </trkpt>
      <trkpt lat="41.12001" lon="-8.60587">
        <ele>140.97</ele>
        <time>2019-05-27T09:40:46Z</time>
      </trkpt>
      <trkpt lat="41.12004" lon="-8.60581">
        <ele>140.97</ele>
        <time>2019-05-27T09:40:52Z</time>
      </trkpt>
      <trkpt lat="41.12017" lon="-8.60591">
        <ele>141.45</ele>
        <time>2019-05-27T09:41:04Z</time>
      </trkpt>
      <trkpt lat="41.12027" lon="-8.60601">
        <ele>140.49</ele>
        <time>2019-05-27T09:41:16Z</time>
      </trkpt>
      <trkpt lat="41.12031" lon="-8.60605">
        <ele>140.01</ele>
        <time>2019-05-27T09:41:26Z</time>
      </trkpt>
      <trkpt lat="41.12034" lon="-8.60605">
        <ele>139.05</ele>
        <time>2019-05-27T09:41:30Z</time>
      </trkpt>
      <trkpt lat="41.12039" lon="-8.60602">
        <ele>139.05</ele>
        <time>2019-05-27T09:41:40Z</time>
      </trkpt>
      <trkpt lat="41.12057" lon="-8.60601">
        <ele>138.09</ele>
        <time>2019-05-27T09:41:54Z</time>
      </trkpt>
      <trkpt lat="41.12059" lon="-8.60601">
        <ele>137.13</ele>
        <time>2019-05-27T09:41:55Z</time>
      </trkpt>
      <trkpt lat="41.12071" lon="-8.60599">
        <ele>137.13</ele>
        <time>2019-05-27T09:42:04Z</time>
      </trkpt>
      <trkpt lat="41.1209" lon="-8.60594">
        <ele>136.16</ele>
        <time>2019-05-27T09:42:19Z</time>
      </trkpt>
      <trkpt lat="41.12105" lon="-8.60599">
        <ele>136.16</ele>
        <time>2019-05-27T09:42:33Z</time>
      </trkpt>
      <trkpt lat="41.12123" lon="-8.60602">
        <ele>134.72</ele>
        <time>2019-05-27T09:42:47Z</time>
      </trkpt>
      <trkpt lat="41.12129" lon="-8.60601">
        <ele>134.24</ele>
        <time>2019-05-27T09:42:51Z</time>
      </trkpt>
      <trkpt lat="41.12147" lon="-8.60599">
        <ele>133.76</ele>
        <time>2019-05-27T09:43:04Z</time>
      </trkpt>
      <trkpt lat="41.12151" lon="-8.60598">
        <ele>133.28</ele>
        <time>2019-05-27T09:43:09Z</time>
      </trkpt>
      <trkpt lat="41.12167" lon="-8.606">
        <ele>132.8</ele>
        <time>2019-05-27T09:43:22Z</time>
      </trkpt>
      <trkpt lat="41.12177" lon="-8.60602">
        <ele>132.32</ele>
        <time>2019-05-27T09:43:32Z</time>
      </trkpt>
      <trkpt lat="41.12181" lon="-8.60602">
        <ele>131.36</ele>
        <time>2019-05-27T09:43:35Z</time>
      </trkpt>
      <trkpt lat="41.12185" lon="-8.60603">
        <ele>130.88</ele>
        <time>2019-05-27T09:43:38Z</time>
      </trkpt>
      <trkpt lat="41.12203" lon="-8.60591">
        <ele>130.4</ele>
        <time>2019-05-27T09:43:51Z</time>
      </trkpt>
      <trkpt lat="41.12209" lon="-8.6059">
        <ele>130.4</ele>
        <time>2019-05-27T09:44:05Z</time>
      </trkpt>
      <trkpt lat="41.12213" lon="-8.60589">
        <ele>129.43</ele>
        <time>2019-05-27T09:44:21Z</time>
      </trkpt>
      <trkpt lat="41.12225" lon="-8.60585">
        <ele>129.43</ele>
        <time>2019-05-27T09:44:34Z</time>
      </trkpt>
      <trkpt lat="41.12231" lon="-8.60582">
        <ele>127.99</ele>
        <time>2019-05-27T09:44:40Z</time>
      </trkpt>
      <trkpt lat="41.12235" lon="-8.6058">
        <ele>127.99</ele>
        <time>2019-05-27T09:44:43Z</time>
      </trkpt>
      <trkpt lat="41.12241" lon="-8.6058">
        <ele>127.51</ele>
        <time>2019-05-27T09:44:50Z</time>
      </trkpt>
      <trkpt lat="41.12264" lon="-8.60581">
        <ele>126.55</ele>
        <time>2019-05-27T09:45:05Z</time>
      </trkpt>
      <trkpt lat="41.12273" lon="-8.60579">
        <ele>125.59</ele>
        <time>2019-05-27T09:45:14Z</time>
      </trkpt>
      <trkpt lat="41.1229" lon="-8.60577">
        <ele>124.63</ele>
        <time>2019-05-27T09:45:28Z</time>
      </trkpt>
      <trkpt lat="41.12292" lon="-8.60576">
        <ele>124.63</ele>
        <time>2019-05-27T09:45:30Z</time>
      </trkpt>
      <trkpt lat="41.12297" lon="-8.60576">
        <ele>124.15</ele>
        <time>2019-05-27T09:45:35Z</time>
      </trkpt>
      <trkpt lat="41.12306" lon="-8.60572">
        <ele>123.67</ele>
        <time>2019-05-27T09:45:43Z</time>
      </trkpt>
      <trkpt lat="41.12315" lon="-8.60571">
        <ele>123.67</ele>
        <time>2019-05-27T09:45:51Z</time>
      </trkpt>
      <trkpt lat="41.12319" lon="-8.60568">
        <ele>123.19</ele>
        <time>2019-05-27T09:45:55Z</time>
      </trkpt>
      <trkpt lat="41.12338" lon="-8.60572">
        <ele>121.74</ele>
        <time>2019-05-27T09:46:11Z</time>
      </trkpt>
      <trkpt lat="41.12346" lon="-8.60574">
        <ele>120.78</ele>
        <time>2019-05-27T09:46:17Z</time>
      </trkpt>
      <trkpt lat="41.12351" lon="-8.60572">
        <ele>120.78</ele>
        <time>2019-05-27T09:46:21Z</time>
      </trkpt>
      <trkpt lat="41.12364" lon="-8.60571">
        <ele>119.82</ele>
        <time>2019-05-27T09:46:32Z</time>
      </trkpt>
      <trkpt lat="41.12376" lon="-8.60568">
        <ele>118.38</ele>
        <time>2019-05-27T09:46:46Z</time>
      </trkpt>
      <trkpt lat="41.12378" lon="-8.60568">
        <ele>118.38</ele>
        <time>2019-05-27T09:46:48Z</time>
      </trkpt>
      <trkpt lat="41.12381" lon="-8.60567">
        <ele>117.9</ele>
        <time>2019-05-27T09:46:50Z</time>
      </trkpt>
      <trkpt lat="41.12387" lon="-8.60563">
        <ele>117.42</ele>
        <time>2019-05-27T09:46:56Z</time>
      </trkpt>
      <trkpt lat="41.12405" lon="-8.60562">
        <ele>115.5</ele>
        <time>2019-05-27T09:47:10Z</time>
      </trkpt>
      <trkpt lat="41.12423" lon="-8.60565">
        <ele>115.01</ele>
        <time>2019-05-27T09:47:22Z</time>
      </trkpt>
      <trkpt lat="41.12432" lon="-8.60565">
        <ele>114.05</ele>
        <time>2019-05-27T09:47:29Z</time>
      </trkpt>
      <trkpt lat="41.12445" lon="-8.60561">
        <ele>114.05</ele>
        <time>2019-05-27T09:47:39Z</time>
      </trkpt>
      <trkpt lat="41.12452" lon="-8.60559">
        <ele>114.05</ele>
        <time>2019-05-27T09:47:45Z</time>
      </trkpt>
      <trkpt lat="41.12454" lon="-8.60558">
        <ele>113.09</ele>
        <time>2019-05-27T09:47:46Z</time>
      </trkpt>
      <trkpt lat="41.12456" lon="-8.60558">
        <ele>113.57</ele>
        <time>2019-05-27T09:47:48Z</time>
      </trkpt>
      <trkpt lat="41.12459" lon="-8.60557">
        <ele>113.57</ele>
        <time>2019-05-27T09:47:51Z</time>
      </trkpt>
      <trkpt lat="41.12474" lon="-8.60559">
        <ele>114.05</ele>
        <time>2019-05-27T09:48:03Z</time>
      </trkpt>
      <trkpt lat="41.1249" lon="-8.60561">
        <ele>111.65</ele>
        <time>2019-05-27T09:48:16Z</time>
      </trkpt>
      <trkpt lat="41.12496" lon="-8.60561">
        <ele>112.13</ele>
        <time>2019-05-27T09:48:28Z</time>
      </trkpt>
      <trkpt lat="41.12503" lon="-8.6056">
        <ele>111.65</ele>
        <time>2019-05-27T09:48:35Z</time>
      </trkpt>
      <trkpt lat="41.1251" lon="-8.60558">
        <ele>111.65</ele>
        <time>2019-05-27T09:48:40Z</time>
      </trkpt>
      <trkpt lat="41.12519" lon="-8.60557">
        <ele>110.69</ele>
        <time>2019-05-27T09:48:51Z</time>
      </trkpt>
      <trkpt lat="41.12532" lon="-8.60565">
        <ele>109.25</ele>
        <time>2019-05-27T09:49:04Z</time>
      </trkpt>
      <trkpt lat="41.12537" lon="-8.60562">
        <ele>108.77</ele>
        <time>2019-05-27T09:49:11Z</time>
      </trkpt>
      <trkpt lat="41.1254" lon="-8.60554">
        <ele>108.77</ele>
        <time>2019-05-27T09:49:22Z</time>
      </trkpt>
      <trkpt lat="41.12553" lon="-8.60547">
        <ele>109.25</ele>
        <time>2019-05-27T09:49:34Z</time>
      </trkpt>
      <trkpt lat="41.12558" lon="-8.60547">
        <ele>108.29</ele>
        <time>2019-05-27T09:49:38Z</time>
      </trkpt>
      <trkpt lat="41.12563" lon="-8.60548">
        <ele>108.29</ele>
        <time>2019-05-27T09:49:42Z</time>
      </trkpt>
      <trkpt lat="41.1258" lon="-8.60545">
        <ele>108.77</ele>
        <time>2019-05-27T09:49:55Z</time>
      </trkpt>
      <trkpt lat="41.12595" lon="-8.60541">
        <ele>108.77</ele>
        <time>2019-05-27T09:50:06Z</time>
      </trkpt>
      <trkpt lat="41.12616" lon="-8.6054">
        <ele>108.29</ele>
        <time>2019-05-27T09:50:22Z</time>
      </trkpt>
      <trkpt lat="41.12618" lon="-8.6054">
        <ele>108.77</ele>
        <time>2019-05-27T09:50:24Z</time>
      </trkpt>
      <trkpt lat="41.12622" lon="-8.6054">
        <ele>108.77</ele>
        <time>2019-05-27T09:50:28Z</time>
      </trkpt>
      <trkpt lat="41.12637" lon="-8.60539">
        <ele>108.29</ele>
        <time>2019-05-27T09:50:40Z</time>
      </trkpt>
      <trkpt lat="41.12649" lon="-8.60542">
        <ele>107.81</ele>
        <time>2019-05-27T09:50:49Z</time>
      </trkpt>
      <trkpt lat="41.1266" lon="-8.60546">
        <ele>107.32</ele>
        <time>2019-05-27T09:51:01Z</time>
      </trkpt>
      <trkpt lat="41.1267" lon="-8.60545">
        <ele>107.32</ele>
        <time>2019-05-27T09:51:13Z</time>
      </trkpt>
      <trkpt lat="41.12675" lon="-8.60545">
        <ele>106.84</ele>
        <time>2019-05-27T09:51:20Z</time>
      </trkpt>
      <trkpt lat="41.12679" lon="-8.60546">
        <ele>108.29</ele>
        <time>2019-05-27T09:51:24Z</time>
      </trkpt>
      <trkpt lat="41.12696" lon="-8.60546">
        <ele>107.81</ele>
        <time>2019-05-27T09:51:35Z</time>
      </trkpt>
      <trkpt lat="41.12702" lon="-8.60544">
        <ele>107.81</ele>
        <time>2019-05-27T09:51:39Z</time>
      </trkpt>
      <trkpt lat="41.12708" lon="-8.60543">
        <ele>107.81</ele>
        <time>2019-05-27T09:51:44Z</time>
      </trkpt>
      <trkpt lat="41.12714" lon="-8.60542">
        <ele>107.81</ele>
        <time>2019-05-27T09:51:50Z</time>
      </trkpt>
      <trkpt lat="41.12728" lon="-8.60546">
        <ele>108.29</ele>
        <time>2019-05-27T09:52:02Z</time>
      </trkpt>
      <trkpt lat="41.12739" lon="-8.60548">
        <ele>107.81</ele>
        <time>2019-05-27T09:52:11Z</time>
      </trkpt>
      <trkpt lat="41.12752" lon="-8.60556">
        <ele>107.81</ele>
        <time>2019-05-27T09:52:22Z</time>
      </trkpt>
      <trkpt lat="41.1277" lon="-8.60552">
        <ele>107.81</ele>
        <time>2019-05-27T09:52:34Z</time>
      </trkpt>
      <trkpt lat="41.12789" lon="-8.60553">
        <ele>107.81</ele>
        <time>2019-05-27T09:52:47Z</time>
      </trkpt>
      <trkpt lat="41.12806" lon="-8.60555">
        <ele>108.77</ele>
        <time>2019-05-27T09:53:00Z</time>
      </trkpt>
      <trkpt lat="41.12812" lon="-8.60556">
        <ele>108.29</ele>
        <time>2019-05-27T09:53:07Z</time>
      </trkpt>
      <trkpt lat="41.12826" lon="-8.6056">
        <ele>108.29</ele>
        <time>2019-05-27T09:53:21Z</time>
      </trkpt>
      <trkpt lat="41.12827" lon="-8.60561">
        <ele>107.81</ele>
        <time>2019-05-27T09:53:22Z</time>
      </trkpt>
      <trkpt lat="41.12839" lon="-8.60573">
        <ele>108.29</ele>
        <time>2019-05-27T09:53:36Z</time>
      </trkpt>
      <trkpt lat="41.12839" lon="-8.60587">
        <ele>107.32</ele>
        <time>2019-05-27T09:53:49Z</time>
      </trkpt>
      <trkpt lat="41.12841" lon="-8.60593">
        <ele>106.84</ele>
        <time>2019-05-27T09:54:08Z</time>
      </trkpt>
      <trkpt lat="41.12852" lon="-8.60595">
        <ele>107.32</ele>
        <time>2019-05-27T09:54:20Z</time>
      </trkpt>
      <trkpt lat="41.12874" lon="-8.60602">
        <ele>106.84</ele>
        <time>2019-05-27T09:54:33Z</time>
      </trkpt>
      <trkpt lat="41.12886" lon="-8.60611">
        <ele>105.4</ele>
        <time>2019-05-27T09:54:46Z</time>
      </trkpt>
      <trkpt lat="41.12893" lon="-8.60613">
        <ele>104.92</ele>
        <time>2019-05-27T09:54:51Z</time>
      </trkpt>
      <trkpt lat="41.12912" lon="-8.60605">
        <ele>104.92</ele>
        <time>2019-05-27T09:55:03Z</time>
      </trkpt>
      <trkpt lat="41.12923" lon="-8.60605">
        <ele>103.48</ele>
        <time>2019-05-27T09:55:14Z</time>
      </trkpt>
      <trkpt lat="41.12939" lon="-8.60594">
        <ele>103.96</ele>
        <time>2019-05-27T09:55:25Z</time>
      </trkpt>
      <trkpt lat="41.1295" lon="-8.60593">
        <ele>103</ele>
        <time>2019-05-27T09:55:35Z</time>
      </trkpt>
      <trkpt lat="41.12966" lon="-8.60594">
        <ele>102.04</ele>
        <time>2019-05-27T09:55:50Z</time>
      </trkpt>
      <trkpt lat="41.12984" lon="-8.60602">
        <ele>101.08</ele>
        <time>2019-05-27T09:56:04Z</time>
      </trkpt>
      <trkpt lat="41.13005" lon="-8.60608">
        <ele>100.11</ele>
        <time>2019-05-27T09:56:17Z</time>
      </trkpt>
      <trkpt lat="41.13006" lon="-8.60609">
        <ele>100.11</ele>
        <time>2019-05-27T09:56:19Z</time>
      </trkpt>
      <trkpt lat="41.13013" lon="-8.6061">
        <ele>99.15</ele>
        <time>2019-05-27T09:56:29Z</time>
      </trkpt>
      <trkpt lat="41.13025" lon="-8.60612">
        <ele>98.67</ele>
        <time>2019-05-27T09:56:42Z</time>
      </trkpt>
      <trkpt lat="41.13032" lon="-8.60614">
        <ele>99.15</ele>
        <time>2019-05-27T09:56:52Z</time>
      </trkpt>
      <trkpt lat="41.13032" lon="-8.60617">
        <ele>98.67</ele>
        <time>2019-05-27T09:56:56Z</time>
      </trkpt>
      <trkpt lat="41.13036" lon="-8.60621">
        <ele>98.67</ele>
        <time>2019-05-27T09:57:01Z</time>
      </trkpt>
      <trkpt lat="41.13041" lon="-8.60624">
        <ele>98.19</ele>
        <time>2019-05-27T09:57:08Z</time>
      </trkpt>
      <trkpt lat="41.13057" lon="-8.6063">
        <ele>96.75</ele>
        <time>2019-05-27T09:57:22Z</time>
      </trkpt>
      <trkpt lat="41.13067" lon="-8.60633">
        <ele>96.27</ele>
        <time>2019-05-27T09:57:31Z</time>
      </trkpt>
      <trkpt lat="41.13074" lon="-8.60638">
        <ele>95.31</ele>
        <time>2019-05-27T09:57:38Z</time>
      </trkpt>
      <trkpt lat="41.13083" lon="-8.60648">
        <ele>94.35</ele>
        <time>2019-05-27T09:57:46Z</time>
      </trkpt>
      <trkpt lat="41.13097" lon="-8.60662">
        <ele>93.39</ele>
        <time>2019-05-27T09:58:01Z</time>
      </trkpt>
      <trkpt lat="41.13107" lon="-8.60671">
        <ele>93.39</ele>
        <time>2019-05-27T09:58:16Z</time>
      </trkpt>
      <trkpt lat="41.13114" lon="-8.60671">
        <ele>92.9</ele>
        <time>2019-05-27T09:58:24Z</time>
      </trkpt>
      <trkpt lat="41.13117" lon="-8.6067">
        <ele>92.42</ele>
        <time>2019-05-27T09:58:26Z</time>
      </trkpt>
      <trkpt lat="41.13126" lon="-8.60674">
        <ele>92.42</ele>
        <time>2019-05-27T09:58:36Z</time>
      </trkpt>
      <trkpt lat="41.13134" lon="-8.60676">
        <ele>91.46</ele>
        <time>2019-05-27T09:58:44Z</time>
      </trkpt>
      <trkpt lat="41.13148" lon="-8.6069">
        <ele>90.98</ele>
        <time>2019-05-27T09:58:59Z</time>
      </trkpt>
      <trkpt lat="41.13162" lon="-8.60698">
        <ele>89.54</ele>
        <time>2019-05-27T09:59:14Z</time>
      </trkpt>
      <trkpt lat="41.13173" lon="-8.60702">
        <ele>89.54</ele>
        <time>2019-05-27T09:59:28Z</time>
      </trkpt>
      <trkpt lat="41.1319" lon="-8.60712">
        <ele>88.1</ele>
        <time>2019-05-27T09:59:41Z</time>
      </trkpt>
      <trkpt lat="41.132" lon="-8.60716">
        <ele>87.62</ele>
        <time>2019-05-27T09:59:55Z</time>
      </trkpt>
      <trkpt lat="41.13213" lon="-8.60714">
        <ele>87.14</ele>
        <time>2019-05-27T10:00:05Z</time>
      </trkpt>
      <trkpt lat="41.13216" lon="-8.60713">
        <ele>86.18</ele>
        <time>2019-05-27T10:00:11Z</time>
      </trkpt>
      <trkpt lat="41.13225" lon="-8.60715">
        <ele>85.69</ele>
        <time>2019-05-27T10:00:19Z</time>
      </trkpt>
      <trkpt lat="41.13243" lon="-8.60719">
        <ele>84.73</ele>
        <time>2019-05-27T10:00:33Z</time>
      </trkpt>
      <trkpt lat="41.13261" lon="-8.60723">
        <ele>84.25</ele>
        <time>2019-05-27T10:00:46Z</time>
      </trkpt>
      <trkpt lat="41.13267" lon="-8.60721">
        <ele>84.25</ele>
        <time>2019-05-27T10:00:51Z</time>
      </trkpt>
      <trkpt lat="41.13293" lon="-8.60718">
        <ele>83.77</ele>
        <time>2019-05-27T10:01:05Z</time>
      </trkpt>
      <trkpt lat="41.13314" lon="-8.60709">
        <ele>82.81</ele>
        <time>2019-05-27T10:01:19Z</time>
      </trkpt>
      <trkpt lat="41.13335" lon="-8.60715">
        <ele>81.85</ele>
        <time>2019-05-27T10:01:34Z</time>
      </trkpt>
      <trkpt lat="41.13347" lon="-8.60718">
        <ele>81.37</ele>
        <time>2019-05-27T10:01:45Z</time>
      </trkpt>
      <trkpt lat="41.13351" lon="-8.6072">
        <ele>81.37</ele>
        <time>2019-05-27T10:01:49Z</time>
      </trkpt>
      <trkpt lat="41.13351" lon="-8.6072">
        <ele>81.37</ele>
        <time>2019-05-27T10:01:50Z</time>
      </trkpt>
      <trkpt lat="41.13358" lon="-8.60724">
        <ele>79.45</ele>
        <time>2019-05-27T10:02:00Z</time>
      </trkpt>
      <trkpt lat="41.13362" lon="-8.60724">
        <ele>79.93</ele>
        <time>2019-05-27T10:02:03Z</time>
      </trkpt>
      <trkpt lat="41.13376" lon="-8.60727">
        <ele>78.97</ele>
        <time>2019-05-27T10:02:16Z</time>
      </trkpt>
      <trkpt lat="41.13388" lon="-8.6074">
        <ele>78.48</ele>
        <time>2019-05-27T10:02:30Z</time>
      </trkpt>
      <trkpt lat="41.13401" lon="-8.60764">
        <ele>77.52</ele>
        <time>2019-05-27T10:02:46Z</time>
      </trkpt>
      <trkpt lat="41.13417" lon="-8.60778">
        <ele>76.56</ele>
        <time>2019-05-27T10:03:02Z</time>
      </trkpt>
      <trkpt lat="41.1343" lon="-8.60779">
        <ele>76.56</ele>
        <time>2019-05-27T10:03:17Z</time>
      </trkpt>
      <trkpt lat="41.13441" lon="-8.60788">
        <ele>75.6</ele>
        <time>2019-05-27T10:03:28Z</time>
      </trkpt>
      <trkpt lat="41.13455" lon="-8.60788">
        <ele>75.12</ele>
        <time>2019-05-27T10:03:41Z</time>
      </trkpt>
      <trkpt lat="41.13468" lon="-8.60795">
        <ele>75.6</ele>
        <time>2019-05-27T10:03:54Z</time>
      </trkpt>
      <trkpt lat="41.1348" lon="-8.60799">
        <ele>75.6</ele>
        <time>2019-05-27T10:04:07Z</time>
      </trkpt>
      <trkpt lat="41.13492" lon="-8.60806">
        <ele>74.64</ele>
        <time>2019-05-27T10:04:21Z</time>
      </trkpt>
      <trkpt lat="41.1351" lon="-8.60812">
        <ele>73.68</ele>
        <time>2019-05-27T10:04:36Z</time>
      </trkpt>
      <trkpt lat="41.13527" lon="-8.60816">
        <ele>74.16</ele>
        <time>2019-05-27T10:04:46Z</time>
      </trkpt>
      <trkpt lat="41.13538" lon="-8.60826">
        <ele>74.16</ele>
        <time>2019-05-27T10:04:59Z</time>
      </trkpt>
      <trkpt lat="41.13547" lon="-8.60824">
        <ele>74.16</ele>
        <time>2019-05-27T10:05:05Z</time>
      </trkpt>
      <trkpt lat="41.13563" lon="-8.60811">
        <ele>74.16</ele>
        <time>2019-05-27T10:05:17Z</time>
      </trkpt>
      <trkpt lat="41.13575" lon="-8.6081">
        <ele>74.16</ele>
        <time>2019-05-27T10:05:25Z</time>
      </trkpt>
      <trkpt lat="41.13589" lon="-8.608">
        <ele>73.68</ele>
        <time>2019-05-27T10:05:37Z</time>
      </trkpt>
      <trkpt lat="41.13592" lon="-8.608">
        <ele>73.2</ele>
        <time>2019-05-27T10:05:39Z</time>
      </trkpt>
      <trkpt lat="41.13606" lon="-8.60798">
        <ele>73.68</ele>
        <time>2019-05-27T10:05:50Z</time>
      </trkpt>
      <trkpt lat="41.13623" lon="-8.60797">
        <ele>74.16</ele>
        <time>2019-05-27T10:06:04Z</time>
      </trkpt>
      <trkpt lat="41.13628" lon="-8.60798">
        <ele>74.16</ele>
        <time>2019-05-27T10:06:09Z</time>
      </trkpt>
      <trkpt lat="41.13636" lon="-8.60809">
        <ele>73.68</ele>
        <time>2019-05-27T10:06:18Z</time>
      </trkpt>
      <trkpt lat="41.13642" lon="-8.60815">
        <ele>73.68</ele>
        <time>2019-05-27T10:06:25Z</time>
      </trkpt>
      <trkpt lat="41.13654" lon="-8.60821">
        <ele>72.72</ele>
        <time>2019-05-27T10:06:38Z</time>
      </trkpt>
      <trkpt lat="41.13667" lon="-8.60825">
        <ele>72.72</ele>
        <time>2019-05-27T10:06:50Z</time>
      </trkpt>
      <trkpt lat="41.13677" lon="-8.60832">
        <ele>72.72</ele>
        <time>2019-05-27T10:06:58Z</time>
      </trkpt>
      <trkpt lat="41.13695" lon="-8.60836">
        <ele>72.24</ele>
        <time>2019-05-27T10:07:10Z</time>
      </trkpt>
      <trkpt lat="41.13709" lon="-8.60845">
        <ele>71.27</ele>
        <time>2019-05-27T10:07:21Z</time>
      </trkpt>
      <trkpt lat="41.13713" lon="-8.60846">
        <ele>70.79</ele>
        <time>2019-05-27T10:07:25Z</time>
      </trkpt>
      <trkpt lat="41.13718" lon="-8.6085">
        <ele>71.27</ele>
        <time>2019-05-27T10:07:37Z</time>
      </trkpt>
      <trkpt lat="41.13729" lon="-8.60852">
        <ele>70.79</ele>
        <time>2019-05-27T10:07:49Z</time>
      </trkpt>
      <trkpt lat="41.13737" lon="-8.60853">
        <ele>71.27</ele>
        <time>2019-05-27T10:07:55Z</time>
      </trkpt>
      <trkpt lat="41.1374" lon="-8.60854">
        <ele>69.83</ele>
        <time>2019-05-27T10:07:59Z</time>
      </trkpt>
      <trkpt lat="41.13743" lon="-8.60855">
        <ele>71.27</ele>
        <time>2019-05-27T10:08:02Z</time>
      </trkpt>
      <trkpt lat="41.13757" lon="-8.60858">
        <ele>70.31</ele>
        <time>2019-05-27T10:08:15Z</time>
      </trkpt>
      <trkpt lat="41.13769" lon="-8.6086">
        <ele>71.27</ele>
        <time>2019-05-27T10:08:26Z</time>
      </trkpt>
      <trkpt lat="41.13771" lon="-8.60861">
        <ele>68.87</ele>
        <time>2019-05-27T10:08:27Z</time>
      </trkpt>
      <trkpt lat="41.13787" lon="-8.60864">
        <ele>69.83</ele>
        <time>2019-05-27T10:08:41Z</time>
      </trkpt>
      <trkpt lat="41.13799" lon="-8.6087">
        <ele>69.35</ele>
        <time>2019-05-27T10:08:50Z</time>
      </trkpt>
      <trkpt lat="41.1381" lon="-8.60878">
        <ele>68.39</ele>
        <time>2019-05-27T10:09:00Z</time>
      </trkpt>
      <trkpt lat="41.13823" lon="-8.60891">
        <ele>69.35</ele>
        <time>2019-05-27T10:09:13Z</time>
      </trkpt>
      <trkpt lat="41.13826" lon="-8.60892">
        <ele>65.99</ele>
        <time>2019-05-27T10:09:19Z</time>
      </trkpt>
      <trkpt lat="41.13826" lon="-8.60892">
        <ele>69.35</ele>
        <time>2019-05-27T10:09:20Z</time>
      </trkpt>
      <trkpt lat="41.13834" lon="-8.60896">
        <ele>68.87</ele>
        <time>2019-05-27T10:09:41Z</time>
      </trkpt>
      <trkpt lat="41.13843" lon="-8.60895">
        <ele>68.87</ele>
        <time>2019-05-27T10:09:59Z</time>
      </trkpt>
      <trkpt lat="41.13849" lon="-8.609">
        <ele>68.39</ele>
        <time>2019-05-27T10:10:13Z</time>
      </trkpt>
      <trkpt lat="41.13847" lon="-8.60898">
        <ele>68.87</ele>
        <time>2019-05-27T10:10:36Z</time>
      </trkpt>
      <trkpt lat="41.13846" lon="-8.60902">
        <ele>68.87</ele>
        <time>2019-05-27T10:10:56Z</time>
      </trkpt>
      <trkpt lat="41.13843" lon="-8.60899">
        <ele>69.35</ele>
        <time>2019-05-27T10:11:13Z</time>
      </trkpt>
      <trkpt lat="41.13844" lon="-8.60897">
        <ele>69.35</ele>
        <time>2019-05-27T10:11:33Z</time>
      </trkpt>
      <trkpt lat="41.13847" lon="-8.60898">
        <ele>69.83</ele>
        <time>2019-05-27T10:11:49Z</time>
      </trkpt>
      <trkpt lat="41.13846" lon="-8.60897">
        <ele>69.35</ele>
        <time>2019-05-27T10:12:07Z</time>
      </trkpt>
      <trkpt lat="41.13846" lon="-8.60896">
        <ele>69.35</ele>
        <time>2019-05-27T10:12:22Z</time>
      </trkpt>
      <trkpt lat="41.13844" lon="-8.60901">
        <ele>69.35</ele>
        <time>2019-05-27T10:12:40Z</time>
      </trkpt>
      <trkpt lat="41.13848" lon="-8.60899">
        <ele>69.35</ele>
        <time>2019-05-27T10:13:01Z</time>
      </trkpt>
      <trkpt lat="41.13842" lon="-8.60895">
        <ele>69.83</ele>
        <time>2019-05-27T10:13:18Z</time>
      </trkpt>
      <trkpt lat="41.13853" lon="-8.609">
        <ele>69.35</ele>
        <time>2019-05-27T10:13:39Z</time>
      </trkpt>
      <trkpt lat="41.13859" lon="-8.60899">
        <ele>69.35</ele>
        <time>2019-05-27T10:13:57Z</time>
      </trkpt>
      <trkpt lat="41.13852" lon="-8.60896">
        <ele>68.87</ele>
        <time>2019-05-27T10:14:08Z</time>
      </trkpt>
      <trkpt lat="41.13851" lon="-8.60896">
        <ele>68.39</ele>
        <time>2019-05-27T10:14:24Z</time>
      </trkpt>
      <trkpt lat="41.13845" lon="-8.60897">
        <ele>68.39</ele>
        <time>2019-05-27T10:14:35Z</time>
      </trkpt>
      <trkpt lat="41.13848" lon="-8.60898">
        <ele>68.87</ele>
        <time>2019-05-27T10:14:48Z</time>
      </trkpt>
      <trkpt lat="41.13858" lon="-8.609">
        <ele>68.87</ele>
        <time>2019-05-27T10:15:04Z</time>
      </trkpt>
      <trkpt lat="41.13869" lon="-8.60904">
        <ele>69.83</ele>
        <time>2019-05-27T10:15:13Z</time>
      </trkpt>
      <trkpt lat="41.13875" lon="-8.60906">
        <ele>68.87</ele>
        <time>2019-05-27T10:15:19Z</time>
      </trkpt>
      <trkpt lat="41.1389" lon="-8.60911">
        <ele>68.87</ele>
        <time>2019-05-27T10:15:32Z</time>
      </trkpt>
      <trkpt lat="41.13901" lon="-8.60915">
        <ele>70.31</ele>
        <time>2019-05-27T10:15:44Z</time>
      </trkpt>
      <trkpt lat="41.13905" lon="-8.60918">
        <ele>69.35</ele>
        <time>2019-05-27T10:15:48Z</time>
      </trkpt>
      <trkpt lat="41.13912" lon="-8.60921">
        <ele>69.83</ele>
        <time>2019-05-27T10:16:01Z</time>
      </trkpt>
      <trkpt lat="41.13922" lon="-8.60924">
        <ele>69.83</ele>
        <time>2019-05-27T10:16:13Z</time>
      </trkpt>
      <trkpt lat="41.13934" lon="-8.60927">
        <ele>69.83</ele>
        <time>2019-05-27T10:16:23Z</time>
      </trkpt>
      <trkpt lat="41.13944" lon="-8.60931">
        <ele>70.79</ele>
        <time>2019-05-27T10:16:35Z</time>
      </trkpt>
      <trkpt lat="41.13955" lon="-8.60933">
        <ele>70.31</ele>
        <time>2019-05-27T10:16:47Z</time>
      </trkpt>
      <trkpt lat="41.13962" lon="-8.60934">
        <ele>70.79</ele>
        <time>2019-05-27T10:16:58Z</time>
      </trkpt>
      <trkpt lat="41.13983" lon="-8.6094">
        <ele>70.79</ele>
        <time>2019-05-27T10:17:13Z</time>
      </trkpt>
      <trkpt lat="41.1399" lon="-8.60943">
        <ele>71.27</ele>
        <time>2019-05-27T10:17:18Z</time>
      </trkpt>
      <trkpt lat="41.14004" lon="-8.60947">
        <ele>70.31</ele>
        <time>2019-05-27T10:17:31Z</time>
      </trkpt>
      <trkpt lat="41.14009" lon="-8.60951">
        <ele>69.83</ele>
        <time>2019-05-27T10:17:43Z</time>
      </trkpt>
      <trkpt lat="41.14016" lon="-8.60951">
        <ele>70.31</ele>
        <time>2019-05-27T10:17:57Z</time>
      </trkpt>
      <trkpt lat="41.14025" lon="-8.60956">
        <ele>70.31</ele>
        <time>2019-05-27T10:18:14Z</time>
      </trkpt>
      <trkpt lat="41.14038" lon="-8.60959">
        <ele>69.83</ele>
        <time>2019-05-27T10:18:28Z</time>
      </trkpt>
      <trkpt lat="41.14043" lon="-8.60962">
        <ele>70.31</ele>
        <time>2019-05-27T10:18:40Z</time>
      </trkpt>
      <trkpt lat="41.14058" lon="-8.60967">
        <ele>70.31</ele>
        <time>2019-05-27T10:18:54Z</time>
      </trkpt>
      <trkpt lat="41.14069" lon="-8.60969">
        <ele>70.31</ele>
        <time>2019-05-27T10:19:10Z</time>
      </trkpt>
      <trkpt lat="41.14079" lon="-8.60969">
        <ele>70.79</ele>
        <time>2019-05-27T10:19:32Z</time>
      </trkpt>
      <trkpt lat="41.14087" lon="-8.60974">
        <ele>69.83</ele>
        <time>2019-05-27T10:19:43Z</time>
      </trkpt>
      <trkpt lat="41.14098" lon="-8.60978">
        <ele>70.31</ele>
        <time>2019-05-27T10:19:52Z</time>
      </trkpt>
      <trkpt lat="41.14107" lon="-8.60981">
        <ele>69.83</ele>
        <time>2019-05-27T10:20:04Z</time>
      </trkpt>
      <trkpt lat="41.14122" lon="-8.60987">
        <ele>68.87</ele>
        <time>2019-05-27T10:20:18Z</time>
      </trkpt>
      <trkpt lat="41.14136" lon="-8.60992">
        <ele>68.87</ele>
        <time>2019-05-27T10:20:31Z</time>
      </trkpt>
      <trkpt lat="41.14148" lon="-8.60995">
        <ele>68.39</ele>
        <time>2019-05-27T10:20:42Z</time>
      </trkpt>
      <trkpt lat="41.14163" lon="-8.61001">
        <ele>67.91</ele>
        <time>2019-05-27T10:20:56Z</time>
      </trkpt>
      <trkpt lat="41.14175" lon="-8.61003">
        <ele>68.39</ele>
        <time>2019-05-27T10:21:07Z</time>
      </trkpt>
      <trkpt lat="41.14185" lon="-8.6101">
        <ele>68.39</ele>
        <time>2019-05-27T10:21:20Z</time>
      </trkpt>
      <trkpt lat="41.14201" lon="-8.61015">
        <ele>67.91</ele>
        <time>2019-05-27T10:21:33Z</time>
      </trkpt>
      <trkpt lat="41.14218" lon="-8.61019">
        <ele>68.87</ele>
        <time>2019-05-27T10:21:48Z</time>
      </trkpt>
      <trkpt lat="41.14228" lon="-8.61018">
        <ele>69.83</ele>
        <time>2019-05-27T10:22:03Z</time>
      </trkpt>
      <trkpt lat="41.14237" lon="-8.61016">
        <ele>70.79</ele>
        <time>2019-05-27T10:22:16Z</time>
      </trkpt>
      <trkpt lat="41.14247" lon="-8.61013">
        <ele>70.79</ele>
        <time>2019-05-27T10:22:29Z</time>
      </trkpt>
      <trkpt lat="41.14259" lon="-8.61014">
        <ele>71.27</ele>
        <time>2019-05-27T10:22:43Z</time>
      </trkpt>
      <trkpt lat="41.14269" lon="-8.61017">
        <ele>72.24</ele>
        <time>2019-05-27T10:22:57Z</time>
      </trkpt>
      <trkpt lat="41.14274" lon="-8.61009">
        <ele>72.72</ele>
        <time>2019-05-27T10:23:18Z</time>
      </trkpt>
    </trkseg>
  </trk>
</gpx>